<?xml version="1.0" encoding="UTF-8" standalone="no" ?>
<gpx xmlns="http://www.topografix.com/GPX/1/1" xmlns:xsi="http://www.w3.org/2001/XMLSchema-instance" xsi:schemaLocation="http://www.topografix.com/GPX/1/1 http://www.topografix.com/GPX/1/1/gpx.xsd" version="1.1" creator="VisuGPX - https://www.visugpx.com">
  <metadata>
    <name>Reco Rontalon / St Martin en Haut.      4 déc. 2025</name>
    <desc><![CDATA[comment ...]]></desc>
  </metadata>
  <trk>
    <name><![CDATA[4 déc. 2025 reco]]></name>
    <desc><![CDATA[comment ...]]></desc>
    <extensions>
      <line xmlns="http://www.topografix.com/GPX/gpx_style/0/2">
        <color>0000FF</color>
        <opacity>1</opacity>
        <width>4</width>
        <dasharray>16</dasharray>
      </line>
    </extensions>
    <trkseg>
      <trkpt lat="45.65828" lon="4.60261">
        <ele>631.8</ele>
        <time>2025-12-04T07:53:34Z</time>
      </trkpt>
      <trkpt lat="45.65828" lon="4.60261">
        <ele>631.8</ele>
        <time>2025-12-04T07:53:36Z</time>
      </trkpt>
      <trkpt lat="45.65833" lon="4.60262">
        <ele>632</ele>
        <time>2025-12-04T07:54:52Z</time>
      </trkpt>
      <trkpt lat="45.65836" lon="4.60262">
        <ele>631.9</ele>
        <time>2025-12-04T07:54:56Z</time>
      </trkpt>
      <trkpt lat="45.65838" lon="4.60255">
        <ele>631.9</ele>
        <time>2025-12-04T07:55:30Z</time>
      </trkpt>
      <trkpt lat="45.65846" lon="4.60254">
        <ele>631.9</ele>
        <time>2025-12-04T07:55:40Z</time>
      </trkpt>
      <trkpt lat="45.65842" lon="4.60258">
        <ele>631.8</ele>
        <time>2025-12-04T07:57:10Z</time>
      </trkpt>
      <trkpt lat="45.65844" lon="4.60256">
        <ele>631.8</ele>
        <time>2025-12-04T07:57:22Z</time>
      </trkpt>
      <trkpt lat="45.6587" lon="4.60231">
        <ele>633</ele>
        <time>2025-12-04T07:57:54Z</time>
      </trkpt>
      <trkpt lat="45.6588" lon="4.60224">
        <ele>633.2</ele>
        <time>2025-12-04T07:58:06Z</time>
      </trkpt>
      <trkpt lat="45.65883" lon="4.60222">
        <ele>633.2</ele>
        <time>2025-12-04T07:58:10Z</time>
      </trkpt>
      <trkpt lat="45.65887" lon="4.60218">
        <ele>633.4</ele>
        <time>2025-12-04T07:58:16Z</time>
      </trkpt>
      <trkpt lat="45.65896" lon="4.6021">
        <ele>633.5</ele>
        <time>2025-12-04T07:58:26Z</time>
      </trkpt>
      <trkpt lat="45.659" lon="4.60207">
        <ele>633.5</ele>
        <time>2025-12-04T07:58:30Z</time>
      </trkpt>
      <trkpt lat="45.65904" lon="4.60203">
        <ele>633.7</ele>
        <time>2025-12-04T07:58:34Z</time>
      </trkpt>
      <trkpt lat="45.65908" lon="4.60199">
        <ele>633.8</ele>
        <time>2025-12-04T07:58:38Z</time>
      </trkpt>
      <trkpt lat="45.65932" lon="4.60174">
        <ele>634.5</ele>
        <time>2025-12-04T07:59:02Z</time>
      </trkpt>
      <trkpt lat="45.65945" lon="4.60162">
        <ele>634.6</ele>
        <time>2025-12-04T07:59:14Z</time>
      </trkpt>
      <trkpt lat="45.65974" lon="4.6012">
        <ele>637.6</ele>
        <time>2025-12-04T07:59:46Z</time>
      </trkpt>
      <trkpt lat="45.65977" lon="4.60114">
        <ele>637.9</ele>
        <time>2025-12-04T07:59:50Z</time>
      </trkpt>
      <trkpt lat="45.65995" lon="4.60094">
        <ele>639.4</ele>
        <time>2025-12-04T08:00:10Z</time>
      </trkpt>
      <trkpt lat="45.65998" lon="4.60098">
        <ele>638.2</ele>
        <time>2025-12-04T08:00:12Z</time>
      </trkpt>
      <trkpt lat="45.66002" lon="4.60097">
        <ele>637.7</ele>
        <time>2025-12-04T08:00:16Z</time>
      </trkpt>
      <trkpt lat="45.66004" lon="4.60094">
        <ele>638</ele>
        <time>2025-12-04T08:00:20Z</time>
      </trkpt>
      <trkpt lat="45.66015" lon="4.60087">
        <ele>637.3</ele>
        <time>2025-12-04T08:00:56Z</time>
      </trkpt>
      <trkpt lat="45.66021" lon="4.60077">
        <ele>637.3</ele>
        <time>2025-12-04T08:01:06Z</time>
      </trkpt>
      <trkpt lat="45.66033" lon="4.60058">
        <ele>637.7</ele>
        <time>2025-12-04T08:01:24Z</time>
      </trkpt>
      <trkpt lat="45.66057" lon="4.6003">
        <ele>638.6</ele>
        <time>2025-12-04T08:01:52Z</time>
      </trkpt>
      <trkpt lat="45.66062" lon="4.60027">
        <ele>638.6</ele>
        <time>2025-12-04T08:01:56Z</time>
      </trkpt>
      <trkpt lat="45.66067" lon="4.60026">
        <ele>638.4</ele>
        <time>2025-12-04T08:02:00Z</time>
      </trkpt>
      <trkpt lat="45.66075" lon="4.60031">
        <ele>637.1</ele>
        <time>2025-12-04T08:02:08Z</time>
      </trkpt>
      <trkpt lat="45.66078" lon="4.60024">
        <ele>637.8</ele>
        <time>2025-12-04T08:02:22Z</time>
      </trkpt>
      <trkpt lat="45.66081" lon="4.60013">
        <ele>638.7</ele>
        <time>2025-12-04T08:02:30Z</time>
      </trkpt>
      <trkpt lat="45.66084" lon="4.60008">
        <ele>639.1</ele>
        <time>2025-12-04T08:02:34Z</time>
      </trkpt>
      <trkpt lat="45.66093" lon="4.59993">
        <ele>639.3</ele>
        <time>2025-12-04T08:02:46Z</time>
      </trkpt>
      <trkpt lat="45.66108" lon="4.59967">
        <ele>640.1</ele>
        <time>2025-12-04T08:03:08Z</time>
      </trkpt>
      <trkpt lat="45.66114" lon="4.59955">
        <ele>640.4</ele>
        <time>2025-12-04T08:03:16Z</time>
      </trkpt>
      <trkpt lat="45.6612" lon="4.59945">
        <ele>640.4</ele>
        <time>2025-12-04T08:03:24Z</time>
      </trkpt>
      <trkpt lat="45.66146" lon="4.59903">
        <ele>644.3</ele>
        <time>2025-12-04T08:03:56Z</time>
      </trkpt>
      <trkpt lat="45.66173" lon="4.5986">
        <ele>647</ele>
        <time>2025-12-04T08:04:28Z</time>
      </trkpt>
      <trkpt lat="45.66187" lon="4.59839">
        <ele>647.8</ele>
        <time>2025-12-04T08:04:44Z</time>
      </trkpt>
      <trkpt lat="45.66212" lon="4.59791">
        <ele>649.1</ele>
        <time>2025-12-04T08:05:16Z</time>
      </trkpt>
      <trkpt lat="45.66217" lon="4.5977">
        <ele>649.6</ele>
        <time>2025-12-04T08:05:28Z</time>
      </trkpt>
      <trkpt lat="45.6622" lon="4.59765">
        <ele>649.4</ele>
        <time>2025-12-04T08:05:32Z</time>
      </trkpt>
      <trkpt lat="45.66223" lon="4.5975">
        <ele>649.9</ele>
        <time>2025-12-04T08:05:46Z</time>
      </trkpt>
      <trkpt lat="45.66223" lon="4.59744">
        <ele>650.3</ele>
        <time>2025-12-04T08:06:08Z</time>
      </trkpt>
      <trkpt lat="45.66226" lon="4.5974">
        <ele>650.3</ele>
        <time>2025-12-04T08:06:40Z</time>
      </trkpt>
      <trkpt lat="45.66224" lon="4.59734">
        <ele>650.9</ele>
        <time>2025-12-04T08:06:56Z</time>
      </trkpt>
      <trkpt lat="45.66222" lon="4.59721">
        <ele>652.1</ele>
        <time>2025-12-04T08:07:08Z</time>
      </trkpt>
      <trkpt lat="45.66223" lon="4.59716">
        <ele>651.9</ele>
        <time>2025-12-04T08:07:12Z</time>
      </trkpt>
      <trkpt lat="45.66224" lon="4.59687">
        <ele>651.9</ele>
        <time>2025-12-04T08:07:50Z</time>
      </trkpt>
      <trkpt lat="45.66224" lon="4.59674">
        <ele>652.3</ele>
        <time>2025-12-04T08:07:58Z</time>
      </trkpt>
      <trkpt lat="45.66213" lon="4.59622">
        <ele>654.5</ele>
        <time>2025-12-04T08:08:32Z</time>
      </trkpt>
      <trkpt lat="45.66209" lon="4.59606">
        <ele>655.4</ele>
        <time>2025-12-04T08:08:48Z</time>
      </trkpt>
      <trkpt lat="45.66202" lon="4.59566">
        <ele>654.7</ele>
        <time>2025-12-04T08:09:22Z</time>
      </trkpt>
      <trkpt lat="45.66197" lon="4.59555">
        <ele>655.2</ele>
        <time>2025-12-04T08:09:40Z</time>
      </trkpt>
      <trkpt lat="45.66192" lon="4.59544">
        <ele>655.5</ele>
        <time>2025-12-04T08:09:52Z</time>
      </trkpt>
      <trkpt lat="45.66176" lon="4.5951">
        <ele>655.5</ele>
        <time>2025-12-04T08:10:20Z</time>
      </trkpt>
      <trkpt lat="45.66156" lon="4.59483">
        <ele>655.6</ele>
        <time>2025-12-04T08:10:46Z</time>
      </trkpt>
      <trkpt lat="45.66149" lon="4.59472">
        <ele>655.2</ele>
        <time>2025-12-04T08:10:54Z</time>
      </trkpt>
      <trkpt lat="45.66142" lon="4.59463">
        <ele>654.8</ele>
        <time>2025-12-04T08:11:02Z</time>
      </trkpt>
      <trkpt lat="45.66113" lon="4.59425">
        <ele>655.1</ele>
        <time>2025-12-04T08:11:34Z</time>
      </trkpt>
      <trkpt lat="45.66097" lon="4.5941">
        <ele>656.1</ele>
        <time>2025-12-04T08:11:54Z</time>
      </trkpt>
      <trkpt lat="45.66086" lon="4.59406">
        <ele>657.1</ele>
        <time>2025-12-04T08:12:06Z</time>
      </trkpt>
      <trkpt lat="45.66087" lon="4.59408">
        <ele>657.3</ele>
        <time>2025-12-04T08:12:18Z</time>
      </trkpt>
      <trkpt lat="45.66092" lon="4.5941">
        <ele>656.9</ele>
        <time>2025-12-04T08:12:22Z</time>
      </trkpt>
      <trkpt lat="45.66097" lon="4.59414">
        <ele>656.7</ele>
        <time>2025-12-04T08:12:26Z</time>
      </trkpt>
      <trkpt lat="45.66095" lon="4.59414">
        <ele>657</ele>
        <time>2025-12-04T08:12:38Z</time>
      </trkpt>
      <trkpt lat="45.66086" lon="4.59406">
        <ele>657.1</ele>
        <time>2025-12-04T08:12:46Z</time>
      </trkpt>
      <trkpt lat="45.66082" lon="4.59403">
        <ele>657</ele>
        <time>2025-12-04T08:12:50Z</time>
      </trkpt>
      <trkpt lat="45.66078" lon="4.59403">
        <ele>657.4</ele>
        <time>2025-12-04T08:12:54Z</time>
      </trkpt>
      <trkpt lat="45.66074" lon="4.59403">
        <ele>657.5</ele>
        <time>2025-12-04T08:12:58Z</time>
      </trkpt>
      <trkpt lat="45.66062" lon="4.59396">
        <ele>657.1</ele>
        <time>2025-12-04T08:13:10Z</time>
      </trkpt>
      <trkpt lat="45.66044" lon="4.59397">
        <ele>656.2</ele>
        <time>2025-12-04T08:13:26Z</time>
      </trkpt>
      <trkpt lat="45.66039" lon="4.59398">
        <ele>656.2</ele>
        <time>2025-12-04T08:13:30Z</time>
      </trkpt>
      <trkpt lat="45.66035" lon="4.594">
        <ele>656</ele>
        <time>2025-12-04T08:13:34Z</time>
      </trkpt>
      <trkpt lat="45.66026" lon="4.59405">
        <ele>656.3</ele>
        <time>2025-12-04T08:13:42Z</time>
      </trkpt>
      <trkpt lat="45.66013" lon="4.59415">
        <ele>657.1</ele>
        <time>2025-12-04T08:13:54Z</time>
      </trkpt>
      <trkpt lat="45.66008" lon="4.59418">
        <ele>657</ele>
        <time>2025-12-04T08:13:58Z</time>
      </trkpt>
      <trkpt lat="45.66" lon="4.59424">
        <ele>656.9</ele>
        <time>2025-12-04T08:14:06Z</time>
      </trkpt>
      <trkpt lat="45.65995" lon="4.59424">
        <ele>656.4</ele>
        <time>2025-12-04T08:14:10Z</time>
      </trkpt>
      <trkpt lat="45.65987" lon="4.59436">
        <ele>657.3</ele>
        <time>2025-12-04T08:14:30Z</time>
      </trkpt>
      <trkpt lat="45.65984" lon="4.59439">
        <ele>657.4</ele>
        <time>2025-12-04T08:15:16Z</time>
      </trkpt>
      <trkpt lat="45.6598" lon="4.59439">
        <ele>657</ele>
        <time>2025-12-04T08:15:20Z</time>
      </trkpt>
      <trkpt lat="45.65977" lon="4.59445">
        <ele>657.5</ele>
        <time>2025-12-04T08:15:24Z</time>
      </trkpt>
      <trkpt lat="45.65974" lon="4.59447">
        <ele>657.5</ele>
        <time>2025-12-04T08:15:28Z</time>
      </trkpt>
      <trkpt lat="45.6597" lon="4.59446">
        <ele>657.1</ele>
        <time>2025-12-04T08:16:14Z</time>
      </trkpt>
      <trkpt lat="45.65945" lon="4.59474">
        <ele>659.2</ele>
        <time>2025-12-04T08:16:42Z</time>
      </trkpt>
      <trkpt lat="45.65932" lon="4.59485">
        <ele>660.2</ele>
        <time>2025-12-04T08:16:54Z</time>
      </trkpt>
      <trkpt lat="45.65927" lon="4.59489">
        <ele>660.4</ele>
        <time>2025-12-04T08:16:58Z</time>
      </trkpt>
      <trkpt lat="45.65905" lon="4.59507">
        <ele>661.1</ele>
        <time>2025-12-04T08:17:18Z</time>
      </trkpt>
      <trkpt lat="45.65901" lon="4.59511">
        <ele>661.3</ele>
        <time>2025-12-04T08:17:22Z</time>
      </trkpt>
      <trkpt lat="45.65894" lon="4.59518">
        <ele>661.8</ele>
        <time>2025-12-04T08:17:30Z</time>
      </trkpt>
      <trkpt lat="45.6589" lon="4.59524">
        <ele>662.4</ele>
        <time>2025-12-04T08:17:34Z</time>
      </trkpt>
      <trkpt lat="45.65856" lon="4.59555">
        <ele>662.5</ele>
        <time>2025-12-04T08:18:06Z</time>
      </trkpt>
      <trkpt lat="45.65823" lon="4.59587">
        <ele>663.6</ele>
        <time>2025-12-04T08:18:38Z</time>
      </trkpt>
      <trkpt lat="45.6581" lon="4.59599">
        <ele>663.5</ele>
        <time>2025-12-04T08:18:50Z</time>
      </trkpt>
      <trkpt lat="45.65799" lon="4.59608">
        <ele>663.3</ele>
        <time>2025-12-04T08:19:02Z</time>
      </trkpt>
      <trkpt lat="45.65791" lon="4.59615">
        <ele>663.3</ele>
        <time>2025-12-04T08:19:10Z</time>
      </trkpt>
      <trkpt lat="45.65758" lon="4.59631">
        <ele>661.7</ele>
        <time>2025-12-04T08:19:38Z</time>
      </trkpt>
      <trkpt lat="45.65747" lon="4.59631">
        <ele>660.8</ele>
        <time>2025-12-04T08:19:46Z</time>
      </trkpt>
      <trkpt lat="45.65726" lon="4.59629">
        <ele>659.6</ele>
        <time>2025-12-04T08:20:02Z</time>
      </trkpt>
      <trkpt lat="45.65707" lon="4.59622">
        <ele>659</ele>
        <time>2025-12-04T08:20:18Z</time>
      </trkpt>
      <trkpt lat="45.65714" lon="4.59624">
        <ele>659.3</ele>
        <time>2025-12-04T08:20:46Z</time>
      </trkpt>
      <trkpt lat="45.657" lon="4.59615">
        <ele>659.1</ele>
        <time>2025-12-04T08:21:22Z</time>
      </trkpt>
      <trkpt lat="45.65695" lon="4.59613">
        <ele>659</ele>
        <time>2025-12-04T08:21:26Z</time>
      </trkpt>
      <trkpt lat="45.65691" lon="4.5961">
        <ele>659.7</ele>
        <time>2025-12-04T08:21:30Z</time>
      </trkpt>
      <trkpt lat="45.65684" lon="4.59605">
        <ele>660.9</ele>
        <time>2025-12-04T08:21:38Z</time>
      </trkpt>
      <trkpt lat="45.6568" lon="4.59604">
        <ele>661.6</ele>
        <time>2025-12-04T08:21:42Z</time>
      </trkpt>
      <trkpt lat="45.65679" lon="4.5961">
        <ele>661.8</ele>
        <time>2025-12-04T08:22:12Z</time>
      </trkpt>
      <trkpt lat="45.6567" lon="4.59611">
        <ele>663.4</ele>
        <time>2025-12-04T08:23:42Z</time>
      </trkpt>
      <trkpt lat="45.65668" lon="4.5962">
        <ele>663.1</ele>
        <time>2025-12-04T08:23:52Z</time>
      </trkpt>
      <trkpt lat="45.65665" lon="4.59624">
        <ele>663.4</ele>
        <time>2025-12-04T08:24:04Z</time>
      </trkpt>
      <trkpt lat="45.65662" lon="4.59627">
        <ele>663.9</ele>
        <time>2025-12-04T08:24:12Z</time>
      </trkpt>
      <trkpt lat="45.65654" lon="4.59628">
        <ele>665.8</ele>
        <time>2025-12-04T08:24:44Z</time>
      </trkpt>
      <trkpt lat="45.65638" lon="4.5964">
        <ele>669.1</ele>
        <time>2025-12-04T08:25:20Z</time>
      </trkpt>
      <trkpt lat="45.65629" lon="4.59644">
        <ele>670.6</ele>
        <time>2025-12-04T08:25:30Z</time>
      </trkpt>
      <trkpt lat="45.65619" lon="4.59646">
        <ele>672.6</ele>
        <time>2025-12-04T08:25:40Z</time>
      </trkpt>
      <trkpt lat="45.65612" lon="4.5964">
        <ele>674.7</ele>
        <time>2025-12-04T08:25:58Z</time>
      </trkpt>
      <trkpt lat="45.65612" lon="4.5964">
        <ele>674.7</ele>
        <time>2025-12-04T08:26:00Z</time>
      </trkpt>
      <trkpt lat="45.65609" lon="4.59636">
        <ele>675.7</ele>
        <time>2025-12-04T08:26:06Z</time>
      </trkpt>
      <trkpt lat="45.656" lon="4.59623">
        <ele>678.2</ele>
        <time>2025-12-04T08:26:18Z</time>
      </trkpt>
      <trkpt lat="45.656" lon="4.59617">
        <ele>678.3</ele>
        <time>2025-12-04T08:26:22Z</time>
      </trkpt>
      <trkpt lat="45.65596" lon="4.59605">
        <ele>679</ele>
        <time>2025-12-04T08:26:34Z</time>
      </trkpt>
      <trkpt lat="45.65582" lon="4.59592">
        <ele>681.5</ele>
        <time>2025-12-04T08:26:48Z</time>
      </trkpt>
      <trkpt lat="45.65572" lon="4.59585">
        <ele>683.1</ele>
        <time>2025-12-04T08:26:56Z</time>
      </trkpt>
      <trkpt lat="45.65552" lon="4.59575">
        <ele>685.6</ele>
        <time>2025-12-04T08:27:16Z</time>
      </trkpt>
      <trkpt lat="45.65548" lon="4.59574">
        <ele>686.3</ele>
        <time>2025-12-04T08:27:20Z</time>
      </trkpt>
      <trkpt lat="45.6554" lon="4.59569">
        <ele>687</ele>
        <time>2025-12-04T08:27:28Z</time>
      </trkpt>
      <trkpt lat="45.65535" lon="4.59566">
        <ele>687.5</ele>
        <time>2025-12-04T08:27:34Z</time>
      </trkpt>
      <trkpt lat="45.65532" lon="4.59564">
        <ele>687.9</ele>
        <time>2025-12-04T08:27:38Z</time>
      </trkpt>
      <trkpt lat="45.65524" lon="4.59555">
        <ele>689.1</ele>
        <time>2025-12-04T08:27:46Z</time>
      </trkpt>
      <trkpt lat="45.65512" lon="4.59542">
        <ele>692.1</ele>
        <time>2025-12-04T08:28:02Z</time>
      </trkpt>
      <trkpt lat="45.6551" lon="4.59538">
        <ele>692.6</ele>
        <time>2025-12-04T08:28:06Z</time>
      </trkpt>
      <trkpt lat="45.65495" lon="4.59522">
        <ele>696.2</ele>
        <time>2025-12-04T08:28:28Z</time>
      </trkpt>
      <trkpt lat="45.65492" lon="4.59516">
        <ele>696.8</ele>
        <time>2025-12-04T08:28:32Z</time>
      </trkpt>
      <trkpt lat="45.65481" lon="4.59503">
        <ele>699.3</ele>
        <time>2025-12-04T08:28:44Z</time>
      </trkpt>
      <trkpt lat="45.65477" lon="4.59492">
        <ele>700</ele>
        <time>2025-12-04T08:28:52Z</time>
      </trkpt>
      <trkpt lat="45.65475" lon="4.59479">
        <ele>699.6</ele>
        <time>2025-12-04T08:29:04Z</time>
      </trkpt>
      <trkpt lat="45.65472" lon="4.59466">
        <ele>699.3</ele>
        <time>2025-12-04T08:29:18Z</time>
      </trkpt>
      <trkpt lat="45.65451" lon="4.59423">
        <ele>703.2</ele>
        <time>2025-12-04T08:29:54Z</time>
      </trkpt>
      <trkpt lat="45.65443" lon="4.59412">
        <ele>704.9</ele>
        <time>2025-12-04T08:30:06Z</time>
      </trkpt>
      <trkpt lat="45.65438" lon="4.59399">
        <ele>705.1</ele>
        <time>2025-12-04T08:30:14Z</time>
      </trkpt>
      <trkpt lat="45.65412" lon="4.59354">
        <ele>708</ele>
        <time>2025-12-04T08:30:52Z</time>
      </trkpt>
      <trkpt lat="45.65388" lon="4.59329">
        <ele>710.8</ele>
        <time>2025-12-04T08:31:22Z</time>
      </trkpt>
      <trkpt lat="45.65361" lon="4.593">
        <ele>712.7</ele>
        <time>2025-12-04T08:31:54Z</time>
      </trkpt>
      <trkpt lat="45.65358" lon="4.59297">
        <ele>713</ele>
        <time>2025-12-04T08:31:58Z</time>
      </trkpt>
      <trkpt lat="45.65354" lon="4.59292">
        <ele>713.3</ele>
        <time>2025-12-04T08:32:02Z</time>
      </trkpt>
      <trkpt lat="45.6535" lon="4.59289">
        <ele>713.7</ele>
        <time>2025-12-04T08:32:08Z</time>
      </trkpt>
      <trkpt lat="45.65347" lon="4.59286">
        <ele>713.8</ele>
        <time>2025-12-04T08:32:12Z</time>
      </trkpt>
      <trkpt lat="45.65336" lon="4.59275">
        <ele>714.4</ele>
        <time>2025-12-04T08:32:24Z</time>
      </trkpt>
      <trkpt lat="45.65305" lon="4.59264">
        <ele>718.1</ele>
        <time>2025-12-04T08:32:52Z</time>
      </trkpt>
      <trkpt lat="45.653" lon="4.59262">
        <ele>718.4</ele>
        <time>2025-12-04T08:32:56Z</time>
      </trkpt>
      <trkpt lat="45.65275" lon="4.59258">
        <ele>720.5</ele>
        <time>2025-12-04T08:33:24Z</time>
      </trkpt>
      <trkpt lat="45.65249" lon="4.59261">
        <ele>722.1</ele>
        <time>2025-12-04T08:33:48Z</time>
      </trkpt>
      <trkpt lat="45.65245" lon="4.59261">
        <ele>722.3</ele>
        <time>2025-12-04T08:33:52Z</time>
      </trkpt>
      <trkpt lat="45.65241" lon="4.5926">
        <ele>722.5</ele>
        <time>2025-12-04T08:33:56Z</time>
      </trkpt>
      <trkpt lat="45.65233" lon="4.5926">
        <ele>723</ele>
        <time>2025-12-04T08:34:06Z</time>
      </trkpt>
      <trkpt lat="45.65228" lon="4.59261">
        <ele>723.3</ele>
        <time>2025-12-04T08:34:10Z</time>
      </trkpt>
      <trkpt lat="45.65211" lon="4.59261">
        <ele>724</ele>
        <time>2025-12-04T08:34:42Z</time>
      </trkpt>
      <trkpt lat="45.65207" lon="4.59258">
        <ele>724.3</ele>
        <time>2025-12-04T08:34:48Z</time>
      </trkpt>
      <trkpt lat="45.65197" lon="4.59224">
        <ele>725.8</ele>
        <time>2025-12-04T08:35:14Z</time>
      </trkpt>
      <trkpt lat="45.65197" lon="4.59207">
        <ele>727.4</ele>
        <time>2025-12-04T08:35:26Z</time>
      </trkpt>
      <trkpt lat="45.65198" lon="4.59201">
        <ele>727.9</ele>
        <time>2025-12-04T08:35:30Z</time>
      </trkpt>
      <trkpt lat="45.65201" lon="4.59197">
        <ele>727.8</ele>
        <time>2025-12-04T08:35:40Z</time>
      </trkpt>
      <trkpt lat="45.65205" lon="4.59191">
        <ele>728</ele>
        <time>2025-12-04T08:35:48Z</time>
      </trkpt>
      <trkpt lat="45.65223" lon="4.59151">
        <ele>730.1</ele>
        <time>2025-12-04T08:36:20Z</time>
      </trkpt>
      <trkpt lat="45.65225" lon="4.59146">
        <ele>730.3</ele>
        <time>2025-12-04T08:36:24Z</time>
      </trkpt>
      <trkpt lat="45.65229" lon="4.59142">
        <ele>730.2</ele>
        <time>2025-12-04T08:36:28Z</time>
      </trkpt>
      <trkpt lat="45.65231" lon="4.59137">
        <ele>730.3</ele>
        <time>2025-12-04T08:36:32Z</time>
      </trkpt>
      <trkpt lat="45.65233" lon="4.59132">
        <ele>730.6</ele>
        <time>2025-12-04T08:36:36Z</time>
      </trkpt>
      <trkpt lat="45.65236" lon="4.5912">
        <ele>731.4</ele>
        <time>2025-12-04T08:36:44Z</time>
      </trkpt>
      <trkpt lat="45.6524" lon="4.59101">
        <ele>732.5</ele>
        <time>2025-12-04T08:36:56Z</time>
      </trkpt>
      <trkpt lat="45.65247" lon="4.59069">
        <ele>733.7</ele>
        <time>2025-12-04T08:37:16Z</time>
      </trkpt>
      <trkpt lat="45.65246" lon="4.59064">
        <ele>734.2</ele>
        <time>2025-12-04T08:38:14Z</time>
      </trkpt>
      <trkpt lat="45.65245" lon="4.59058">
        <ele>734.7</ele>
        <time>2025-12-04T08:38:24Z</time>
      </trkpt>
      <trkpt lat="45.65239" lon="4.59056">
        <ele>735.9</ele>
        <time>2025-12-04T08:38:58Z</time>
      </trkpt>
      <trkpt lat="45.65235" lon="4.59054">
        <ele>736.7</ele>
        <time>2025-12-04T08:39:04Z</time>
      </trkpt>
      <trkpt lat="45.65232" lon="4.59049">
        <ele>737.4</ele>
        <time>2025-12-04T08:39:10Z</time>
      </trkpt>
      <trkpt lat="45.65228" lon="4.59047">
        <ele>738.1</ele>
        <time>2025-12-04T08:39:16Z</time>
      </trkpt>
      <trkpt lat="45.65224" lon="4.59043">
        <ele>738.8</ele>
        <time>2025-12-04T08:39:22Z</time>
      </trkpt>
      <trkpt lat="45.65207" lon="4.5903">
        <ele>741.8</ele>
        <time>2025-12-04T08:39:44Z</time>
      </trkpt>
      <trkpt lat="45.65203" lon="4.59026">
        <ele>742.3</ele>
        <time>2025-12-04T08:39:48Z</time>
      </trkpt>
      <trkpt lat="45.652" lon="4.59024">
        <ele>742.8</ele>
        <time>2025-12-04T08:39:52Z</time>
      </trkpt>
      <trkpt lat="45.65194" lon="4.59017">
        <ele>743.8</ele>
        <time>2025-12-04T08:40:02Z</time>
      </trkpt>
      <trkpt lat="45.6519" lon="4.59015">
        <ele>744.3</ele>
        <time>2025-12-04T08:40:06Z</time>
      </trkpt>
      <trkpt lat="45.65186" lon="4.59012">
        <ele>744.8</ele>
        <time>2025-12-04T08:40:10Z</time>
      </trkpt>
      <trkpt lat="45.65167" lon="4.58993">
        <ele>748</ele>
        <time>2025-12-04T08:40:34Z</time>
      </trkpt>
      <trkpt lat="45.6516" lon="4.58987">
        <ele>749.1</ele>
        <time>2025-12-04T08:40:42Z</time>
      </trkpt>
      <trkpt lat="45.65142" lon="4.58965">
        <ele>752.7</ele>
        <time>2025-12-04T08:41:08Z</time>
      </trkpt>
      <trkpt lat="45.65135" lon="4.58956">
        <ele>754.6</ele>
        <time>2025-12-04T08:41:16Z</time>
      </trkpt>
      <trkpt lat="45.65134" lon="4.5895">
        <ele>755.1</ele>
        <time>2025-12-04T08:41:20Z</time>
      </trkpt>
      <trkpt lat="45.65112" lon="4.58924">
        <ele>760.7</ele>
        <time>2025-12-04T08:41:52Z</time>
      </trkpt>
      <trkpt lat="45.651" lon="4.58915">
        <ele>763</ele>
        <time>2025-12-04T08:42:10Z</time>
      </trkpt>
      <trkpt lat="45.65098" lon="4.5891">
        <ele>763.3</ele>
        <time>2025-12-04T08:42:42Z</time>
      </trkpt>
      <trkpt lat="45.6508" lon="4.58885">
        <ele>766.5</ele>
        <time>2025-12-04T08:43:14Z</time>
      </trkpt>
      <trkpt lat="45.65052" lon="4.58847">
        <ele>770.6</ele>
        <time>2025-12-04T08:43:50Z</time>
      </trkpt>
      <trkpt lat="45.65044" lon="4.5884">
        <ele>771.8</ele>
        <time>2025-12-04T08:43:58Z</time>
      </trkpt>
      <trkpt lat="45.65026" lon="4.58806">
        <ele>774.4</ele>
        <time>2025-12-04T08:44:24Z</time>
      </trkpt>
      <trkpt lat="45.65023" lon="4.58794">
        <ele>775.4</ele>
        <time>2025-12-04T08:44:32Z</time>
      </trkpt>
      <trkpt lat="45.65019" lon="4.5879">
        <ele>776.3</ele>
        <time>2025-12-04T08:44:36Z</time>
      </trkpt>
      <trkpt lat="45.65019" lon="4.58768">
        <ele>776.9</ele>
        <time>2025-12-04T08:44:48Z</time>
      </trkpt>
      <trkpt lat="45.65017" lon="4.58756">
        <ele>777.8</ele>
        <time>2025-12-04T08:45:18Z</time>
      </trkpt>
      <trkpt lat="45.65016" lon="4.5875">
        <ele>778.2</ele>
        <time>2025-12-04T08:45:22Z</time>
      </trkpt>
      <trkpt lat="45.65015" lon="4.58743">
        <ele>778.7</ele>
        <time>2025-12-04T08:45:26Z</time>
      </trkpt>
      <trkpt lat="45.65014" lon="4.58736">
        <ele>779.2</ele>
        <time>2025-12-04T08:45:30Z</time>
      </trkpt>
      <trkpt lat="45.65013" lon="4.58729">
        <ele>779.8</ele>
        <time>2025-12-04T08:45:34Z</time>
      </trkpt>
      <trkpt lat="45.65012" lon="4.58722">
        <ele>780.5</ele>
        <time>2025-12-04T08:45:38Z</time>
      </trkpt>
      <trkpt lat="45.65008" lon="4.58694">
        <ele>782.3</ele>
        <time>2025-12-04T08:45:54Z</time>
      </trkpt>
      <trkpt lat="45.65005" lon="4.58689">
        <ele>782.9</ele>
        <time>2025-12-04T08:46:00Z</time>
      </trkpt>
      <trkpt lat="45.65002" lon="4.58678">
        <ele>783.5</ele>
        <time>2025-12-04T08:46:08Z</time>
      </trkpt>
      <trkpt lat="45.65001" lon="4.58671">
        <ele>783.8</ele>
        <time>2025-12-04T08:46:12Z</time>
      </trkpt>
      <trkpt lat="45.64999" lon="4.5866">
        <ele>784.6</ele>
        <time>2025-12-04T08:46:20Z</time>
      </trkpt>
      <trkpt lat="45.64993" lon="4.58635">
        <ele>786.8</ele>
        <time>2025-12-04T08:46:36Z</time>
      </trkpt>
      <trkpt lat="45.64989" lon="4.58616">
        <ele>788.5</ele>
        <time>2025-12-04T08:46:48Z</time>
      </trkpt>
      <trkpt lat="45.64988" lon="4.58609">
        <ele>789</ele>
        <time>2025-12-04T08:46:52Z</time>
      </trkpt>
      <trkpt lat="45.64984" lon="4.58583">
        <ele>791.2</ele>
        <time>2025-12-04T08:47:08Z</time>
      </trkpt>
      <trkpt lat="45.64983" lon="4.58577">
        <ele>791.8</ele>
        <time>2025-12-04T08:47:12Z</time>
      </trkpt>
      <trkpt lat="45.64979" lon="4.58553">
        <ele>793.9</ele>
        <time>2025-12-04T08:47:28Z</time>
      </trkpt>
      <trkpt lat="45.64976" lon="4.58541">
        <ele>795.1</ele>
        <time>2025-12-04T08:47:36Z</time>
      </trkpt>
      <trkpt lat="45.6497" lon="4.58503">
        <ele>799.1</ele>
        <time>2025-12-04T08:48:08Z</time>
      </trkpt>
      <trkpt lat="45.64969" lon="4.58497">
        <ele>799.9</ele>
        <time>2025-12-04T08:48:12Z</time>
      </trkpt>
      <trkpt lat="45.64968" lon="4.5849">
        <ele>800.6</ele>
        <time>2025-12-04T08:48:16Z</time>
      </trkpt>
      <trkpt lat="45.64966" lon="4.58484">
        <ele>801.4</ele>
        <time>2025-12-04T08:48:20Z</time>
      </trkpt>
      <trkpt lat="45.64965" lon="4.58465">
        <ele>802.6</ele>
        <time>2025-12-04T08:48:32Z</time>
      </trkpt>
      <trkpt lat="45.64958" lon="4.5844">
        <ele>803.9</ele>
        <time>2025-12-04T08:48:50Z</time>
      </trkpt>
      <trkpt lat="45.64954" lon="4.58429">
        <ele>804.3</ele>
        <time>2025-12-04T08:49:00Z</time>
      </trkpt>
      <trkpt lat="45.64949" lon="4.58421">
        <ele>804.6</ele>
        <time>2025-12-04T08:49:24Z</time>
      </trkpt>
      <trkpt lat="45.64943" lon="4.58407">
        <ele>805.2</ele>
        <time>2025-12-04T08:49:50Z</time>
      </trkpt>
      <trkpt lat="45.64941" lon="4.58403">
        <ele>805.6</ele>
        <time>2025-12-04T08:49:54Z</time>
      </trkpt>
      <trkpt lat="45.64936" lon="4.58399">
        <ele>806.4</ele>
        <time>2025-12-04T08:50:16Z</time>
      </trkpt>
      <trkpt lat="45.6493" lon="4.58379">
        <ele>806.7</ele>
        <time>2025-12-04T08:50:28Z</time>
      </trkpt>
      <trkpt lat="45.64928" lon="4.58372">
        <ele>806.8</ele>
        <time>2025-12-04T08:50:32Z</time>
      </trkpt>
      <trkpt lat="45.64919" lon="4.58355">
        <ele>807.2</ele>
        <time>2025-12-04T08:50:44Z</time>
      </trkpt>
      <trkpt lat="45.64912" lon="4.58343">
        <ele>807.4</ele>
        <time>2025-12-04T08:50:52Z</time>
      </trkpt>
      <trkpt lat="45.64889" lon="4.58293">
        <ele>808.6</ele>
        <time>2025-12-04T08:51:24Z</time>
      </trkpt>
      <trkpt lat="45.64876" lon="4.58232">
        <ele>808.6</ele>
        <time>2025-12-04T08:51:56Z</time>
      </trkpt>
      <trkpt lat="45.64872" lon="4.58216">
        <ele>808.9</ele>
        <time>2025-12-04T08:52:04Z</time>
      </trkpt>
      <trkpt lat="45.64853" lon="4.58161">
        <ele>811.6</ele>
        <time>2025-12-04T08:52:36Z</time>
      </trkpt>
      <trkpt lat="45.64843" lon="4.58117">
        <ele>812.6</ele>
        <time>2025-12-04T08:53:00Z</time>
      </trkpt>
      <trkpt lat="45.64839" lon="4.58094">
        <ele>812.8</ele>
        <time>2025-12-04T08:53:12Z</time>
      </trkpt>
      <trkpt lat="45.64834" lon="4.58074">
        <ele>813</ele>
        <time>2025-12-04T08:53:24Z</time>
      </trkpt>
      <trkpt lat="45.64833" lon="4.58067">
        <ele>813</ele>
        <time>2025-12-04T08:53:36Z</time>
      </trkpt>
      <trkpt lat="45.64833" lon="4.5806">
        <ele>813</ele>
        <time>2025-12-04T08:53:40Z</time>
      </trkpt>
      <trkpt lat="45.64833" lon="4.5804">
        <ele>813</ele>
        <time>2025-12-04T08:53:54Z</time>
      </trkpt>
      <trkpt lat="45.64825" lon="4.58026">
        <ele>813</ele>
        <time>2025-12-04T08:54:00Z</time>
      </trkpt>
      <trkpt lat="45.64826" lon="4.58019">
        <ele>812.8</ele>
        <time>2025-12-04T08:54:04Z</time>
      </trkpt>
      <trkpt lat="45.64822" lon="4.58022">
        <ele>812.9</ele>
        <time>2025-12-04T08:54:06Z</time>
      </trkpt>
      <trkpt lat="45.64832" lon="4.5803">
        <ele>813</ele>
        <time>2025-12-04T08:54:12Z</time>
      </trkpt>
      <trkpt lat="45.64831" lon="4.58025">
        <ele>812.9</ele>
        <time>2025-12-04T08:54:30Z</time>
      </trkpt>
      <trkpt lat="45.64832" lon="4.57965">
        <ele>812.1</ele>
        <time>2025-12-04T08:55:02Z</time>
      </trkpt>
      <trkpt lat="45.64832" lon="4.57934">
        <ele>812</ele>
        <time>2025-12-04T08:55:18Z</time>
      </trkpt>
      <trkpt lat="45.64833" lon="4.57926">
        <ele>812</ele>
        <time>2025-12-04T08:55:22Z</time>
      </trkpt>
      <trkpt lat="45.64833" lon="4.57903">
        <ele>812</ele>
        <time>2025-12-04T08:55:34Z</time>
      </trkpt>
      <trkpt lat="45.64827" lon="4.5786">
        <ele>811.4</ele>
        <time>2025-12-04T08:55:58Z</time>
      </trkpt>
      <trkpt lat="45.64824" lon="4.57853">
        <ele>811.7</ele>
        <time>2025-12-04T08:56:02Z</time>
      </trkpt>
      <trkpt lat="45.64818" lon="4.57832">
        <ele>812.1</ele>
        <time>2025-12-04T08:56:14Z</time>
      </trkpt>
      <trkpt lat="45.64811" lon="4.57774">
        <ele>810</ele>
        <time>2025-12-04T08:56:46Z</time>
      </trkpt>
      <trkpt lat="45.6481" lon="4.57751">
        <ele>809.9</ele>
        <time>2025-12-04T08:56:58Z</time>
      </trkpt>
      <trkpt lat="45.64808" lon="4.57745">
        <ele>809.7</ele>
        <time>2025-12-04T08:57:02Z</time>
      </trkpt>
      <trkpt lat="45.64806" lon="4.57739">
        <ele>809.6</ele>
        <time>2025-12-04T08:57:10Z</time>
      </trkpt>
      <trkpt lat="45.64805" lon="4.57703">
        <ele>809</ele>
        <time>2025-12-04T08:57:30Z</time>
      </trkpt>
      <trkpt lat="45.64804" lon="4.57696">
        <ele>809</ele>
        <time>2025-12-04T08:57:34Z</time>
      </trkpt>
      <trkpt lat="45.64803" lon="4.57689">
        <ele>809.1</ele>
        <time>2025-12-04T08:57:38Z</time>
      </trkpt>
      <trkpt lat="45.64803" lon="4.57682">
        <ele>809.1</ele>
        <time>2025-12-04T08:57:42Z</time>
      </trkpt>
      <trkpt lat="45.64802" lon="4.57675">
        <ele>809</ele>
        <time>2025-12-04T08:57:46Z</time>
      </trkpt>
      <trkpt lat="45.64807" lon="4.57674">
        <ele>809</ele>
        <time>2025-12-04T08:57:52Z</time>
      </trkpt>
      <trkpt lat="45.64794" lon="4.57614">
        <ele>808.5</ele>
        <time>2025-12-04T08:58:24Z</time>
      </trkpt>
      <trkpt lat="45.64776" lon="4.5756">
        <ele>808.9</ele>
        <time>2025-12-04T08:58:56Z</time>
      </trkpt>
      <trkpt lat="45.64763" lon="4.57519">
        <ele>808.3</ele>
        <time>2025-12-04T08:59:20Z</time>
      </trkpt>
      <trkpt lat="45.64749" lon="4.57462">
        <ele>808</ele>
        <time>2025-12-04T08:59:52Z</time>
      </trkpt>
      <trkpt lat="45.64741" lon="4.57426">
        <ele>808</ele>
        <time>2025-12-04T09:00:12Z</time>
      </trkpt>
      <trkpt lat="45.6474" lon="4.57419">
        <ele>808</ele>
        <time>2025-12-04T09:00:16Z</time>
      </trkpt>
      <trkpt lat="45.64733" lon="4.57392">
        <ele>808.5</ele>
        <time>2025-12-04T09:00:32Z</time>
      </trkpt>
      <trkpt lat="45.64725" lon="4.57335">
        <ele>809</ele>
        <time>2025-12-04T09:01:04Z</time>
      </trkpt>
      <trkpt lat="45.64715" lon="4.5729">
        <ele>810.1</ele>
        <time>2025-12-04T09:01:32Z</time>
      </trkpt>
      <trkpt lat="45.64712" lon="4.57286">
        <ele>810.1</ele>
        <time>2025-12-04T09:01:36Z</time>
      </trkpt>
      <trkpt lat="45.64709" lon="4.57282">
        <ele>810.1</ele>
        <time>2025-12-04T09:01:40Z</time>
      </trkpt>
      <trkpt lat="45.64708" lon="4.57278">
        <ele>810</ele>
        <time>2025-12-04T09:01:50Z</time>
      </trkpt>
      <trkpt lat="45.64697" lon="4.57247">
        <ele>809</ele>
        <time>2025-12-04T09:02:22Z</time>
      </trkpt>
      <trkpt lat="45.64692" lon="4.5723">
        <ele>809</ele>
        <time>2025-12-04T09:02:34Z</time>
      </trkpt>
      <trkpt lat="45.6469" lon="4.57223">
        <ele>809</ele>
        <time>2025-12-04T09:02:38Z</time>
      </trkpt>
      <trkpt lat="45.6469" lon="4.57217">
        <ele>808.8</ele>
        <time>2025-12-04T09:02:42Z</time>
      </trkpt>
      <trkpt lat="45.64686" lon="4.57209">
        <ele>808.7</ele>
        <time>2025-12-04T09:03:14Z</time>
      </trkpt>
      <trkpt lat="45.64683" lon="4.5721">
        <ele>808.7</ele>
        <time>2025-12-04T09:03:38Z</time>
      </trkpt>
      <trkpt lat="45.64681" lon="4.57199">
        <ele>808.6</ele>
        <time>2025-12-04T09:03:46Z</time>
      </trkpt>
      <trkpt lat="45.6467" lon="4.57163">
        <ele>807.9</ele>
        <time>2025-12-04T09:04:10Z</time>
      </trkpt>
      <trkpt lat="45.64667" lon="4.57157">
        <ele>807.7</ele>
        <time>2025-12-04T09:04:14Z</time>
      </trkpt>
      <trkpt lat="45.64662" lon="4.57145">
        <ele>807.5</ele>
        <time>2025-12-04T09:04:22Z</time>
      </trkpt>
      <trkpt lat="45.64657" lon="4.57133">
        <ele>807.6</ele>
        <time>2025-12-04T09:04:30Z</time>
      </trkpt>
      <trkpt lat="45.64653" lon="4.57121">
        <ele>807.7</ele>
        <time>2025-12-04T09:04:38Z</time>
      </trkpt>
      <trkpt lat="45.64646" lon="4.57103">
        <ele>807.4</ele>
        <time>2025-12-04T09:04:50Z</time>
      </trkpt>
      <trkpt lat="45.64641" lon="4.57091">
        <ele>807.2</ele>
        <time>2025-12-04T09:04:58Z</time>
      </trkpt>
      <trkpt lat="45.64625" lon="4.57052">
        <ele>806.3</ele>
        <time>2025-12-04T09:05:22Z</time>
      </trkpt>
      <trkpt lat="45.64621" lon="4.57047">
        <ele>806</ele>
        <time>2025-12-04T09:05:26Z</time>
      </trkpt>
      <trkpt lat="45.64618" lon="4.57041">
        <ele>805.7</ele>
        <time>2025-12-04T09:05:30Z</time>
      </trkpt>
      <trkpt lat="45.64616" lon="4.57036">
        <ele>805.4</ele>
        <time>2025-12-04T09:05:34Z</time>
      </trkpt>
      <trkpt lat="45.64607" lon="4.5702">
        <ele>804.4</ele>
        <time>2025-12-04T09:05:46Z</time>
      </trkpt>
      <trkpt lat="45.64609" lon="4.57015">
        <ele>804.1</ele>
        <time>2025-12-04T09:05:50Z</time>
      </trkpt>
      <trkpt lat="45.64609" lon="4.57004">
        <ele>803.3</ele>
        <time>2025-12-04T09:06:04Z</time>
      </trkpt>
      <trkpt lat="45.64607" lon="4.57">
        <ele>803</ele>
        <time>2025-12-04T09:06:08Z</time>
      </trkpt>
      <trkpt lat="45.64606" lon="4.56994">
        <ele>802.6</ele>
        <time>2025-12-04T09:06:12Z</time>
      </trkpt>
      <trkpt lat="45.64589" lon="4.56965">
        <ele>800.9</ele>
        <time>2025-12-04T09:06:36Z</time>
      </trkpt>
      <trkpt lat="45.64586" lon="4.5696">
        <ele>801</ele>
        <time>2025-12-04T09:06:40Z</time>
      </trkpt>
      <trkpt lat="45.64581" lon="4.56957">
        <ele>800.8</ele>
        <time>2025-12-04T09:06:44Z</time>
      </trkpt>
      <trkpt lat="45.64578" lon="4.56956">
        <ele>800.4</ele>
        <time>2025-12-04T09:06:48Z</time>
      </trkpt>
      <trkpt lat="45.64575" lon="4.56952">
        <ele>800</ele>
        <time>2025-12-04T09:06:52Z</time>
      </trkpt>
      <trkpt lat="45.64572" lon="4.5694">
        <ele>799</ele>
        <time>2025-12-04T09:07:04Z</time>
      </trkpt>
      <trkpt lat="45.64571" lon="4.56934">
        <ele>798.4</ele>
        <time>2025-12-04T09:07:08Z</time>
      </trkpt>
      <trkpt lat="45.64569" lon="4.56928">
        <ele>797.7</ele>
        <time>2025-12-04T09:07:12Z</time>
      </trkpt>
      <trkpt lat="45.64568" lon="4.56922">
        <ele>797.3</ele>
        <time>2025-12-04T09:07:16Z</time>
      </trkpt>
      <trkpt lat="45.64566" lon="4.56917">
        <ele>796.8</ele>
        <time>2025-12-04T09:07:20Z</time>
      </trkpt>
      <trkpt lat="45.64564" lon="4.56906">
        <ele>796</ele>
        <time>2025-12-04T09:07:28Z</time>
      </trkpt>
      <trkpt lat="45.64559" lon="4.56883">
        <ele>794.8</ele>
        <time>2025-12-04T09:07:44Z</time>
      </trkpt>
      <trkpt lat="45.64559" lon="4.56877">
        <ele>794.6</ele>
        <time>2025-12-04T09:07:48Z</time>
      </trkpt>
      <trkpt lat="45.64558" lon="4.56871">
        <ele>794.4</ele>
        <time>2025-12-04T09:07:52Z</time>
      </trkpt>
      <trkpt lat="45.64555" lon="4.56828">
        <ele>790.4</ele>
        <time>2025-12-04T09:08:20Z</time>
      </trkpt>
      <trkpt lat="45.64552" lon="4.56815">
        <ele>788.7</ele>
        <time>2025-12-04T09:08:28Z</time>
      </trkpt>
      <trkpt lat="45.64551" lon="4.56809">
        <ele>787.8</ele>
        <time>2025-12-04T09:08:32Z</time>
      </trkpt>
      <trkpt lat="45.64547" lon="4.56791">
        <ele>786</ele>
        <time>2025-12-04T09:08:44Z</time>
      </trkpt>
      <trkpt lat="45.64537" lon="4.56741">
        <ele>780.7</ele>
        <time>2025-12-04T09:09:16Z</time>
      </trkpt>
      <trkpt lat="45.64536" lon="4.56716">
        <ele>777.9</ele>
        <time>2025-12-04T09:09:32Z</time>
      </trkpt>
      <trkpt lat="45.64546" lon="4.56675">
        <ele>773.7</ele>
        <time>2025-12-04T09:10:00Z</time>
      </trkpt>
      <trkpt lat="45.64551" lon="4.56643">
        <ele>770.3</ele>
        <time>2025-12-04T09:10:20Z</time>
      </trkpt>
      <trkpt lat="45.64552" lon="4.56637">
        <ele>769.7</ele>
        <time>2025-12-04T09:10:24Z</time>
      </trkpt>
      <trkpt lat="45.64552" lon="4.56625">
        <ele>768.8</ele>
        <time>2025-12-04T09:10:34Z</time>
      </trkpt>
      <trkpt lat="45.64552" lon="4.5662">
        <ele>768.4</ele>
        <time>2025-12-04T09:10:38Z</time>
      </trkpt>
      <trkpt lat="45.64551" lon="4.56615">
        <ele>767.9</ele>
        <time>2025-12-04T09:10:42Z</time>
      </trkpt>
      <trkpt lat="45.6455" lon="4.56609">
        <ele>767.3</ele>
        <time>2025-12-04T09:10:46Z</time>
      </trkpt>
      <trkpt lat="45.64547" lon="4.56572">
        <ele>763.1</ele>
        <time>2025-12-04T09:11:10Z</time>
      </trkpt>
      <trkpt lat="45.64546" lon="4.5656">
        <ele>761.8</ele>
        <time>2025-12-04T09:11:18Z</time>
      </trkpt>
      <trkpt lat="45.6454" lon="4.56512">
        <ele>755.4</ele>
        <time>2025-12-04T09:11:50Z</time>
      </trkpt>
      <trkpt lat="45.64539" lon="4.56493">
        <ele>752.9</ele>
        <time>2025-12-04T09:12:02Z</time>
      </trkpt>
      <trkpt lat="45.64538" lon="4.56487">
        <ele>752.1</ele>
        <time>2025-12-04T09:12:06Z</time>
      </trkpt>
      <trkpt lat="45.64534" lon="4.5644">
        <ele>746.7</ele>
        <time>2025-12-04T09:12:38Z</time>
      </trkpt>
      <trkpt lat="45.64529" lon="4.56387">
        <ele>741.9</ele>
        <time>2025-12-04T09:13:10Z</time>
      </trkpt>
      <trkpt lat="45.64529" lon="4.56381">
        <ele>741.5</ele>
        <time>2025-12-04T09:13:14Z</time>
      </trkpt>
      <trkpt lat="45.64525" lon="4.56329">
        <ele>738.6</ele>
        <time>2025-12-04T09:13:46Z</time>
      </trkpt>
      <trkpt lat="45.64525" lon="4.56305">
        <ele>736.9</ele>
        <time>2025-12-04T09:14:04Z</time>
      </trkpt>
      <trkpt lat="45.64527" lon="4.563">
        <ele>736.7</ele>
        <time>2025-12-04T09:14:08Z</time>
      </trkpt>
      <trkpt lat="45.64526" lon="4.56292">
        <ele>736.4</ele>
        <time>2025-12-04T09:14:38Z</time>
      </trkpt>
      <trkpt lat="45.64525" lon="4.56285">
        <ele>736</ele>
        <time>2025-12-04T09:14:42Z</time>
      </trkpt>
      <trkpt lat="45.64526" lon="4.56272">
        <ele>735.8</ele>
        <time>2025-12-04T09:14:50Z</time>
      </trkpt>
      <trkpt lat="45.64528" lon="4.56267">
        <ele>736</ele>
        <time>2025-12-04T09:14:54Z</time>
      </trkpt>
      <trkpt lat="45.64528" lon="4.56263">
        <ele>736</ele>
        <time>2025-12-04T09:14:58Z</time>
      </trkpt>
      <trkpt lat="45.64528" lon="4.5625">
        <ele>736</ele>
        <time>2025-12-04T09:15:06Z</time>
      </trkpt>
      <trkpt lat="45.64535" lon="4.56227">
        <ele>736.5</ele>
        <time>2025-12-04T09:15:22Z</time>
      </trkpt>
      <trkpt lat="45.64538" lon="4.56213">
        <ele>736.6</ele>
        <time>2025-12-04T09:15:30Z</time>
      </trkpt>
      <trkpt lat="45.64541" lon="4.56176">
        <ele>736</ele>
        <time>2025-12-04T09:15:54Z</time>
      </trkpt>
      <trkpt lat="45.6454" lon="4.56169">
        <ele>735.8</ele>
        <time>2025-12-04T09:15:58Z</time>
      </trkpt>
      <trkpt lat="45.6454" lon="4.56162">
        <ele>735.8</ele>
        <time>2025-12-04T09:16:02Z</time>
      </trkpt>
      <trkpt lat="45.64541" lon="4.56157">
        <ele>735.9</ele>
        <time>2025-12-04T09:16:06Z</time>
      </trkpt>
      <trkpt lat="45.64538" lon="4.56152">
        <ele>735.5</ele>
        <time>2025-12-04T09:16:10Z</time>
      </trkpt>
      <trkpt lat="45.64536" lon="4.56146">
        <ele>735.1</ele>
        <time>2025-12-04T09:16:18Z</time>
      </trkpt>
      <trkpt lat="45.64529" lon="4.56103">
        <ele>732.8</ele>
        <time>2025-12-04T09:16:46Z</time>
      </trkpt>
      <trkpt lat="45.64528" lon="4.56097">
        <ele>732.5</ele>
        <time>2025-12-04T09:16:50Z</time>
      </trkpt>
      <trkpt lat="45.64525" lon="4.56092">
        <ele>732</ele>
        <time>2025-12-04T09:17:02Z</time>
      </trkpt>
      <trkpt lat="45.64526" lon="4.56085">
        <ele>731.9</ele>
        <time>2025-12-04T09:17:48Z</time>
      </trkpt>
      <trkpt lat="45.64519" lon="4.56037">
        <ele>729.4</ele>
        <time>2025-12-04T09:18:20Z</time>
      </trkpt>
      <trkpt lat="45.64511" lon="4.55988">
        <ele>726.9</ele>
        <time>2025-12-04T09:18:52Z</time>
      </trkpt>
      <trkpt lat="45.64499" lon="4.55942">
        <ele>727.8</ele>
        <time>2025-12-04T09:19:20Z</time>
      </trkpt>
      <trkpt lat="45.64487" lon="4.55916">
        <ele>727.5</ele>
        <time>2025-12-04T09:19:36Z</time>
      </trkpt>
      <trkpt lat="45.6448" lon="4.55905">
        <ele>728.5</ele>
        <time>2025-12-04T09:19:44Z</time>
      </trkpt>
      <trkpt lat="45.64457" lon="4.55888">
        <ele>729.7</ele>
        <time>2025-12-04T09:20:04Z</time>
      </trkpt>
      <trkpt lat="45.64452" lon="4.55886">
        <ele>729.7</ele>
        <time>2025-12-04T09:20:08Z</time>
      </trkpt>
      <trkpt lat="45.64447" lon="4.55883">
        <ele>729.9</ele>
        <time>2025-12-04T09:20:12Z</time>
      </trkpt>
      <trkpt lat="45.6443" lon="4.55873">
        <ele>730.5</ele>
        <time>2025-12-04T09:20:28Z</time>
      </trkpt>
      <trkpt lat="45.64423" lon="4.55866">
        <ele>730.9</ele>
        <time>2025-12-04T09:20:52Z</time>
      </trkpt>
      <trkpt lat="45.64413" lon="4.55867">
        <ele>730.2</ele>
        <time>2025-12-04T09:21:10Z</time>
      </trkpt>
      <trkpt lat="45.64412" lon="4.55862">
        <ele>730.8</ele>
        <time>2025-12-04T09:21:42Z</time>
      </trkpt>
      <trkpt lat="45.6441" lon="4.55858">
        <ele>731.1</ele>
        <time>2025-12-04T09:21:46Z</time>
      </trkpt>
      <trkpt lat="45.64401" lon="4.55853">
        <ele>731.2</ele>
        <time>2025-12-04T09:21:54Z</time>
      </trkpt>
      <trkpt lat="45.64398" lon="4.55849">
        <ele>731.3</ele>
        <time>2025-12-04T09:21:58Z</time>
      </trkpt>
      <trkpt lat="45.64394" lon="4.55847">
        <ele>731.3</ele>
        <time>2025-12-04T09:22:02Z</time>
      </trkpt>
      <trkpt lat="45.64391" lon="4.55844">
        <ele>731.4</ele>
        <time>2025-12-04T09:22:06Z</time>
      </trkpt>
      <trkpt lat="45.64387" lon="4.55842">
        <ele>731.3</ele>
        <time>2025-12-04T09:22:10Z</time>
      </trkpt>
      <trkpt lat="45.64382" lon="4.55833">
        <ele>732.1</ele>
        <time>2025-12-04T09:22:28Z</time>
      </trkpt>
      <trkpt lat="45.64373" lon="4.55825">
        <ele>732.8</ele>
        <time>2025-12-04T09:22:36Z</time>
      </trkpt>
      <trkpt lat="45.64357" lon="4.55807">
        <ele>733.7</ele>
        <time>2025-12-04T09:22:56Z</time>
      </trkpt>
      <trkpt lat="45.64331" lon="4.5577">
        <ele>735.8</ele>
        <time>2025-12-04T09:23:28Z</time>
      </trkpt>
      <trkpt lat="45.64329" lon="4.55764">
        <ele>736.3</ele>
        <time>2025-12-04T09:23:32Z</time>
      </trkpt>
      <trkpt lat="45.64317" lon="4.55734">
        <ele>738.9</ele>
        <time>2025-12-04T09:23:52Z</time>
      </trkpt>
      <trkpt lat="45.64309" lon="4.55705">
        <ele>740.7</ele>
        <time>2025-12-04T09:24:12Z</time>
      </trkpt>
      <trkpt lat="45.6431" lon="4.55699">
        <ele>741.1</ele>
        <time>2025-12-04T09:24:20Z</time>
      </trkpt>
      <trkpt lat="45.64314" lon="4.55698">
        <ele>741.6</ele>
        <time>2025-12-04T09:24:44Z</time>
      </trkpt>
      <trkpt lat="45.64318" lon="4.55698">
        <ele>742.1</ele>
        <time>2025-12-04T09:24:48Z</time>
      </trkpt>
      <trkpt lat="45.64322" lon="4.55701">
        <ele>742.3</ele>
        <time>2025-12-04T09:24:52Z</time>
      </trkpt>
      <trkpt lat="45.64326" lon="4.557">
        <ele>742.8</ele>
        <time>2025-12-04T09:24:56Z</time>
      </trkpt>
      <trkpt lat="45.64332" lon="4.557">
        <ele>743.4</ele>
        <time>2025-12-04T09:25:00Z</time>
      </trkpt>
      <trkpt lat="45.64364" lon="4.55684">
        <ele>746.6</ele>
        <time>2025-12-04T09:25:32Z</time>
      </trkpt>
      <trkpt lat="45.64369" lon="4.5568">
        <ele>747.1</ele>
        <time>2025-12-04T09:25:36Z</time>
      </trkpt>
      <trkpt lat="45.64374" lon="4.55678">
        <ele>747.5</ele>
        <time>2025-12-04T09:25:40Z</time>
      </trkpt>
      <trkpt lat="45.64392" lon="4.55666">
        <ele>749.3</ele>
        <time>2025-12-04T09:26:00Z</time>
      </trkpt>
      <trkpt lat="45.64397" lon="4.55661">
        <ele>749.7</ele>
        <time>2025-12-04T09:26:04Z</time>
      </trkpt>
      <trkpt lat="45.64414" lon="4.55651">
        <ele>750.8</ele>
        <time>2025-12-04T09:26:20Z</time>
      </trkpt>
      <trkpt lat="45.64421" lon="4.55646">
        <ele>751</ele>
        <time>2025-12-04T09:26:28Z</time>
      </trkpt>
      <trkpt lat="45.64436" lon="4.5564">
        <ele>751</ele>
        <time>2025-12-04T09:26:40Z</time>
      </trkpt>
      <trkpt lat="45.6445" lon="4.55634">
        <ele>750.8</ele>
        <time>2025-12-04T09:26:52Z</time>
      </trkpt>
      <trkpt lat="45.64486" lon="4.55616">
        <ele>750.6</ele>
        <time>2025-12-04T09:27:24Z</time>
      </trkpt>
      <trkpt lat="45.64514" lon="4.55605">
        <ele>750.9</ele>
        <time>2025-12-04T09:27:48Z</time>
      </trkpt>
      <trkpt lat="45.64519" lon="4.55605">
        <ele>750.9</ele>
        <time>2025-12-04T09:27:52Z</time>
      </trkpt>
      <trkpt lat="45.64521" lon="4.556">
        <ele>750.9</ele>
        <time>2025-12-04T09:28:02Z</time>
      </trkpt>
      <trkpt lat="45.64522" lon="4.55605">
        <ele>751</ele>
        <time>2025-12-04T09:28:10Z</time>
      </trkpt>
      <trkpt lat="45.64532" lon="4.55608">
        <ele>751</ele>
        <time>2025-12-04T09:28:20Z</time>
      </trkpt>
      <trkpt lat="45.64536" lon="4.55605">
        <ele>751</ele>
        <time>2025-12-04T09:28:24Z</time>
      </trkpt>
      <trkpt lat="45.64549" lon="4.55607">
        <ele>751</ele>
        <time>2025-12-04T09:28:36Z</time>
      </trkpt>
      <trkpt lat="45.64555" lon="4.55606">
        <ele>751</ele>
        <time>2025-12-04T09:28:40Z</time>
      </trkpt>
      <trkpt lat="45.64565" lon="4.55604">
        <ele>751.3</ele>
        <time>2025-12-04T09:28:48Z</time>
      </trkpt>
      <trkpt lat="45.64569" lon="4.55599">
        <ele>751.5</ele>
        <time>2025-12-04T09:28:52Z</time>
      </trkpt>
      <trkpt lat="45.64572" lon="4.55594">
        <ele>751.6</ele>
        <time>2025-12-04T09:28:56Z</time>
      </trkpt>
      <trkpt lat="45.6457" lon="4.55589">
        <ele>751.5</ele>
        <time>2025-12-04T09:29:04Z</time>
      </trkpt>
      <trkpt lat="45.64568" lon="4.55583">
        <ele>751.5</ele>
        <time>2025-12-04T09:29:10Z</time>
      </trkpt>
      <trkpt lat="45.64567" lon="4.55571">
        <ele>751.4</ele>
        <time>2025-12-04T09:29:26Z</time>
      </trkpt>
      <trkpt lat="45.64576" lon="4.55537">
        <ele>751.6</ele>
        <time>2025-12-04T09:29:52Z</time>
      </trkpt>
      <trkpt lat="45.64579" lon="4.55516">
        <ele>751.3</ele>
        <time>2025-12-04T09:30:04Z</time>
      </trkpt>
      <trkpt lat="45.6458" lon="4.5551">
        <ele>751.1</ele>
        <time>2025-12-04T09:30:08Z</time>
      </trkpt>
      <trkpt lat="45.64581" lon="4.55502">
        <ele>750.9</ele>
        <time>2025-12-04T09:30:12Z</time>
      </trkpt>
      <trkpt lat="45.64584" lon="4.55489">
        <ele>750.7</ele>
        <time>2025-12-04T09:30:20Z</time>
      </trkpt>
      <trkpt lat="45.64586" lon="4.55476">
        <ele>750.4</ele>
        <time>2025-12-04T09:30:28Z</time>
      </trkpt>
      <trkpt lat="45.64587" lon="4.55468">
        <ele>750.5</ele>
        <time>2025-12-04T09:30:32Z</time>
      </trkpt>
      <trkpt lat="45.64591" lon="4.55438">
        <ele>750.6</ele>
        <time>2025-12-04T09:30:48Z</time>
      </trkpt>
      <trkpt lat="45.64593" lon="4.55422">
        <ele>750.6</ele>
        <time>2025-12-04T09:30:56Z</time>
      </trkpt>
      <trkpt lat="45.64594" lon="4.55399">
        <ele>750.6</ele>
        <time>2025-12-04T09:31:08Z</time>
      </trkpt>
      <trkpt lat="45.64593" lon="4.55339">
        <ele>750.1</ele>
        <time>2025-12-04T09:31:40Z</time>
      </trkpt>
      <trkpt lat="45.6459" lon="4.55316">
        <ele>749.8</ele>
        <time>2025-12-04T09:31:52Z</time>
      </trkpt>
      <trkpt lat="45.6459" lon="4.55311">
        <ele>749.7</ele>
        <time>2025-12-04T09:31:56Z</time>
      </trkpt>
      <trkpt lat="45.64584" lon="4.55299">
        <ele>749.3</ele>
        <time>2025-12-04T09:32:28Z</time>
      </trkpt>
      <trkpt lat="45.6458" lon="4.55294">
        <ele>749.2</ele>
        <time>2025-12-04T09:32:32Z</time>
      </trkpt>
      <trkpt lat="45.64577" lon="4.55289">
        <ele>749.1</ele>
        <time>2025-12-04T09:32:36Z</time>
      </trkpt>
      <trkpt lat="45.6457" lon="4.55281">
        <ele>749</ele>
        <time>2025-12-04T09:32:44Z</time>
      </trkpt>
      <trkpt lat="45.64567" lon="4.55277">
        <ele>748.8</ele>
        <time>2025-12-04T09:32:48Z</time>
      </trkpt>
      <trkpt lat="45.64563" lon="4.55272">
        <ele>748.6</ele>
        <time>2025-12-04T09:32:52Z</time>
      </trkpt>
      <trkpt lat="45.64548" lon="4.55254">
        <ele>747.1</ele>
        <time>2025-12-04T09:33:08Z</time>
      </trkpt>
      <trkpt lat="45.64544" lon="4.55248">
        <ele>746.8</ele>
        <time>2025-12-04T09:33:12Z</time>
      </trkpt>
      <trkpt lat="45.64539" lon="4.55245">
        <ele>746.4</ele>
        <time>2025-12-04T09:33:16Z</time>
      </trkpt>
      <trkpt lat="45.64516" lon="4.55214">
        <ele>744.5</ele>
        <time>2025-12-04T09:33:40Z</time>
      </trkpt>
      <trkpt lat="45.64512" lon="4.55209">
        <ele>744</ele>
        <time>2025-12-04T09:33:44Z</time>
      </trkpt>
      <trkpt lat="45.64508" lon="4.55206">
        <ele>743.5</ele>
        <time>2025-12-04T09:33:48Z</time>
      </trkpt>
      <trkpt lat="45.64503" lon="4.55193">
        <ele>743.3</ele>
        <time>2025-12-04T09:33:56Z</time>
      </trkpt>
      <trkpt lat="45.64501" lon="4.55187">
        <ele>743.1</ele>
        <time>2025-12-04T09:34:00Z</time>
      </trkpt>
      <trkpt lat="45.645" lon="4.5518">
        <ele>743</ele>
        <time>2025-12-04T09:34:04Z</time>
      </trkpt>
      <trkpt lat="45.64499" lon="4.55164">
        <ele>742.8</ele>
        <time>2025-12-04T09:34:12Z</time>
      </trkpt>
      <trkpt lat="45.64499" lon="4.55107">
        <ele>742.8</ele>
        <time>2025-12-04T09:34:44Z</time>
      </trkpt>
      <trkpt lat="45.64499" lon="4.55069">
        <ele>741.6</ele>
        <time>2025-12-04T09:35:04Z</time>
      </trkpt>
      <trkpt lat="45.64508" lon="4.5504">
        <ele>740.7</ele>
        <time>2025-12-04T09:35:24Z</time>
      </trkpt>
      <trkpt lat="45.64515" lon="4.55026">
        <ele>740.5</ele>
        <time>2025-12-04T09:35:38Z</time>
      </trkpt>
      <trkpt lat="45.64514" lon="4.5502">
        <ele>740</ele>
        <time>2025-12-04T09:35:42Z</time>
      </trkpt>
      <trkpt lat="45.64516" lon="4.55014">
        <ele>739.9</ele>
        <time>2025-12-04T09:35:46Z</time>
      </trkpt>
      <trkpt lat="45.64516" lon="4.55009">
        <ele>739.6</ele>
        <time>2025-12-04T09:35:50Z</time>
      </trkpt>
      <trkpt lat="45.64518" lon="4.55007">
        <ele>739.7</ele>
        <time>2025-12-04T09:36:18Z</time>
      </trkpt>
      <trkpt lat="45.64519" lon="4.55002">
        <ele>739.5</ele>
        <time>2025-12-04T09:36:22Z</time>
      </trkpt>
      <trkpt lat="45.64518" lon="4.54996">
        <ele>739.2</ele>
        <time>2025-12-04T09:36:26Z</time>
      </trkpt>
      <trkpt lat="45.6452" lon="4.54992">
        <ele>739.2</ele>
        <time>2025-12-04T09:36:32Z</time>
      </trkpt>
      <trkpt lat="45.64519" lon="4.54985">
        <ele>739</ele>
        <time>2025-12-04T09:36:36Z</time>
      </trkpt>
      <trkpt lat="45.64521" lon="4.5498">
        <ele>738.9</ele>
        <time>2025-12-04T09:36:40Z</time>
      </trkpt>
      <trkpt lat="45.64519" lon="4.54973">
        <ele>738.7</ele>
        <time>2025-12-04T09:36:50Z</time>
      </trkpt>
      <trkpt lat="45.64522" lon="4.5496">
        <ele>738.7</ele>
        <time>2025-12-04T09:36:58Z</time>
      </trkpt>
      <trkpt lat="45.64522" lon="4.54952">
        <ele>738.6</ele>
        <time>2025-12-04T09:37:02Z</time>
      </trkpt>
      <trkpt lat="45.64526" lon="4.54899">
        <ele>737.2</ele>
        <time>2025-12-04T09:37:30Z</time>
      </trkpt>
      <trkpt lat="45.64518" lon="4.54855">
        <ele>735.7</ele>
        <time>2025-12-04T09:37:54Z</time>
      </trkpt>
      <trkpt lat="45.6452" lon="4.54802">
        <ele>735.9</ele>
        <time>2025-12-04T09:38:22Z</time>
      </trkpt>
      <trkpt lat="45.64514" lon="4.54767">
        <ele>734.1</ele>
        <time>2025-12-04T09:38:42Z</time>
      </trkpt>
      <trkpt lat="45.64508" lon="4.54746">
        <ele>732.3</ele>
        <time>2025-12-04T09:38:54Z</time>
      </trkpt>
      <trkpt lat="45.64506" lon="4.54688">
        <ele>730.9</ele>
        <time>2025-12-04T09:39:26Z</time>
      </trkpt>
      <trkpt lat="45.64506" lon="4.54681">
        <ele>731</ele>
        <time>2025-12-04T09:39:30Z</time>
      </trkpt>
      <trkpt lat="45.64505" lon="4.54674">
        <ele>730.8</ele>
        <time>2025-12-04T09:39:34Z</time>
      </trkpt>
      <trkpt lat="45.64504" lon="4.54668">
        <ele>730.6</ele>
        <time>2025-12-04T09:39:38Z</time>
      </trkpt>
      <trkpt lat="45.64506" lon="4.54661">
        <ele>730.6</ele>
        <time>2025-12-04T09:39:42Z</time>
      </trkpt>
      <trkpt lat="45.64505" lon="4.5464">
        <ele>729.7</ele>
        <time>2025-12-04T09:39:54Z</time>
      </trkpt>
      <trkpt lat="45.64506" lon="4.54632">
        <ele>729.3</ele>
        <time>2025-12-04T09:40:12Z</time>
      </trkpt>
      <trkpt lat="45.64503" lon="4.546">
        <ele>726.3</ele>
        <time>2025-12-04T09:40:32Z</time>
      </trkpt>
      <trkpt lat="45.64502" lon="4.54581">
        <ele>724.1</ele>
        <time>2025-12-04T09:40:44Z</time>
      </trkpt>
      <trkpt lat="45.64503" lon="4.54559">
        <ele>722.7</ele>
        <time>2025-12-04T09:40:56Z</time>
      </trkpt>
      <trkpt lat="45.64506" lon="4.54552">
        <ele>722.6</ele>
        <time>2025-12-04T09:41:00Z</time>
      </trkpt>
      <trkpt lat="45.64508" lon="4.54546">
        <ele>722.4</ele>
        <time>2025-12-04T09:41:04Z</time>
      </trkpt>
      <trkpt lat="45.64509" lon="4.54538">
        <ele>722.1</ele>
        <time>2025-12-04T09:41:08Z</time>
      </trkpt>
      <trkpt lat="45.64515" lon="4.54529">
        <ele>722.2</ele>
        <time>2025-12-04T09:41:18Z</time>
      </trkpt>
      <trkpt lat="45.64514" lon="4.54526">
        <ele>721.8</ele>
        <time>2025-12-04T09:41:48Z</time>
      </trkpt>
      <trkpt lat="45.64511" lon="4.54524">
        <ele>721.2</ele>
        <time>2025-12-04T09:41:54Z</time>
      </trkpt>
      <trkpt lat="45.6451" lon="4.54518">
        <ele>720.5</ele>
        <time>2025-12-04T09:41:58Z</time>
      </trkpt>
      <trkpt lat="45.645" lon="4.54502">
        <ele>717.2</ele>
        <time>2025-12-04T09:42:14Z</time>
      </trkpt>
      <trkpt lat="45.64498" lon="4.54497">
        <ele>716.3</ele>
        <time>2025-12-04T09:42:20Z</time>
      </trkpt>
      <trkpt lat="45.64493" lon="4.54488">
        <ele>714.9</ele>
        <time>2025-12-04T09:42:28Z</time>
      </trkpt>
      <trkpt lat="45.64488" lon="4.5447">
        <ele>712.6</ele>
        <time>2025-12-04T09:42:44Z</time>
      </trkpt>
      <trkpt lat="45.6448" lon="4.54459">
        <ele>709.9</ele>
        <time>2025-12-04T09:42:54Z</time>
      </trkpt>
      <trkpt lat="45.64472" lon="4.54452">
        <ele>707.7</ele>
        <time>2025-12-04T09:43:02Z</time>
      </trkpt>
      <trkpt lat="45.64463" lon="4.54453">
        <ele>705.7</ele>
        <time>2025-12-04T09:43:28Z</time>
      </trkpt>
      <trkpt lat="45.64441" lon="4.54481">
        <ele>703.7</ele>
        <time>2025-12-04T09:43:58Z</time>
      </trkpt>
      <trkpt lat="45.64425" lon="4.54498">
        <ele>701.7</ele>
        <time>2025-12-04T09:44:16Z</time>
      </trkpt>
      <trkpt lat="45.64405" lon="4.54504">
        <ele>697.8</ele>
        <time>2025-12-04T09:44:42Z</time>
      </trkpt>
      <trkpt lat="45.64395" lon="4.54505">
        <ele>695.7</ele>
        <time>2025-12-04T09:44:52Z</time>
      </trkpt>
      <trkpt lat="45.64386" lon="4.54505">
        <ele>693.8</ele>
        <time>2025-12-04T09:45:02Z</time>
      </trkpt>
      <trkpt lat="45.64377" lon="4.54501">
        <ele>691.9</ele>
        <time>2025-12-04T09:45:12Z</time>
      </trkpt>
      <trkpt lat="45.64381" lon="4.54472">
        <ele>689.5</ele>
        <time>2025-12-04T09:45:30Z</time>
      </trkpt>
      <trkpt lat="45.64393" lon="4.54448">
        <ele>689.3</ele>
        <time>2025-12-04T09:45:52Z</time>
      </trkpt>
      <trkpt lat="45.64401" lon="4.54422">
        <ele>687.4</ele>
        <time>2025-12-04T09:46:08Z</time>
      </trkpt>
      <trkpt lat="45.64407" lon="4.5441">
        <ele>687.1</ele>
        <time>2025-12-04T09:46:16Z</time>
      </trkpt>
      <trkpt lat="45.64417" lon="4.54387">
        <ele>685.9</ele>
        <time>2025-12-04T09:46:32Z</time>
      </trkpt>
      <trkpt lat="45.64423" lon="4.54375">
        <ele>685.5</ele>
        <time>2025-12-04T09:46:40Z</time>
      </trkpt>
      <trkpt lat="45.64428" lon="4.54363">
        <ele>685.3</ele>
        <time>2025-12-04T09:46:48Z</time>
      </trkpt>
      <trkpt lat="45.64434" lon="4.54319">
        <ele>683.3</ele>
        <time>2025-12-04T09:47:16Z</time>
      </trkpt>
      <trkpt lat="45.64434" lon="4.54313">
        <ele>682.8</ele>
        <time>2025-12-04T09:48:02Z</time>
      </trkpt>
      <trkpt lat="45.64434" lon="4.54306">
        <ele>682.4</ele>
        <time>2025-12-04T09:48:22Z</time>
      </trkpt>
      <trkpt lat="45.64433" lon="4.54301">
        <ele>681.8</ele>
        <time>2025-12-04T09:48:38Z</time>
      </trkpt>
      <trkpt lat="45.6443" lon="4.54298">
        <ele>680.7</ele>
        <time>2025-12-04T09:48:52Z</time>
      </trkpt>
      <trkpt lat="45.64427" lon="4.54292">
        <ele>679.6</ele>
        <time>2025-12-04T09:48:58Z</time>
      </trkpt>
      <trkpt lat="45.64426" lon="4.54282">
        <ele>678.6</ele>
        <time>2025-12-04T09:49:10Z</time>
      </trkpt>
      <trkpt lat="45.64423" lon="4.54278">
        <ele>677.7</ele>
        <time>2025-12-04T09:49:24Z</time>
      </trkpt>
      <trkpt lat="45.64422" lon="4.54272">
        <ele>677</ele>
        <time>2025-12-04T09:52:16Z</time>
      </trkpt>
      <trkpt lat="45.6441" lon="4.54251">
        <ele>673.9</ele>
        <time>2025-12-04T09:52:38Z</time>
      </trkpt>
      <trkpt lat="45.64406" lon="4.54241">
        <ele>672.8</ele>
        <time>2025-12-04T09:53:02Z</time>
      </trkpt>
      <trkpt lat="45.64405" lon="4.54234">
        <ele>672.3</ele>
        <time>2025-12-04T09:53:18Z</time>
      </trkpt>
      <trkpt lat="45.64402" lon="4.54229">
        <ele>671.6</ele>
        <time>2025-12-04T09:53:22Z</time>
      </trkpt>
      <trkpt lat="45.64401" lon="4.54223">
        <ele>671.2</ele>
        <time>2025-12-04T09:53:26Z</time>
      </trkpt>
      <trkpt lat="45.64395" lon="4.54214">
        <ele>669.9</ele>
        <time>2025-12-04T09:53:36Z</time>
      </trkpt>
      <trkpt lat="45.64392" lon="4.54211">
        <ele>669.1</ele>
        <time>2025-12-04T09:53:42Z</time>
      </trkpt>
      <trkpt lat="45.64387" lon="4.54202">
        <ele>667.9</ele>
        <time>2025-12-04T09:53:52Z</time>
      </trkpt>
      <trkpt lat="45.64385" lon="4.54198">
        <ele>667.4</ele>
        <time>2025-12-04T09:53:56Z</time>
      </trkpt>
      <trkpt lat="45.64379" lon="4.54189">
        <ele>666</ele>
        <time>2025-12-04T09:54:04Z</time>
      </trkpt>
      <trkpt lat="45.64377" lon="4.54185">
        <ele>665.5</ele>
        <time>2025-12-04T09:54:08Z</time>
      </trkpt>
      <trkpt lat="45.64373" lon="4.54183">
        <ele>664.7</ele>
        <time>2025-12-04T09:54:12Z</time>
      </trkpt>
      <trkpt lat="45.6437" lon="4.54178">
        <ele>664</ele>
        <time>2025-12-04T09:54:20Z</time>
      </trkpt>
      <trkpt lat="45.64368" lon="4.54173">
        <ele>663.4</ele>
        <time>2025-12-04T09:54:26Z</time>
      </trkpt>
      <trkpt lat="45.64367" lon="4.54167">
        <ele>663.1</ele>
        <time>2025-12-04T09:54:30Z</time>
      </trkpt>
      <trkpt lat="45.64366" lon="4.54161">
        <ele>663</ele>
        <time>2025-12-04T09:54:58Z</time>
      </trkpt>
      <trkpt lat="45.64366" lon="4.54105">
        <ele>662.1</ele>
        <time>2025-12-04T09:55:30Z</time>
      </trkpt>
      <trkpt lat="45.64367" lon="4.54098">
        <ele>662.5</ele>
        <time>2025-12-04T09:55:34Z</time>
      </trkpt>
      <trkpt lat="45.64368" lon="4.54079">
        <ele>662.8</ele>
        <time>2025-12-04T09:55:46Z</time>
      </trkpt>
      <trkpt lat="45.64366" lon="4.54071">
        <ele>662.3</ele>
        <time>2025-12-04T09:55:50Z</time>
      </trkpt>
      <trkpt lat="45.64364" lon="4.54064">
        <ele>661.9</ele>
        <time>2025-12-04T09:55:54Z</time>
      </trkpt>
      <trkpt lat="45.6436" lon="4.54036">
        <ele>660.6</ele>
        <time>2025-12-04T09:56:10Z</time>
      </trkpt>
      <trkpt lat="45.64356" lon="4.54006">
        <ele>658.7</ele>
        <time>2025-12-04T09:56:26Z</time>
      </trkpt>
      <trkpt lat="45.64344" lon="4.53952">
        <ele>653.4</ele>
        <time>2025-12-04T09:56:58Z</time>
      </trkpt>
      <trkpt lat="45.6434" lon="4.53939">
        <ele>651.7</ele>
        <time>2025-12-04T09:57:06Z</time>
      </trkpt>
      <trkpt lat="45.64334" lon="4.53933">
        <ele>649.9</ele>
        <time>2025-12-04T09:57:12Z</time>
      </trkpt>
      <trkpt lat="45.64332" lon="4.53927">
        <ele>649.1</ele>
        <time>2025-12-04T09:57:16Z</time>
      </trkpt>
      <trkpt lat="45.6433" lon="4.53922">
        <ele>648.4</ele>
        <time>2025-12-04T09:57:20Z</time>
      </trkpt>
      <trkpt lat="45.6433" lon="4.53914">
        <ele>648.1</ele>
        <time>2025-12-04T09:57:24Z</time>
      </trkpt>
      <trkpt lat="45.64327" lon="4.5391">
        <ele>647.4</ele>
        <time>2025-12-04T09:57:28Z</time>
      </trkpt>
      <trkpt lat="45.64327" lon="4.5389">
        <ele>646.4</ele>
        <time>2025-12-04T09:57:40Z</time>
      </trkpt>
      <trkpt lat="45.64327" lon="4.53884">
        <ele>646</ele>
        <time>2025-12-04T09:57:44Z</time>
      </trkpt>
      <trkpt lat="45.64327" lon="4.53821">
        <ele>643.1</ele>
        <time>2025-12-04T09:58:20Z</time>
      </trkpt>
      <trkpt lat="45.6433" lon="4.53808">
        <ele>643.3</ele>
        <time>2025-12-04T09:58:30Z</time>
      </trkpt>
      <trkpt lat="45.64338" lon="4.53797">
        <ele>644.3</ele>
        <time>2025-12-04T09:58:38Z</time>
      </trkpt>
      <trkpt lat="45.64348" lon="4.53768">
        <ele>644.3</ele>
        <time>2025-12-04T09:58:54Z</time>
      </trkpt>
      <trkpt lat="45.64351" lon="4.53755">
        <ele>643.7</ele>
        <time>2025-12-04T09:59:02Z</time>
      </trkpt>
      <trkpt lat="45.64356" lon="4.5374">
        <ele>643.2</ele>
        <time>2025-12-04T09:59:10Z</time>
      </trkpt>
      <trkpt lat="45.64357" lon="4.53725">
        <ele>641.6</ele>
        <time>2025-12-04T09:59:18Z</time>
      </trkpt>
      <trkpt lat="45.64354" lon="4.53682">
        <ele>636.7</ele>
        <time>2025-12-04T09:59:42Z</time>
      </trkpt>
      <trkpt lat="45.64355" lon="4.53668">
        <ele>635.4</ele>
        <time>2025-12-04T09:59:58Z</time>
      </trkpt>
      <trkpt lat="45.64355" lon="4.53661">
        <ele>635</ele>
        <time>2025-12-04T10:00:02Z</time>
      </trkpt>
      <trkpt lat="45.64358" lon="4.53657">
        <ele>635</ele>
        <time>2025-12-04T10:00:06Z</time>
      </trkpt>
      <trkpt lat="45.64362" lon="4.53654">
        <ele>635.1</ele>
        <time>2025-12-04T10:00:10Z</time>
      </trkpt>
      <trkpt lat="45.64368" lon="4.53652">
        <ele>634.9</ele>
        <time>2025-12-04T10:00:14Z</time>
      </trkpt>
      <trkpt lat="45.64377" lon="4.53647">
        <ele>634.3</ele>
        <time>2025-12-04T10:00:22Z</time>
      </trkpt>
      <trkpt lat="45.64391" lon="4.53641">
        <ele>633.2</ele>
        <time>2025-12-04T10:00:34Z</time>
      </trkpt>
      <trkpt lat="45.64405" lon="4.5364">
        <ele>632.6</ele>
        <time>2025-12-04T10:00:48Z</time>
      </trkpt>
      <trkpt lat="45.64415" lon="4.53641">
        <ele>632.4</ele>
        <time>2025-12-04T10:00:58Z</time>
      </trkpt>
      <trkpt lat="45.64419" lon="4.53643">
        <ele>632.7</ele>
        <time>2025-12-04T10:01:08Z</time>
      </trkpt>
      <trkpt lat="45.64423" lon="4.53639">
        <ele>631.7</ele>
        <time>2025-12-04T10:01:12Z</time>
      </trkpt>
      <trkpt lat="45.64428" lon="4.53641">
        <ele>631.9</ele>
        <time>2025-12-04T10:01:20Z</time>
      </trkpt>
      <trkpt lat="45.64438" lon="4.53646">
        <ele>632.5</ele>
        <time>2025-12-04T10:01:30Z</time>
      </trkpt>
      <trkpt lat="45.64448" lon="4.53651">
        <ele>632.9</ele>
        <time>2025-12-04T10:01:40Z</time>
      </trkpt>
      <trkpt lat="45.64455" lon="4.53656">
        <ele>633.3</ele>
        <time>2025-12-04T10:01:48Z</time>
      </trkpt>
      <trkpt lat="45.64451" lon="4.53655">
        <ele>633.5</ele>
        <time>2025-12-04T10:02:46Z</time>
      </trkpt>
      <trkpt lat="45.64434" lon="4.53641">
        <ele>631.7</ele>
        <time>2025-12-04T10:03:02Z</time>
      </trkpt>
      <trkpt lat="45.64403" lon="4.53614">
        <ele>628.5</ele>
        <time>2025-12-04T10:03:34Z</time>
      </trkpt>
      <trkpt lat="45.64394" lon="4.53605">
        <ele>627.6</ele>
        <time>2025-12-04T10:03:42Z</time>
      </trkpt>
      <trkpt lat="45.64372" lon="4.53554">
        <ele>622</ele>
        <time>2025-12-04T10:04:12Z</time>
      </trkpt>
      <trkpt lat="45.64357" lon="4.53533">
        <ele>620.3</ele>
        <time>2025-12-04T10:04:28Z</time>
      </trkpt>
      <trkpt lat="45.64338" lon="4.53525">
        <ele>618</ele>
        <time>2025-12-04T10:04:44Z</time>
      </trkpt>
      <trkpt lat="45.64316" lon="4.53522">
        <ele>615.5</ele>
        <time>2025-12-04T10:05:00Z</time>
      </trkpt>
      <trkpt lat="45.64306" lon="4.53517">
        <ele>613.8</ele>
        <time>2025-12-04T10:05:08Z</time>
      </trkpt>
      <trkpt lat="45.64285" lon="4.53511">
        <ele>612.4</ele>
        <time>2025-12-04T10:05:24Z</time>
      </trkpt>
      <trkpt lat="45.64281" lon="4.53512">
        <ele>612.4</ele>
        <time>2025-12-04T10:05:28Z</time>
      </trkpt>
      <trkpt lat="45.64279" lon="4.53517">
        <ele>612.9</ele>
        <time>2025-12-04T10:05:32Z</time>
      </trkpt>
      <trkpt lat="45.64279" lon="4.53524">
        <ele>613.6</ele>
        <time>2025-12-04T10:06:04Z</time>
      </trkpt>
      <trkpt lat="45.64284" lon="4.53526">
        <ele>614</ele>
        <time>2025-12-04T10:06:12Z</time>
      </trkpt>
      <trkpt lat="45.64283" lon="4.5352">
        <ele>613.3</ele>
        <time>2025-12-04T10:06:56Z</time>
      </trkpt>
      <trkpt lat="45.64284" lon="4.53515">
        <ele>612.9</ele>
        <time>2025-12-04T10:07:10Z</time>
      </trkpt>
      <trkpt lat="45.64282" lon="4.5351">
        <ele>612.2</ele>
        <time>2025-12-04T10:07:34Z</time>
      </trkpt>
      <trkpt lat="45.64278" lon="4.53508">
        <ele>611.9</ele>
        <time>2025-12-04T10:07:38Z</time>
      </trkpt>
      <trkpt lat="45.64274" lon="4.53507">
        <ele>611.5</ele>
        <time>2025-12-04T10:07:42Z</time>
      </trkpt>
      <trkpt lat="45.64271" lon="4.53506">
        <ele>611.1</ele>
        <time>2025-12-04T10:07:46Z</time>
      </trkpt>
      <trkpt lat="45.6425" lon="4.53512">
        <ele>610.3</ele>
        <time>2025-12-04T10:08:06Z</time>
      </trkpt>
      <trkpt lat="45.64236" lon="4.53517">
        <ele>609.8</ele>
        <time>2025-12-04T10:08:18Z</time>
      </trkpt>
      <trkpt lat="45.64227" lon="4.53519">
        <ele>609.4</ele>
        <time>2025-12-04T10:08:26Z</time>
      </trkpt>
      <trkpt lat="45.64224" lon="4.53518">
        <ele>609.1</ele>
        <time>2025-12-04T10:08:30Z</time>
      </trkpt>
      <trkpt lat="45.64223" lon="4.53514">
        <ele>608.5</ele>
        <time>2025-12-04T10:08:34Z</time>
      </trkpt>
      <trkpt lat="45.6422" lon="4.53511">
        <ele>608.2</ele>
        <time>2025-12-04T10:08:38Z</time>
      </trkpt>
      <trkpt lat="45.64215" lon="4.53511">
        <ele>608</ele>
        <time>2025-12-04T10:08:42Z</time>
      </trkpt>
      <trkpt lat="45.64189" lon="4.53519">
        <ele>608.5</ele>
        <time>2025-12-04T10:09:08Z</time>
      </trkpt>
      <trkpt lat="45.64185" lon="4.53519">
        <ele>608.6</ele>
        <time>2025-12-04T10:09:12Z</time>
      </trkpt>
      <trkpt lat="45.64177" lon="4.53519">
        <ele>608.8</ele>
        <time>2025-12-04T10:09:22Z</time>
      </trkpt>
      <trkpt lat="45.64173" lon="4.53516">
        <ele>608.6</ele>
        <time>2025-12-04T10:09:26Z</time>
      </trkpt>
      <trkpt lat="45.6417" lon="4.53513">
        <ele>608.4</ele>
        <time>2025-12-04T10:09:30Z</time>
      </trkpt>
      <trkpt lat="45.64174" lon="4.5351">
        <ele>608</ele>
        <time>2025-12-04T10:09:34Z</time>
      </trkpt>
      <trkpt lat="45.6417" lon="4.53506">
        <ele>607.6</ele>
        <time>2025-12-04T10:09:58Z</time>
      </trkpt>
      <trkpt lat="45.64171" lon="4.5349">
        <ele>606.1</ele>
        <time>2025-12-04T10:10:20Z</time>
      </trkpt>
      <trkpt lat="45.64175" lon="4.53434">
        <ele>600.7</ele>
        <time>2025-12-04T10:10:52Z</time>
      </trkpt>
      <trkpt lat="45.64174" lon="4.53413">
        <ele>599.2</ele>
        <time>2025-12-04T10:11:04Z</time>
      </trkpt>
      <trkpt lat="45.64169" lon="4.53386">
        <ele>597.6</ele>
        <time>2025-12-04T10:11:20Z</time>
      </trkpt>
      <trkpt lat="45.64169" lon="4.53358">
        <ele>595.8</ele>
        <time>2025-12-04T10:11:36Z</time>
      </trkpt>
      <trkpt lat="45.6418" lon="4.53301">
        <ele>594</ele>
        <time>2025-12-04T10:12:08Z</time>
      </trkpt>
      <trkpt lat="45.64182" lon="4.53277">
        <ele>594</ele>
        <time>2025-12-04T10:12:20Z</time>
      </trkpt>
      <trkpt lat="45.64182" lon="4.53271">
        <ele>594.1</ele>
        <time>2025-12-04T10:12:24Z</time>
      </trkpt>
      <trkpt lat="45.64181" lon="4.53265">
        <ele>594.2</ele>
        <time>2025-12-04T10:12:28Z</time>
      </trkpt>
      <trkpt lat="45.64184" lon="4.53258">
        <ele>594.3</ele>
        <time>2025-12-04T10:12:40Z</time>
      </trkpt>
      <trkpt lat="45.64186" lon="4.53252">
        <ele>594.3</ele>
        <time>2025-12-04T10:12:52Z</time>
      </trkpt>
      <trkpt lat="45.64193" lon="4.53256">
        <ele>594.1</ele>
        <time>2025-12-04T10:13:00Z</time>
      </trkpt>
      <trkpt lat="45.64196" lon="4.53253">
        <ele>594</ele>
        <time>2025-12-04T10:13:12Z</time>
      </trkpt>
      <trkpt lat="45.64199" lon="4.53248">
        <ele>594.2</ele>
        <time>2025-12-04T10:13:18Z</time>
      </trkpt>
      <trkpt lat="45.64203" lon="4.53245">
        <ele>594.4</ele>
        <time>2025-12-04T10:13:24Z</time>
      </trkpt>
      <trkpt lat="45.64213" lon="4.53238">
        <ele>595</ele>
        <time>2025-12-04T10:13:36Z</time>
      </trkpt>
      <trkpt lat="45.64217" lon="4.53234">
        <ele>595.2</ele>
        <time>2025-12-04T10:13:42Z</time>
      </trkpt>
      <trkpt lat="45.64223" lon="4.53234">
        <ele>595.2</ele>
        <time>2025-12-04T10:13:46Z</time>
      </trkpt>
      <trkpt lat="45.64227" lon="4.53233">
        <ele>595.1</ele>
        <time>2025-12-04T10:13:50Z</time>
      </trkpt>
      <trkpt lat="45.64261" lon="4.53222">
        <ele>595.4</ele>
        <time>2025-12-04T10:14:20Z</time>
      </trkpt>
      <trkpt lat="45.64266" lon="4.5322">
        <ele>595.8</ele>
        <time>2025-12-04T10:14:24Z</time>
      </trkpt>
      <trkpt lat="45.64272" lon="4.53219">
        <ele>596.2</ele>
        <time>2025-12-04T10:14:28Z</time>
      </trkpt>
      <trkpt lat="45.64282" lon="4.53214">
        <ele>597.3</ele>
        <time>2025-12-04T10:14:36Z</time>
      </trkpt>
      <trkpt lat="45.64289" lon="4.53208">
        <ele>598.5</ele>
        <time>2025-12-04T10:14:44Z</time>
      </trkpt>
      <trkpt lat="45.64294" lon="4.53206">
        <ele>599</ele>
        <time>2025-12-04T10:14:48Z</time>
      </trkpt>
      <trkpt lat="45.64295" lon="4.53211">
        <ele>598.2</ele>
        <time>2025-12-04T10:14:52Z</time>
      </trkpt>
      <trkpt lat="45.64296" lon="4.53197">
        <ele>600.3</ele>
        <time>2025-12-04T10:14:54Z</time>
      </trkpt>
      <trkpt lat="45.643" lon="4.53193">
        <ele>601</ele>
        <time>2025-12-04T10:15:20Z</time>
      </trkpt>
      <trkpt lat="45.64308" lon="4.53186">
        <ele>602.4</ele>
        <time>2025-12-04T10:15:32Z</time>
      </trkpt>
      <trkpt lat="45.64316" lon="4.53179">
        <ele>603.8</ele>
        <time>2025-12-04T10:15:40Z</time>
      </trkpt>
      <trkpt lat="45.64328" lon="4.53164">
        <ele>606</ele>
        <time>2025-12-04T10:15:56Z</time>
      </trkpt>
      <trkpt lat="45.64333" lon="4.53161">
        <ele>606.4</ele>
        <time>2025-12-04T10:16:00Z</time>
      </trkpt>
      <trkpt lat="45.64336" lon="4.53157">
        <ele>606.9</ele>
        <time>2025-12-04T10:16:04Z</time>
      </trkpt>
      <trkpt lat="45.64366" lon="4.53137">
        <ele>610.4</ele>
        <time>2025-12-04T10:16:32Z</time>
      </trkpt>
      <trkpt lat="45.64371" lon="4.53133">
        <ele>610.7</ele>
        <time>2025-12-04T10:16:36Z</time>
      </trkpt>
      <trkpt lat="45.64374" lon="4.53131">
        <ele>610.9</ele>
        <time>2025-12-04T10:16:40Z</time>
      </trkpt>
      <trkpt lat="45.64378" lon="4.53131">
        <ele>611.2</ele>
        <time>2025-12-04T10:16:46Z</time>
      </trkpt>
      <trkpt lat="45.64407" lon="4.53105">
        <ele>614.5</ele>
        <time>2025-12-04T10:17:18Z</time>
      </trkpt>
      <trkpt lat="45.64426" lon="4.53088">
        <ele>617</ele>
        <time>2025-12-04T10:17:38Z</time>
      </trkpt>
      <trkpt lat="45.6443" lon="4.53084">
        <ele>617.4</ele>
        <time>2025-12-04T10:17:42Z</time>
      </trkpt>
      <trkpt lat="45.64451" lon="4.53067">
        <ele>619.8</ele>
        <time>2025-12-04T10:18:02Z</time>
      </trkpt>
      <trkpt lat="45.64456" lon="4.53066">
        <ele>620.2</ele>
        <time>2025-12-04T10:18:06Z</time>
      </trkpt>
      <trkpt lat="45.6446" lon="4.53064">
        <ele>620.7</ele>
        <time>2025-12-04T10:18:10Z</time>
      </trkpt>
      <trkpt lat="45.64465" lon="4.53062">
        <ele>621.2</ele>
        <time>2025-12-04T10:18:14Z</time>
      </trkpt>
      <trkpt lat="45.64492" lon="4.53043">
        <ele>624.8</ele>
        <time>2025-12-04T10:18:38Z</time>
      </trkpt>
      <trkpt lat="45.64496" lon="4.53042">
        <ele>625.4</ele>
        <time>2025-12-04T10:18:42Z</time>
      </trkpt>
      <trkpt lat="45.64519" lon="4.53024">
        <ele>628.7</ele>
        <time>2025-12-04T10:19:02Z</time>
      </trkpt>
      <trkpt lat="45.64524" lon="4.53021">
        <ele>629.2</ele>
        <time>2025-12-04T10:19:06Z</time>
      </trkpt>
      <trkpt lat="45.64529" lon="4.53018">
        <ele>629.7</ele>
        <time>2025-12-04T10:19:10Z</time>
      </trkpt>
      <trkpt lat="45.64533" lon="4.53019">
        <ele>630.2</ele>
        <time>2025-12-04T10:19:14Z</time>
      </trkpt>
      <trkpt lat="45.64546" lon="4.53015">
        <ele>631.2</ele>
        <time>2025-12-04T10:19:26Z</time>
      </trkpt>
      <trkpt lat="45.64549" lon="4.53009">
        <ele>631.1</ele>
        <time>2025-12-04T10:19:30Z</time>
      </trkpt>
      <trkpt lat="45.6455" lon="4.52996">
        <ele>630.3</ele>
        <time>2025-12-04T10:19:38Z</time>
      </trkpt>
      <trkpt lat="45.64549" lon="4.52989">
        <ele>629.9</ele>
        <time>2025-12-04T10:19:42Z</time>
      </trkpt>
      <trkpt lat="45.64549" lon="4.52982">
        <ele>629.5</ele>
        <time>2025-12-04T10:19:46Z</time>
      </trkpt>
      <trkpt lat="45.64547" lon="4.52968">
        <ele>629.2</ele>
        <time>2025-12-04T10:19:54Z</time>
      </trkpt>
      <trkpt lat="45.64548" lon="4.52961">
        <ele>629.6</ele>
        <time>2025-12-04T10:19:58Z</time>
      </trkpt>
      <trkpt lat="45.64549" lon="4.52958">
        <ele>629.8</ele>
        <time>2025-12-04T10:20:46Z</time>
      </trkpt>
      <trkpt lat="45.64547" lon="4.52954">
        <ele>629.9</ele>
        <time>2025-12-04T10:20:50Z</time>
      </trkpt>
      <trkpt lat="45.64546" lon="4.52948">
        <ele>630.1</ele>
        <time>2025-12-04T10:20:54Z</time>
      </trkpt>
      <trkpt lat="45.64542" lon="4.52943">
        <ele>630.1</ele>
        <time>2025-12-04T10:20:58Z</time>
      </trkpt>
      <trkpt lat="45.64539" lon="4.52938">
        <ele>630.1</ele>
        <time>2025-12-04T10:21:02Z</time>
      </trkpt>
      <trkpt lat="45.64532" lon="4.52929">
        <ele>630</ele>
        <time>2025-12-04T10:21:10Z</time>
      </trkpt>
      <trkpt lat="45.64526" lon="4.52921">
        <ele>629.4</ele>
        <time>2025-12-04T10:21:18Z</time>
      </trkpt>
      <trkpt lat="45.64525" lon="4.52915">
        <ele>629.4</ele>
        <time>2025-12-04T10:21:22Z</time>
      </trkpt>
      <trkpt lat="45.64527" lon="4.52909">
        <ele>629.9</ele>
        <time>2025-12-04T10:21:36Z</time>
      </trkpt>
      <trkpt lat="45.6453" lon="4.52907">
        <ele>630.2</ele>
        <time>2025-12-04T10:21:40Z</time>
      </trkpt>
      <trkpt lat="45.64539" lon="4.52917">
        <ele>631.2</ele>
        <time>2025-12-04T10:21:48Z</time>
      </trkpt>
      <trkpt lat="45.64547" lon="4.52925">
        <ele>631.6</ele>
        <time>2025-12-04T10:21:56Z</time>
      </trkpt>
      <trkpt lat="45.64551" lon="4.52927">
        <ele>631.8</ele>
        <time>2025-12-04T10:22:00Z</time>
      </trkpt>
      <trkpt lat="45.64568" lon="4.52947">
        <ele>633.1</ele>
        <time>2025-12-04T10:22:20Z</time>
      </trkpt>
      <trkpt lat="45.64571" lon="4.52951">
        <ele>633.1</ele>
        <time>2025-12-04T10:22:24Z</time>
      </trkpt>
      <trkpt lat="45.64588" lon="4.52968">
        <ele>633.6</ele>
        <time>2025-12-04T10:22:44Z</time>
      </trkpt>
      <trkpt lat="45.64608" lon="4.5297">
        <ele>638.4</ele>
        <time>2025-12-04T10:23:12Z</time>
      </trkpt>
      <trkpt lat="45.64612" lon="4.52969">
        <ele>639.2</ele>
        <time>2025-12-04T10:23:16Z</time>
      </trkpt>
      <trkpt lat="45.64615" lon="4.52966">
        <ele>639.6</ele>
        <time>2025-12-04T10:23:20Z</time>
      </trkpt>
      <trkpt lat="45.64618" lon="4.52961">
        <ele>640.2</ele>
        <time>2025-12-04T10:23:24Z</time>
      </trkpt>
      <trkpt lat="45.64618" lon="4.52956">
        <ele>640.3</ele>
        <time>2025-12-04T10:23:26Z</time>
      </trkpt>
      <trkpt lat="45.64622" lon="4.52947">
        <ele>641.1</ele>
        <time>2025-12-04T10:23:30Z</time>
      </trkpt>
      <trkpt lat="45.64627" lon="4.52945">
        <ele>641.7</ele>
        <time>2025-12-04T10:23:34Z</time>
      </trkpt>
      <trkpt lat="45.64629" lon="4.52949">
        <ele>641.8</ele>
        <time>2025-12-04T10:23:38Z</time>
      </trkpt>
      <trkpt lat="45.64653" lon="4.52938">
        <ele>645.6</ele>
        <time>2025-12-04T10:24:08Z</time>
      </trkpt>
      <trkpt lat="45.64669" lon="4.52933">
        <ele>648.5</ele>
        <time>2025-12-04T10:24:26Z</time>
      </trkpt>
      <trkpt lat="45.64673" lon="4.52931">
        <ele>649.3</ele>
        <time>2025-12-04T10:24:30Z</time>
      </trkpt>
      <trkpt lat="45.64683" lon="4.52926">
        <ele>651.4</ele>
        <time>2025-12-04T10:24:42Z</time>
      </trkpt>
      <trkpt lat="45.64688" lon="4.52925">
        <ele>652.1</ele>
        <time>2025-12-04T10:24:46Z</time>
      </trkpt>
      <trkpt lat="45.64702" lon="4.52917">
        <ele>655.1</ele>
        <time>2025-12-04T10:25:02Z</time>
      </trkpt>
      <trkpt lat="45.64706" lon="4.52914">
        <ele>655.9</ele>
        <time>2025-12-04T10:25:06Z</time>
      </trkpt>
      <trkpt lat="45.64718" lon="4.52909">
        <ele>658.1</ele>
        <time>2025-12-04T10:25:24Z</time>
      </trkpt>
      <trkpt lat="45.64732" lon="4.52898">
        <ele>661.4</ele>
        <time>2025-12-04T10:25:42Z</time>
      </trkpt>
      <trkpt lat="45.64734" lon="4.52894">
        <ele>662.1</ele>
        <time>2025-12-04T10:25:46Z</time>
      </trkpt>
      <trkpt lat="45.64734" lon="4.52889">
        <ele>662.7</ele>
        <time>2025-12-04T10:25:50Z</time>
      </trkpt>
      <trkpt lat="45.6475" lon="4.52853">
        <ele>667.2</ele>
        <time>2025-12-04T10:26:22Z</time>
      </trkpt>
      <trkpt lat="45.64752" lon="4.52848">
        <ele>667.7</ele>
        <time>2025-12-04T10:26:26Z</time>
      </trkpt>
      <trkpt lat="45.64754" lon="4.52844">
        <ele>668.1</ele>
        <time>2025-12-04T10:26:30Z</time>
      </trkpt>
      <trkpt lat="45.64764" lon="4.52826">
        <ele>670.4</ele>
        <time>2025-12-04T10:26:48Z</time>
      </trkpt>
      <trkpt lat="45.64767" lon="4.52823">
        <ele>670.9</ele>
        <time>2025-12-04T10:26:52Z</time>
      </trkpt>
      <trkpt lat="45.64772" lon="4.52822">
        <ele>671.6</ele>
        <time>2025-12-04T10:27:00Z</time>
      </trkpt>
      <trkpt lat="45.6477" lon="4.52813">
        <ele>671.8</ele>
        <time>2025-12-04T10:27:10Z</time>
      </trkpt>
      <trkpt lat="45.64778" lon="4.52809">
        <ele>672.9</ele>
        <time>2025-12-04T10:27:26Z</time>
      </trkpt>
      <trkpt lat="45.64785" lon="4.52803">
        <ele>673.3</ele>
        <time>2025-12-04T10:27:30Z</time>
      </trkpt>
      <trkpt lat="45.64788" lon="4.52795">
        <ele>673.5</ele>
        <time>2025-12-04T10:31:02Z</time>
      </trkpt>
      <trkpt lat="45.64792" lon="4.52793">
        <ele>673.8</ele>
        <time>2025-12-04T10:31:36Z</time>
      </trkpt>
      <trkpt lat="45.64802" lon="4.52784">
        <ele>674.6</ele>
        <time>2025-12-04T10:31:54Z</time>
      </trkpt>
      <trkpt lat="45.64807" lon="4.52782">
        <ele>674.9</ele>
        <time>2025-12-04T10:32:00Z</time>
      </trkpt>
      <trkpt lat="45.6481" lon="4.52778">
        <ele>675.3</ele>
        <time>2025-12-04T10:32:04Z</time>
      </trkpt>
      <trkpt lat="45.64815" lon="4.52782">
        <ele>675.5</ele>
        <time>2025-12-04T10:32:08Z</time>
      </trkpt>
      <trkpt lat="45.64824" lon="4.52766">
        <ele>676.6</ele>
        <time>2025-12-04T10:32:24Z</time>
      </trkpt>
      <trkpt lat="45.64839" lon="4.5275">
        <ele>678.8</ele>
        <time>2025-12-04T10:32:46Z</time>
      </trkpt>
      <trkpt lat="45.64846" lon="4.52742">
        <ele>679.8</ele>
        <time>2025-12-04T10:32:56Z</time>
      </trkpt>
      <trkpt lat="45.64855" lon="4.52729">
        <ele>681.1</ele>
        <time>2025-12-04T10:33:08Z</time>
      </trkpt>
      <trkpt lat="45.64859" lon="4.52725">
        <ele>681.6</ele>
        <time>2025-12-04T10:33:12Z</time>
      </trkpt>
      <trkpt lat="45.64873" lon="4.52715">
        <ele>683.9</ele>
        <time>2025-12-04T10:33:30Z</time>
      </trkpt>
      <trkpt lat="45.64881" lon="4.52716">
        <ele>685.3</ele>
        <time>2025-12-04T10:33:40Z</time>
      </trkpt>
      <trkpt lat="45.64885" lon="4.52717">
        <ele>685.9</ele>
        <time>2025-12-04T10:33:44Z</time>
      </trkpt>
      <trkpt lat="45.64901" lon="4.52724">
        <ele>688.4</ele>
        <time>2025-12-04T10:34:02Z</time>
      </trkpt>
      <trkpt lat="45.64931" lon="4.52735">
        <ele>691</ele>
        <time>2025-12-04T10:34:32Z</time>
      </trkpt>
      <trkpt lat="45.64957" lon="4.52753">
        <ele>691.7</ele>
        <time>2025-12-04T10:35:02Z</time>
      </trkpt>
      <trkpt lat="45.64968" lon="4.52757">
        <ele>691.8</ele>
        <time>2025-12-04T10:35:12Z</time>
      </trkpt>
      <trkpt lat="45.64978" lon="4.52755">
        <ele>692.1</ele>
        <time>2025-12-04T10:35:22Z</time>
      </trkpt>
      <trkpt lat="45.65014" lon="4.52729">
        <ele>692.8</ele>
        <time>2025-12-04T10:35:54Z</time>
      </trkpt>
      <trkpt lat="45.65023" lon="4.52723">
        <ele>693.2</ele>
        <time>2025-12-04T10:36:02Z</time>
      </trkpt>
      <trkpt lat="45.65025" lon="4.52716">
        <ele>693.8</ele>
        <time>2025-12-04T10:36:10Z</time>
      </trkpt>
      <trkpt lat="45.65028" lon="4.52719">
        <ele>693.4</ele>
        <time>2025-12-04T10:36:14Z</time>
      </trkpt>
      <trkpt lat="45.65036" lon="4.5272">
        <ele>693.2</ele>
        <time>2025-12-04T10:36:26Z</time>
      </trkpt>
      <trkpt lat="45.65052" lon="4.52729">
        <ele>692.1</ele>
        <time>2025-12-04T10:36:46Z</time>
      </trkpt>
      <trkpt lat="45.65055" lon="4.52732">
        <ele>691.6</ele>
        <time>2025-12-04T10:36:50Z</time>
      </trkpt>
      <trkpt lat="45.65057" lon="4.52737">
        <ele>690.8</ele>
        <time>2025-12-04T10:36:56Z</time>
      </trkpt>
      <trkpt lat="45.65067" lon="4.52736">
        <ele>691</ele>
        <time>2025-12-04T10:37:48Z</time>
      </trkpt>
      <trkpt lat="45.65073" lon="4.5274">
        <ele>690.4</ele>
        <time>2025-12-04T10:39:14Z</time>
      </trkpt>
      <trkpt lat="45.65094" lon="4.52756">
        <ele>689.1</ele>
        <time>2025-12-04T10:39:42Z</time>
      </trkpt>
      <trkpt lat="45.65103" lon="4.52763">
        <ele>688.6</ele>
        <time>2025-12-04T10:39:50Z</time>
      </trkpt>
      <trkpt lat="45.65107" lon="4.52768">
        <ele>688.2</ele>
        <time>2025-12-04T10:39:54Z</time>
      </trkpt>
      <trkpt lat="45.65112" lon="4.52773">
        <ele>687.7</ele>
        <time>2025-12-04T10:39:58Z</time>
      </trkpt>
      <trkpt lat="45.6513" lon="4.52784">
        <ele>687.9</ele>
        <time>2025-12-04T10:40:14Z</time>
      </trkpt>
      <trkpt lat="45.65145" lon="4.52795">
        <ele>687.1</ele>
        <time>2025-12-04T10:40:26Z</time>
      </trkpt>
      <trkpt lat="45.65151" lon="4.52798">
        <ele>686.8</ele>
        <time>2025-12-04T10:40:30Z</time>
      </trkpt>
      <trkpt lat="45.65196" lon="4.52801">
        <ele>686.8</ele>
        <time>2025-12-04T10:41:02Z</time>
      </trkpt>
      <trkpt lat="45.65229" lon="4.52799">
        <ele>688.4</ele>
        <time>2025-12-04T10:41:26Z</time>
      </trkpt>
      <trkpt lat="45.65254" lon="4.52806">
        <ele>689.2</ele>
        <time>2025-12-04T10:41:46Z</time>
      </trkpt>
      <trkpt lat="45.65283" lon="4.52822">
        <ele>689.8</ele>
        <time>2025-12-04T10:42:10Z</time>
      </trkpt>
      <trkpt lat="45.65314" lon="4.52859">
        <ele>689.1</ele>
        <time>2025-12-04T10:42:42Z</time>
      </trkpt>
      <trkpt lat="45.65332" lon="4.52882">
        <ele>689.4</ele>
        <time>2025-12-04T10:43:02Z</time>
      </trkpt>
      <trkpt lat="45.6534" lon="4.52888">
        <ele>689.1</ele>
        <time>2025-12-04T10:43:24Z</time>
      </trkpt>
      <trkpt lat="45.65346" lon="4.52898">
        <ele>688.7</ele>
        <time>2025-12-04T10:43:50Z</time>
      </trkpt>
      <trkpt lat="45.65349" lon="4.52903">
        <ele>688.5</ele>
        <time>2025-12-04T10:43:54Z</time>
      </trkpt>
      <trkpt lat="45.65354" lon="4.52912">
        <ele>688.2</ele>
        <time>2025-12-04T10:44:02Z</time>
      </trkpt>
      <trkpt lat="45.65358" lon="4.52916">
        <ele>688</ele>
        <time>2025-12-04T10:44:24Z</time>
      </trkpt>
      <trkpt lat="45.65362" lon="4.52927">
        <ele>687.6</ele>
        <time>2025-12-04T10:44:34Z</time>
      </trkpt>
      <trkpt lat="45.65362" lon="4.52934">
        <ele>687.3</ele>
        <time>2025-12-04T10:44:38Z</time>
      </trkpt>
      <trkpt lat="45.65363" lon="4.52939">
        <ele>687.1</ele>
        <time>2025-12-04T10:44:44Z</time>
      </trkpt>
      <trkpt lat="45.6537" lon="4.52945">
        <ele>686.3</ele>
        <time>2025-12-04T10:44:52Z</time>
      </trkpt>
      <trkpt lat="45.65374" lon="4.52948">
        <ele>685.9</ele>
        <time>2025-12-04T10:44:56Z</time>
      </trkpt>
      <trkpt lat="45.65376" lon="4.52954">
        <ele>685.6</ele>
        <time>2025-12-04T10:45:00Z</time>
      </trkpt>
      <trkpt lat="45.65383" lon="4.52962">
        <ele>684.8</ele>
        <time>2025-12-04T10:45:08Z</time>
      </trkpt>
      <trkpt lat="45.65389" lon="4.52971">
        <ele>684</ele>
        <time>2025-12-04T10:45:16Z</time>
      </trkpt>
      <trkpt lat="45.65405" lon="4.52994">
        <ele>680</ele>
        <time>2025-12-04T10:45:46Z</time>
      </trkpt>
      <trkpt lat="45.65415" lon="4.53001">
        <ele>678.4</ele>
        <time>2025-12-04T10:45:58Z</time>
      </trkpt>
      <trkpt lat="45.65423" lon="4.53011">
        <ele>676.5</ele>
        <time>2025-12-04T10:46:10Z</time>
      </trkpt>
      <trkpt lat="45.6543" lon="4.53023">
        <ele>675.3</ele>
        <time>2025-12-04T10:46:22Z</time>
      </trkpt>
      <trkpt lat="45.65433" lon="4.53036">
        <ele>675</ele>
        <time>2025-12-04T10:46:34Z</time>
      </trkpt>
      <trkpt lat="45.65432" lon="4.53052">
        <ele>675.3</ele>
        <time>2025-12-04T10:46:44Z</time>
      </trkpt>
      <trkpt lat="45.65432" lon="4.53057">
        <ele>675.2</ele>
        <time>2025-12-04T10:46:48Z</time>
      </trkpt>
      <trkpt lat="45.65427" lon="4.53067">
        <ele>675</ele>
        <time>2025-12-04T10:46:58Z</time>
      </trkpt>
      <trkpt lat="45.6543" lon="4.53063">
        <ele>674.9</ele>
        <time>2025-12-04T10:47:14Z</time>
      </trkpt>
      <trkpt lat="45.65429" lon="4.53057">
        <ele>675.5</ele>
        <time>2025-12-04T10:47:18Z</time>
      </trkpt>
      <trkpt lat="45.65432" lon="4.53051">
        <ele>675.3</ele>
        <time>2025-12-04T10:47:22Z</time>
      </trkpt>
      <trkpt lat="45.65434" lon="4.53047">
        <ele>675.1</ele>
        <time>2025-12-04T10:47:56Z</time>
      </trkpt>
      <trkpt lat="45.65435" lon="4.53042">
        <ele>674.8</ele>
        <time>2025-12-04T10:48:02Z</time>
      </trkpt>
      <trkpt lat="45.65434" lon="4.53037">
        <ele>675</ele>
        <time>2025-12-04T10:48:14Z</time>
      </trkpt>
      <trkpt lat="45.65437" lon="4.53033">
        <ele>674.4</ele>
        <time>2025-12-04T10:48:20Z</time>
      </trkpt>
      <trkpt lat="45.65441" lon="4.53031">
        <ele>673.8</ele>
        <time>2025-12-04T10:48:24Z</time>
      </trkpt>
      <trkpt lat="45.65454" lon="4.53027">
        <ele>670.9</ele>
        <time>2025-12-04T10:48:36Z</time>
      </trkpt>
      <trkpt lat="45.65463" lon="4.53031">
        <ele>669.1</ele>
        <time>2025-12-04T10:48:44Z</time>
      </trkpt>
      <trkpt lat="45.6546" lon="4.53035">
        <ele>669.8</ele>
        <time>2025-12-04T10:48:48Z</time>
      </trkpt>
      <trkpt lat="45.65468" lon="4.53041">
        <ele>668</ele>
        <time>2025-12-04T10:49:00Z</time>
      </trkpt>
      <trkpt lat="45.65494" lon="4.53074">
        <ele>665.8</ele>
        <time>2025-12-04T10:49:30Z</time>
      </trkpt>
      <trkpt lat="45.65505" lon="4.53087">
        <ele>666.8</ele>
        <time>2025-12-04T10:49:42Z</time>
      </trkpt>
      <trkpt lat="45.65514" lon="4.53094">
        <ele>668.3</ele>
        <time>2025-12-04T10:49:50Z</time>
      </trkpt>
      <trkpt lat="45.65525" lon="4.53109">
        <ele>670.4</ele>
        <time>2025-12-04T10:50:02Z</time>
      </trkpt>
      <trkpt lat="45.65541" lon="4.53157">
        <ele>672.9</ele>
        <time>2025-12-04T10:50:34Z</time>
      </trkpt>
      <trkpt lat="45.65545" lon="4.53168">
        <ele>673.4</ele>
        <time>2025-12-04T10:50:42Z</time>
      </trkpt>
      <trkpt lat="45.65548" lon="4.53172">
        <ele>673.7</ele>
        <time>2025-12-04T10:50:46Z</time>
      </trkpt>
      <trkpt lat="45.65553" lon="4.53172">
        <ele>674.4</ele>
        <time>2025-12-04T10:51:04Z</time>
      </trkpt>
      <trkpt lat="45.65553" lon="4.53178">
        <ele>674.2</ele>
        <time>2025-12-04T10:51:08Z</time>
      </trkpt>
      <trkpt lat="45.65557" lon="4.5318">
        <ele>674.8</ele>
        <time>2025-12-04T10:51:14Z</time>
      </trkpt>
      <trkpt lat="45.65578" lon="4.53187">
        <ele>678.1</ele>
        <time>2025-12-04T10:51:42Z</time>
      </trkpt>
      <trkpt lat="45.65577" lon="4.53194">
        <ele>677.8</ele>
        <time>2025-12-04T10:51:46Z</time>
      </trkpt>
      <trkpt lat="45.65578" lon="4.53198">
        <ele>677.8</ele>
        <time>2025-12-04T10:51:50Z</time>
      </trkpt>
      <trkpt lat="45.65586" lon="4.53199">
        <ele>679.1</ele>
        <time>2025-12-04T10:51:58Z</time>
      </trkpt>
      <trkpt lat="45.65589" lon="4.53202">
        <ele>679.5</ele>
        <time>2025-12-04T10:52:02Z</time>
      </trkpt>
      <trkpt lat="45.65587" lon="4.53208">
        <ele>678.7</ele>
        <time>2025-12-04T10:52:48Z</time>
      </trkpt>
      <trkpt lat="45.65592" lon="4.53219">
        <ele>679</ele>
        <time>2025-12-04T10:52:58Z</time>
      </trkpt>
      <trkpt lat="45.65594" lon="4.53225">
        <ele>679.2</ele>
        <time>2025-12-04T10:53:04Z</time>
      </trkpt>
      <trkpt lat="45.65603" lon="4.53247">
        <ele>680.9</ele>
        <time>2025-12-04T10:53:20Z</time>
      </trkpt>
      <trkpt lat="45.65609" lon="4.53267">
        <ele>681.9</ele>
        <time>2025-12-04T10:53:32Z</time>
      </trkpt>
      <trkpt lat="45.65611" lon="4.5328">
        <ele>682</ele>
        <time>2025-12-04T10:53:40Z</time>
      </trkpt>
      <trkpt lat="45.65612" lon="4.53287">
        <ele>682.4</ele>
        <time>2025-12-04T10:53:44Z</time>
      </trkpt>
      <trkpt lat="45.65616" lon="4.53318">
        <ele>684.5</ele>
        <time>2025-12-04T10:54:04Z</time>
      </trkpt>
      <trkpt lat="45.65617" lon="4.53324">
        <ele>685</ele>
        <time>2025-12-04T10:54:08Z</time>
      </trkpt>
      <trkpt lat="45.65625" lon="4.53353">
        <ele>687</ele>
        <time>2025-12-04T10:54:28Z</time>
      </trkpt>
      <trkpt lat="45.65628" lon="4.53357">
        <ele>687.7</ele>
        <time>2025-12-04T10:54:32Z</time>
      </trkpt>
      <trkpt lat="45.65631" lon="4.53362">
        <ele>688.3</ele>
        <time>2025-12-04T10:54:36Z</time>
      </trkpt>
      <trkpt lat="45.65642" lon="4.53382">
        <ele>690.4</ele>
        <time>2025-12-04T10:54:52Z</time>
      </trkpt>
      <trkpt lat="45.65667" lon="4.53411">
        <ele>693.2</ele>
        <time>2025-12-04T10:55:20Z</time>
      </trkpt>
      <trkpt lat="45.65673" lon="4.5342">
        <ele>693.1</ele>
        <time>2025-12-04T10:55:28Z</time>
      </trkpt>
      <trkpt lat="45.65688" lon="4.53437">
        <ele>693</ele>
        <time>2025-12-04T10:55:44Z</time>
      </trkpt>
      <trkpt lat="45.65716" lon="4.5347">
        <ele>691.2</ele>
        <time>2025-12-04T10:56:16Z</time>
      </trkpt>
      <trkpt lat="45.6572" lon="4.53474">
        <ele>690.8</ele>
        <time>2025-12-04T10:56:20Z</time>
      </trkpt>
      <trkpt lat="45.65728" lon="4.53481">
        <ele>690.1</ele>
        <time>2025-12-04T10:56:28Z</time>
      </trkpt>
      <trkpt lat="45.65732" lon="4.53488">
        <ele>689.3</ele>
        <time>2025-12-04T10:56:32Z</time>
      </trkpt>
      <trkpt lat="45.65752" lon="4.53507">
        <ele>687.1</ele>
        <time>2025-12-04T10:56:52Z</time>
      </trkpt>
      <trkpt lat="45.65771" lon="4.53521">
        <ele>684.9</ele>
        <time>2025-12-04T10:57:08Z</time>
      </trkpt>
      <trkpt lat="45.65775" lon="4.53525">
        <ele>684.4</ele>
        <time>2025-12-04T10:57:12Z</time>
      </trkpt>
      <trkpt lat="45.65779" lon="4.53528">
        <ele>683.9</ele>
        <time>2025-12-04T10:57:16Z</time>
      </trkpt>
      <trkpt lat="45.65782" lon="4.53533">
        <ele>683</ele>
        <time>2025-12-04T10:57:20Z</time>
      </trkpt>
      <trkpt lat="45.65786" lon="4.53537">
        <ele>682.2</ele>
        <time>2025-12-04T10:57:24Z</time>
      </trkpt>
      <trkpt lat="45.65789" lon="4.53541">
        <ele>681.5</ele>
        <time>2025-12-04T10:57:28Z</time>
      </trkpt>
      <trkpt lat="45.65817" lon="4.53565">
        <ele>677.1</ele>
        <time>2025-12-04T10:57:58Z</time>
      </trkpt>
      <trkpt lat="45.65826" lon="4.53578">
        <ele>676.1</ele>
        <time>2025-12-04T10:58:10Z</time>
      </trkpt>
      <trkpt lat="45.65829" lon="4.53584">
        <ele>675.7</ele>
        <time>2025-12-04T10:58:14Z</time>
      </trkpt>
      <trkpt lat="45.65834" lon="4.53598">
        <ele>675</ele>
        <time>2025-12-04T10:58:22Z</time>
      </trkpt>
      <trkpt lat="45.65836" lon="4.53612">
        <ele>674.4</ele>
        <time>2025-12-04T10:58:30Z</time>
      </trkpt>
      <trkpt lat="45.65835" lon="4.53627">
        <ele>673.7</ele>
        <time>2025-12-04T10:58:38Z</time>
      </trkpt>
      <trkpt lat="45.65835" lon="4.53676">
        <ele>671.2</ele>
        <time>2025-12-04T10:59:06Z</time>
      </trkpt>
      <trkpt lat="45.65826" lon="4.53736">
        <ele>670.5</ele>
        <time>2025-12-04T10:59:38Z</time>
      </trkpt>
      <trkpt lat="45.65826" lon="4.53743">
        <ele>670.4</ele>
        <time>2025-12-04T10:59:42Z</time>
      </trkpt>
      <trkpt lat="45.65829" lon="4.53791">
        <ele>669.7</ele>
        <time>2025-12-04T11:00:10Z</time>
      </trkpt>
      <trkpt lat="45.6583" lon="4.53799">
        <ele>669.4</ele>
        <time>2025-12-04T11:00:14Z</time>
      </trkpt>
      <trkpt lat="45.65829" lon="4.53844">
        <ele>667.8</ele>
        <time>2025-12-04T11:00:38Z</time>
      </trkpt>
      <trkpt lat="45.65822" lon="4.53903">
        <ele>665</ele>
        <time>2025-12-04T11:01:10Z</time>
      </trkpt>
      <trkpt lat="45.65819" lon="4.53947">
        <ele>664.4</ele>
        <time>2025-12-04T11:01:34Z</time>
      </trkpt>
      <trkpt lat="45.65826" lon="4.53997">
        <ele>663.2</ele>
        <time>2025-12-04T11:02:02Z</time>
      </trkpt>
      <trkpt lat="45.65831" lon="4.54008">
        <ele>662.2</ele>
        <time>2025-12-04T11:02:26Z</time>
      </trkpt>
      <trkpt lat="45.65828" lon="4.54013">
        <ele>661.8</ele>
        <time>2025-12-04T11:02:30Z</time>
      </trkpt>
      <trkpt lat="45.65827" lon="4.54019">
        <ele>661.3</ele>
        <time>2025-12-04T11:02:34Z</time>
      </trkpt>
      <trkpt lat="45.65828" lon="4.54024">
        <ele>660.7</ele>
        <time>2025-12-04T11:02:40Z</time>
      </trkpt>
      <trkpt lat="45.65832" lon="4.54023">
        <ele>660.6</ele>
        <time>2025-12-04T11:03:12Z</time>
      </trkpt>
      <trkpt lat="45.65835" lon="4.54029">
        <ele>659.8</ele>
        <time>2025-12-04T11:03:28Z</time>
      </trkpt>
      <trkpt lat="45.65837" lon="4.54035">
        <ele>659.1</ele>
        <time>2025-12-04T11:03:32Z</time>
      </trkpt>
      <trkpt lat="45.65837" lon="4.54041">
        <ele>658.4</ele>
        <time>2025-12-04T11:03:36Z</time>
      </trkpt>
      <trkpt lat="45.6584" lon="4.54063">
        <ele>655.8</ele>
        <time>2025-12-04T11:03:52Z</time>
      </trkpt>
      <trkpt lat="45.6584" lon="4.54069">
        <ele>655.2</ele>
        <time>2025-12-04T11:03:56Z</time>
      </trkpt>
      <trkpt lat="45.65842" lon="4.54088">
        <ele>653.1</ele>
        <time>2025-12-04T11:04:08Z</time>
      </trkpt>
      <trkpt lat="45.65847" lon="4.54133">
        <ele>648.7</ele>
        <time>2025-12-04T11:04:38Z</time>
      </trkpt>
      <trkpt lat="45.65854" lon="4.54188">
        <ele>642.7</ele>
        <time>2025-12-04T11:05:10Z</time>
      </trkpt>
      <trkpt lat="45.65858" lon="4.54215">
        <ele>640</ele>
        <time>2025-12-04T11:05:26Z</time>
      </trkpt>
      <trkpt lat="45.65858" lon="4.54222">
        <ele>639.5</ele>
        <time>2025-12-04T11:05:30Z</time>
      </trkpt>
      <trkpt lat="45.65861" lon="4.54277">
        <ele>635.1</ele>
        <time>2025-12-04T11:06:02Z</time>
      </trkpt>
      <trkpt lat="45.65861" lon="4.54283">
        <ele>634.6</ele>
        <time>2025-12-04T11:06:06Z</time>
      </trkpt>
      <trkpt lat="45.65861" lon="4.5429">
        <ele>634.2</ele>
        <time>2025-12-04T11:06:10Z</time>
      </trkpt>
      <trkpt lat="45.65854" lon="4.54326">
        <ele>630.8</ele>
        <time>2025-12-04T11:06:30Z</time>
      </trkpt>
      <trkpt lat="45.65832" lon="4.54373">
        <ele>627.3</ele>
        <time>2025-12-04T11:07:02Z</time>
      </trkpt>
      <trkpt lat="45.65828" lon="4.54386">
        <ele>625.4</ele>
        <time>2025-12-04T11:07:20Z</time>
      </trkpt>
      <trkpt lat="45.65826" lon="4.54391">
        <ele>624.9</ele>
        <time>2025-12-04T11:07:24Z</time>
      </trkpt>
      <trkpt lat="45.65826" lon="4.54396">
        <ele>624.6</ele>
        <time>2025-12-04T11:07:28Z</time>
      </trkpt>
      <trkpt lat="45.65823" lon="4.54402">
        <ele>624.2</ele>
        <time>2025-12-04T11:08:00Z</time>
      </trkpt>
      <trkpt lat="45.6582" lon="4.54408">
        <ele>624</ele>
        <time>2025-12-04T11:08:08Z</time>
      </trkpt>
      <trkpt lat="45.65822" lon="4.54411">
        <ele>623.7</ele>
        <time>2025-12-04T11:08:14Z</time>
      </trkpt>
      <trkpt lat="45.65828" lon="4.54412">
        <ele>623.5</ele>
        <time>2025-12-04T11:08:26Z</time>
      </trkpt>
      <trkpt lat="45.65826" lon="4.54418">
        <ele>623.2</ele>
        <time>2025-12-04T11:08:30Z</time>
      </trkpt>
      <trkpt lat="45.65827" lon="4.54423">
        <ele>623</ele>
        <time>2025-12-04T11:08:38Z</time>
      </trkpt>
      <trkpt lat="45.65826" lon="4.5445">
        <ele>622.2</ele>
        <time>2025-12-04T11:08:54Z</time>
      </trkpt>
      <trkpt lat="45.65824" lon="4.54467">
        <ele>622.1</ele>
        <time>2025-12-04T11:09:04Z</time>
      </trkpt>
      <trkpt lat="45.65824" lon="4.54487">
        <ele>622.5</ele>
        <time>2025-12-04T11:09:16Z</time>
      </trkpt>
      <trkpt lat="45.65823" lon="4.54493">
        <ele>622.7</ele>
        <time>2025-12-04T11:09:34Z</time>
      </trkpt>
      <trkpt lat="45.65822" lon="4.5449">
        <ele>622.6</ele>
        <time>2025-12-04T11:10:28Z</time>
      </trkpt>
      <trkpt lat="45.65827" lon="4.54491">
        <ele>622.7</ele>
        <time>2025-12-04T11:10:58Z</time>
      </trkpt>
      <trkpt lat="45.6583" lon="4.54495">
        <ele>622.8</ele>
        <time>2025-12-04T11:11:02Z</time>
      </trkpt>
      <trkpt lat="45.65833" lon="4.545">
        <ele>623</ele>
        <time>2025-12-04T11:11:08Z</time>
      </trkpt>
      <trkpt lat="45.65837" lon="4.54503">
        <ele>622.8</ele>
        <time>2025-12-04T11:11:12Z</time>
      </trkpt>
      <trkpt lat="45.65849" lon="4.54512">
        <ele>622.5</ele>
        <time>2025-12-04T11:11:26Z</time>
      </trkpt>
      <trkpt lat="45.65854" lon="4.54519">
        <ele>622.6</ele>
        <time>2025-12-04T11:11:38Z</time>
      </trkpt>
      <trkpt lat="45.65858" lon="4.5452">
        <ele>622.7</ele>
        <time>2025-12-04T11:11:46Z</time>
      </trkpt>
      <trkpt lat="45.65866" lon="4.54525">
        <ele>623.1</ele>
        <time>2025-12-04T11:11:54Z</time>
      </trkpt>
      <trkpt lat="45.65886" lon="4.54533">
        <ele>623.7</ele>
        <time>2025-12-04T11:12:10Z</time>
      </trkpt>
      <trkpt lat="45.65895" lon="4.54534">
        <ele>624.5</ele>
        <time>2025-12-04T11:12:18Z</time>
      </trkpt>
      <trkpt lat="45.65913" lon="4.54539">
        <ele>626.2</ele>
        <time>2025-12-04T11:12:34Z</time>
      </trkpt>
      <trkpt lat="45.65947" lon="4.54563">
        <ele>631</ele>
        <time>2025-12-04T11:13:06Z</time>
      </trkpt>
      <trkpt lat="45.65972" lon="4.54586">
        <ele>632.8</ele>
        <time>2025-12-04T11:13:36Z</time>
      </trkpt>
      <trkpt lat="45.65985" lon="4.54606">
        <ele>632.3</ele>
        <time>2025-12-04T11:13:52Z</time>
      </trkpt>
      <trkpt lat="45.66018" lon="4.54642">
        <ele>632.1</ele>
        <time>2025-12-04T11:14:24Z</time>
      </trkpt>
      <trkpt lat="45.66053" lon="4.54675">
        <ele>630.5</ele>
        <time>2025-12-04T11:14:56Z</time>
      </trkpt>
      <trkpt lat="45.66086" lon="4.54712">
        <ele>629.9</ele>
        <time>2025-12-04T11:15:28Z</time>
      </trkpt>
      <trkpt lat="45.66089" lon="4.54717">
        <ele>629.8</ele>
        <time>2025-12-04T11:15:32Z</time>
      </trkpt>
      <trkpt lat="45.66102" lon="4.54732">
        <ele>630.3</ele>
        <time>2025-12-04T11:15:44Z</time>
      </trkpt>
      <trkpt lat="45.66105" lon="4.54739">
        <ele>630.5</ele>
        <time>2025-12-04T11:15:48Z</time>
      </trkpt>
      <trkpt lat="45.66121" lon="4.54776">
        <ele>632.9</ele>
        <time>2025-12-04T11:16:12Z</time>
      </trkpt>
      <trkpt lat="45.66139" lon="4.54822">
        <ele>633.4</ele>
        <time>2025-12-04T11:16:40Z</time>
      </trkpt>
      <trkpt lat="45.66165" lon="4.54869">
        <ele>633.2</ele>
        <time>2025-12-04T11:17:12Z</time>
      </trkpt>
      <trkpt lat="45.66197" lon="4.54908">
        <ele>631.6</ele>
        <time>2025-12-04T11:17:44Z</time>
      </trkpt>
      <trkpt lat="45.66213" lon="4.54915">
        <ele>631.1</ele>
        <time>2025-12-04T11:17:56Z</time>
      </trkpt>
      <trkpt lat="45.66218" lon="4.54916">
        <ele>631.1</ele>
        <time>2025-12-04T11:18:00Z</time>
      </trkpt>
      <trkpt lat="45.66235" lon="4.54918">
        <ele>630.9</ele>
        <time>2025-12-04T11:18:12Z</time>
      </trkpt>
      <trkpt lat="45.66278" lon="4.54924">
        <ele>630.5</ele>
        <time>2025-12-04T11:18:44Z</time>
      </trkpt>
      <trkpt lat="45.66297" lon="4.54926">
        <ele>631</ele>
        <time>2025-12-04T11:19:00Z</time>
      </trkpt>
      <trkpt lat="45.66339" lon="4.54945">
        <ele>630</ele>
        <time>2025-12-04T11:19:32Z</time>
      </trkpt>
      <trkpt lat="45.66349" lon="4.5495">
        <ele>630.2</ele>
        <time>2025-12-04T11:19:40Z</time>
      </trkpt>
      <trkpt lat="45.66365" lon="4.54953">
        <ele>630.3</ele>
        <time>2025-12-04T11:19:52Z</time>
      </trkpt>
      <trkpt lat="45.6637" lon="4.54953">
        <ele>630.3</ele>
        <time>2025-12-04T11:19:56Z</time>
      </trkpt>
      <trkpt lat="45.66374" lon="4.54955">
        <ele>630.4</ele>
        <time>2025-12-04T11:20:00Z</time>
      </trkpt>
      <trkpt lat="45.66377" lon="4.54961">
        <ele>630.6</ele>
        <time>2025-12-04T11:20:04Z</time>
      </trkpt>
      <trkpt lat="45.66375" lon="4.54966">
        <ele>630.8</ele>
        <time>2025-12-04T11:20:06Z</time>
      </trkpt>
      <trkpt lat="45.66373" lon="4.54973">
        <ele>631</ele>
        <time>2025-12-04T11:20:42Z</time>
      </trkpt>
      <trkpt lat="45.66368" lon="4.54987">
        <ele>632.7</ele>
        <time>2025-12-04T11:20:50Z</time>
      </trkpt>
      <trkpt lat="45.66367" lon="4.54995">
        <ele>633.6</ele>
        <time>2025-12-04T11:20:54Z</time>
      </trkpt>
      <trkpt lat="45.66368" lon="4.55">
        <ele>634.3</ele>
        <time>2025-12-04T11:20:58Z</time>
      </trkpt>
      <trkpt lat="45.66369" lon="4.55006">
        <ele>635.3</ele>
        <time>2025-12-04T11:21:02Z</time>
      </trkpt>
      <trkpt lat="45.66372" lon="4.5501">
        <ele>636</ele>
        <time>2025-12-04T11:21:06Z</time>
      </trkpt>
      <trkpt lat="45.66382" lon="4.55012">
        <ele>636.8</ele>
        <time>2025-12-04T11:21:14Z</time>
      </trkpt>
      <trkpt lat="45.66387" lon="4.55011">
        <ele>636.8</ele>
        <time>2025-12-04T11:21:18Z</time>
      </trkpt>
      <trkpt lat="45.66391" lon="4.55008">
        <ele>636.6</ele>
        <time>2025-12-04T11:21:22Z</time>
      </trkpt>
      <trkpt lat="45.66395" lon="4.55007">
        <ele>636.6</ele>
        <time>2025-12-04T11:21:26Z</time>
      </trkpt>
      <trkpt lat="45.66402" lon="4.55001">
        <ele>636.1</ele>
        <time>2025-12-04T11:21:34Z</time>
      </trkpt>
      <trkpt lat="45.66407" lon="4.54999">
        <ele>636.1</ele>
        <time>2025-12-04T11:21:38Z</time>
      </trkpt>
      <trkpt lat="45.66416" lon="4.54997">
        <ele>636.4</ele>
        <time>2025-12-04T11:21:46Z</time>
      </trkpt>
      <trkpt lat="45.66421" lon="4.54997">
        <ele>636.8</ele>
        <time>2025-12-04T11:21:50Z</time>
      </trkpt>
      <trkpt lat="45.6643" lon="4.55002">
        <ele>638.3</ele>
        <time>2025-12-04T11:21:58Z</time>
      </trkpt>
      <trkpt lat="45.66431" lon="4.55007">
        <ele>639.3</ele>
        <time>2025-12-04T11:22:10Z</time>
      </trkpt>
      <trkpt lat="45.66429" lon="4.55012">
        <ele>640.1</ele>
        <time>2025-12-04T11:22:14Z</time>
      </trkpt>
      <trkpt lat="45.66425" lon="4.55016">
        <ele>640.5</ele>
        <time>2025-12-04T11:22:18Z</time>
      </trkpt>
      <trkpt lat="45.66415" lon="4.55041">
        <ele>644.2</ele>
        <time>2025-12-04T11:22:50Z</time>
      </trkpt>
      <trkpt lat="45.66405" lon="4.55064">
        <ele>647.3</ele>
        <time>2025-12-04T11:23:14Z</time>
      </trkpt>
      <trkpt lat="45.66402" lon="4.55073">
        <ele>648.5</ele>
        <time>2025-12-04T11:23:24Z</time>
      </trkpt>
      <trkpt lat="45.66401" lon="4.55078">
        <ele>649.1</ele>
        <time>2025-12-04T11:23:28Z</time>
      </trkpt>
      <trkpt lat="45.66392" lon="4.55117">
        <ele>654.4</ele>
        <time>2025-12-04T11:24:00Z</time>
      </trkpt>
      <trkpt lat="45.6639" lon="4.55122">
        <ele>655.5</ele>
        <time>2025-12-04T11:24:06Z</time>
      </trkpt>
      <trkpt lat="45.66385" lon="4.5514">
        <ele>658.8</ele>
        <time>2025-12-04T11:24:22Z</time>
      </trkpt>
      <trkpt lat="45.66383" lon="4.55144">
        <ele>659.5</ele>
        <time>2025-12-04T11:24:26Z</time>
      </trkpt>
      <trkpt lat="45.66383" lon="4.55149">
        <ele>660.5</ele>
        <time>2025-12-04T11:24:30Z</time>
      </trkpt>
      <trkpt lat="45.66377" lon="4.55166">
        <ele>663.2</ele>
        <time>2025-12-04T11:24:46Z</time>
      </trkpt>
      <trkpt lat="45.66371" lon="4.55194">
        <ele>665</ele>
        <time>2025-12-04T11:25:08Z</time>
      </trkpt>
      <trkpt lat="45.6637" lon="4.55212">
        <ele>666.7</ele>
        <time>2025-12-04T11:25:20Z</time>
      </trkpt>
      <trkpt lat="45.6637" lon="4.55237">
        <ele>669</ele>
        <time>2025-12-04T11:25:40Z</time>
      </trkpt>
      <trkpt lat="45.66371" lon="4.55248">
        <ele>670.2</ele>
        <time>2025-12-04T11:25:48Z</time>
      </trkpt>
      <trkpt lat="45.66371" lon="4.55261">
        <ele>671.1</ele>
        <time>2025-12-04T11:25:58Z</time>
      </trkpt>
      <trkpt lat="45.66368" lon="4.55265">
        <ele>671.3</ele>
        <time>2025-12-04T11:26:02Z</time>
      </trkpt>
      <trkpt lat="45.6637" lon="4.55293">
        <ele>674</ele>
        <time>2025-12-04T11:26:26Z</time>
      </trkpt>
      <trkpt lat="45.6637" lon="4.553">
        <ele>674.7</ele>
        <time>2025-12-04T11:26:32Z</time>
      </trkpt>
      <trkpt lat="45.66368" lon="4.55348">
        <ele>679.6</ele>
        <time>2025-12-04T11:27:04Z</time>
      </trkpt>
      <trkpt lat="45.66367" lon="4.55366">
        <ele>681.3</ele>
        <time>2025-12-04T11:27:16Z</time>
      </trkpt>
      <trkpt lat="45.66366" lon="4.55372">
        <ele>681.8</ele>
        <time>2025-12-04T11:27:22Z</time>
      </trkpt>
      <trkpt lat="45.66365" lon="4.55384">
        <ele>682.7</ele>
        <time>2025-12-04T11:27:32Z</time>
      </trkpt>
      <trkpt lat="45.66364" lon="4.55408">
        <ele>684.5</ele>
        <time>2025-12-04T11:27:48Z</time>
      </trkpt>
      <trkpt lat="45.66363" lon="4.55413">
        <ele>684.8</ele>
        <time>2025-12-04T11:27:54Z</time>
      </trkpt>
      <trkpt lat="45.66361" lon="4.55419">
        <ele>685.2</ele>
        <time>2025-12-04T11:28:00Z</time>
      </trkpt>
      <trkpt lat="45.66363" lon="4.55438">
        <ele>686.6</ele>
        <time>2025-12-04T11:28:16Z</time>
      </trkpt>
      <trkpt lat="45.66357" lon="4.5544">
        <ele>686.7</ele>
        <time>2025-12-04T11:28:22Z</time>
      </trkpt>
      <trkpt lat="45.66359" lon="4.55447">
        <ele>687.2</ele>
        <time>2025-12-04T11:28:26Z</time>
      </trkpt>
      <trkpt lat="45.6636" lon="4.55492">
        <ele>692.1</ele>
        <time>2025-12-04T11:28:54Z</time>
      </trkpt>
      <trkpt lat="45.66361" lon="4.55498">
        <ele>692.8</ele>
        <time>2025-12-04T11:29:08Z</time>
      </trkpt>
      <trkpt lat="45.6636" lon="4.55504">
        <ele>693.4</ele>
        <time>2025-12-04T11:29:12Z</time>
      </trkpt>
      <trkpt lat="45.6636" lon="4.5551">
        <ele>694</ele>
        <time>2025-12-04T11:29:18Z</time>
      </trkpt>
      <trkpt lat="45.66358" lon="4.55527">
        <ele>695.7</ele>
        <time>2025-12-04T11:29:32Z</time>
      </trkpt>
      <trkpt lat="45.66362" lon="4.55545">
        <ele>697.9</ele>
        <time>2025-12-04T11:29:48Z</time>
      </trkpt>
      <trkpt lat="45.66365" lon="4.55549">
        <ele>698.3</ele>
        <time>2025-12-04T11:29:52Z</time>
      </trkpt>
      <trkpt lat="45.66377" lon="4.55575">
        <ele>700.4</ele>
        <time>2025-12-04T11:30:20Z</time>
      </trkpt>
      <trkpt lat="45.66386" lon="4.55602">
        <ele>702.4</ele>
        <time>2025-12-04T11:30:40Z</time>
      </trkpt>
      <trkpt lat="45.66388" lon="4.55657">
        <ele>705.6</ele>
        <time>2025-12-04T11:31:14Z</time>
      </trkpt>
      <trkpt lat="45.66387" lon="4.55663">
        <ele>705.9</ele>
        <time>2025-12-04T11:31:18Z</time>
      </trkpt>
      <trkpt lat="45.66386" lon="4.5567">
        <ele>706.2</ele>
        <time>2025-12-04T11:31:22Z</time>
      </trkpt>
      <trkpt lat="45.66386" lon="4.55678">
        <ele>706.8</ele>
        <time>2025-12-04T11:31:26Z</time>
      </trkpt>
      <trkpt lat="45.66388" lon="4.55683">
        <ele>707.2</ele>
        <time>2025-12-04T11:31:30Z</time>
      </trkpt>
      <trkpt lat="45.66388" lon="4.55688">
        <ele>707.5</ele>
        <time>2025-12-04T11:31:34Z</time>
      </trkpt>
      <trkpt lat="45.66385" lon="4.55693">
        <ele>707.7</ele>
        <time>2025-12-04T11:31:38Z</time>
      </trkpt>
      <trkpt lat="45.66379" lon="4.55711">
        <ele>708.3</ele>
        <time>2025-12-04T11:31:50Z</time>
      </trkpt>
      <trkpt lat="45.66375" lon="4.55722">
        <ele>708.5</ele>
        <time>2025-12-04T11:31:58Z</time>
      </trkpt>
      <trkpt lat="45.66375" lon="4.55727">
        <ele>708.7</ele>
        <time>2025-12-04T11:32:02Z</time>
      </trkpt>
      <trkpt lat="45.66378" lon="4.55729">
        <ele>709</ele>
        <time>2025-12-04T11:32:06Z</time>
      </trkpt>
      <trkpt lat="45.66382" lon="4.55733">
        <ele>709.4</ele>
        <time>2025-12-04T11:32:10Z</time>
      </trkpt>
      <trkpt lat="45.66384" lon="4.55738">
        <ele>709.9</ele>
        <time>2025-12-04T11:32:14Z</time>
      </trkpt>
      <trkpt lat="45.6638" lon="4.55745">
        <ele>710</ele>
        <time>2025-12-04T11:32:18Z</time>
      </trkpt>
      <trkpt lat="45.66377" lon="4.55751">
        <ele>710.2</ele>
        <time>2025-12-04T11:32:22Z</time>
      </trkpt>
      <trkpt lat="45.66374" lon="4.55756">
        <ele>710.2</ele>
        <time>2025-12-04T11:32:26Z</time>
      </trkpt>
      <trkpt lat="45.66372" lon="4.55761">
        <ele>710.2</ele>
        <time>2025-12-04T11:32:30Z</time>
      </trkpt>
      <trkpt lat="45.66367" lon="4.5576">
        <ele>709.8</ele>
        <time>2025-12-04T11:32:34Z</time>
      </trkpt>
      <trkpt lat="45.66363" lon="4.55762">
        <ele>709.6</ele>
        <time>2025-12-04T11:32:38Z</time>
      </trkpt>
      <trkpt lat="45.66362" lon="4.55769">
        <ele>709.7</ele>
        <time>2025-12-04T11:32:42Z</time>
      </trkpt>
      <trkpt lat="45.6636" lon="4.55775">
        <ele>709.8</ele>
        <time>2025-12-04T11:32:46Z</time>
      </trkpt>
      <trkpt lat="45.66357" lon="4.55787">
        <ele>710.1</ele>
        <time>2025-12-04T11:32:54Z</time>
      </trkpt>
      <trkpt lat="45.66356" lon="4.55795">
        <ele>710.4</ele>
        <time>2025-12-04T11:32:58Z</time>
      </trkpt>
      <trkpt lat="45.66353" lon="4.55801">
        <ele>710.3</ele>
        <time>2025-12-04T11:33:02Z</time>
      </trkpt>
      <trkpt lat="45.66352" lon="4.55808">
        <ele>710.4</ele>
        <time>2025-12-04T11:33:06Z</time>
      </trkpt>
      <trkpt lat="45.6635" lon="4.55814">
        <ele>710.6</ele>
        <time>2025-12-04T11:33:10Z</time>
      </trkpt>
      <trkpt lat="45.66341" lon="4.55842">
        <ele>711.2</ele>
        <time>2025-12-04T11:33:26Z</time>
      </trkpt>
      <trkpt lat="45.6634" lon="4.55848">
        <ele>711.5</ele>
        <time>2025-12-04T11:33:30Z</time>
      </trkpt>
      <trkpt lat="45.66328" lon="4.55887">
        <ele>713.1</ele>
        <time>2025-12-04T11:33:54Z</time>
      </trkpt>
      <trkpt lat="45.66324" lon="4.55899">
        <ele>713.5</ele>
        <time>2025-12-04T11:34:02Z</time>
      </trkpt>
      <trkpt lat="45.66312" lon="4.55922">
        <ele>714.3</ele>
        <time>2025-12-04T11:34:18Z</time>
      </trkpt>
      <trkpt lat="45.66308" lon="4.55925">
        <ele>714.1</ele>
        <time>2025-12-04T11:34:22Z</time>
      </trkpt>
      <trkpt lat="45.66306" lon="4.55931">
        <ele>714.6</ele>
        <time>2025-12-04T11:34:26Z</time>
      </trkpt>
      <trkpt lat="45.66303" lon="4.55933">
        <ele>714.4</ele>
        <time>2025-12-04T11:34:30Z</time>
      </trkpt>
      <trkpt lat="45.66288" lon="4.55968">
        <ele>716.6</ele>
        <time>2025-12-04T11:35:02Z</time>
      </trkpt>
      <trkpt lat="45.66265" lon="4.56011">
        <ele>718.2</ele>
        <time>2025-12-04T11:35:34Z</time>
      </trkpt>
      <trkpt lat="45.66262" lon="4.56015">
        <ele>718.5</ele>
        <time>2025-12-04T11:35:38Z</time>
      </trkpt>
      <trkpt lat="45.66247" lon="4.56029">
        <ele>719.2</ele>
        <time>2025-12-04T11:35:54Z</time>
      </trkpt>
      <trkpt lat="45.66242" lon="4.56031">
        <ele>719.6</ele>
        <time>2025-12-04T11:35:58Z</time>
      </trkpt>
      <trkpt lat="45.66237" lon="4.56032">
        <ele>719.8</ele>
        <time>2025-12-04T11:36:02Z</time>
      </trkpt>
      <trkpt lat="45.66228" lon="4.56031">
        <ele>720.1</ele>
        <time>2025-12-04T11:36:08Z</time>
      </trkpt>
      <trkpt lat="45.66224" lon="4.56035">
        <ele>720.5</ele>
        <time>2025-12-04T11:36:12Z</time>
      </trkpt>
      <trkpt lat="45.66206" lon="4.56043">
        <ele>721.6</ele>
        <time>2025-12-04T11:36:28Z</time>
      </trkpt>
      <trkpt lat="45.66201" lon="4.56046">
        <ele>722.1</ele>
        <time>2025-12-04T11:36:32Z</time>
      </trkpt>
      <trkpt lat="45.66197" lon="4.56048">
        <ele>722.4</ele>
        <time>2025-12-04T11:36:36Z</time>
      </trkpt>
      <trkpt lat="45.66192" lon="4.56046">
        <ele>722.5</ele>
        <time>2025-12-04T11:36:40Z</time>
      </trkpt>
      <trkpt lat="45.66185" lon="4.56046">
        <ele>723.3</ele>
        <time>2025-12-04T11:36:46Z</time>
      </trkpt>
      <trkpt lat="45.6618" lon="4.56044">
        <ele>723.6</ele>
        <time>2025-12-04T11:36:50Z</time>
      </trkpt>
      <trkpt lat="45.66153" lon="4.56027">
        <ele>724.8</ele>
        <time>2025-12-04T11:37:22Z</time>
      </trkpt>
      <trkpt lat="45.66141" lon="4.56018">
        <ele>725.7</ele>
        <time>2025-12-04T11:37:34Z</time>
      </trkpt>
      <trkpt lat="45.66138" lon="4.56013">
        <ele>725.5</ele>
        <time>2025-12-04T11:37:38Z</time>
      </trkpt>
      <trkpt lat="45.66135" lon="4.5601">
        <ele>725.6</ele>
        <time>2025-12-04T11:37:42Z</time>
      </trkpt>
      <trkpt lat="45.66131" lon="4.56007">
        <ele>725.7</ele>
        <time>2025-12-04T11:37:46Z</time>
      </trkpt>
      <trkpt lat="45.66127" lon="4.56006">
        <ele>726.1</ele>
        <time>2025-12-04T11:37:50Z</time>
      </trkpt>
      <trkpt lat="45.66123" lon="4.56004">
        <ele>726.5</ele>
        <time>2025-12-04T11:37:54Z</time>
      </trkpt>
      <trkpt lat="45.66099" lon="4.55982">
        <ele>728.1</ele>
        <time>2025-12-04T11:38:18Z</time>
      </trkpt>
      <trkpt lat="45.66089" lon="4.55977">
        <ele>728.7</ele>
        <time>2025-12-04T11:38:28Z</time>
      </trkpt>
      <trkpt lat="45.66054" lon="4.55949">
        <ele>730.5</ele>
        <time>2025-12-04T11:39:06Z</time>
      </trkpt>
      <trkpt lat="45.66041" lon="4.55929">
        <ele>730.7</ele>
        <time>2025-12-04T11:39:26Z</time>
      </trkpt>
      <trkpt lat="45.66037" lon="4.55915">
        <ele>730.2</ele>
        <time>2025-12-04T11:39:40Z</time>
      </trkpt>
      <trkpt lat="45.66035" lon="4.55903">
        <ele>729</ele>
        <time>2025-12-04T11:39:50Z</time>
      </trkpt>
      <trkpt lat="45.66031" lon="4.55892">
        <ele>728.1</ele>
        <time>2025-12-04T11:39:58Z</time>
      </trkpt>
      <trkpt lat="45.66046" lon="4.55897">
        <ele>727.5</ele>
        <time>2025-12-04T11:41:08Z</time>
      </trkpt>
      <trkpt lat="45.6605" lon="4.55905">
        <ele>728.1</ele>
        <time>2025-12-04T11:45:14Z</time>
      </trkpt>
      <trkpt lat="45.66067" lon="4.55972">
        <ele>730.7</ele>
        <time>2025-12-04T13:16:36Z</time>
      </trkpt>
      <trkpt lat="45.6606" lon="4.55982">
        <ele>731.9</ele>
        <time>2025-12-04T13:17:16Z</time>
      </trkpt>
      <trkpt lat="45.66052" lon="4.55992">
        <ele>732.7</ele>
        <time>2025-12-04T13:17:26Z</time>
      </trkpt>
      <trkpt lat="45.66046" lon="4.56005">
        <ele>733</ele>
        <time>2025-12-04T13:17:36Z</time>
      </trkpt>
      <trkpt lat="45.66046" lon="4.56019">
        <ele>733</ele>
        <time>2025-12-04T13:17:46Z</time>
      </trkpt>
      <trkpt lat="45.6605" lon="4.56031">
        <ele>733.1</ele>
        <time>2025-12-04T13:17:56Z</time>
      </trkpt>
      <trkpt lat="45.66051" lon="4.56047">
        <ele>733.6</ele>
        <time>2025-12-04T13:18:06Z</time>
      </trkpt>
      <trkpt lat="45.66048" lon="4.56059">
        <ele>733.7</ele>
        <time>2025-12-04T13:18:12Z</time>
      </trkpt>
      <trkpt lat="45.66049" lon="4.56072">
        <ele>733.8</ele>
        <time>2025-12-04T13:18:20Z</time>
      </trkpt>
      <trkpt lat="45.66067" lon="4.56118">
        <ele>734.4</ele>
        <time>2025-12-04T13:18:52Z</time>
      </trkpt>
      <trkpt lat="45.6607" lon="4.56139">
        <ele>734.5</ele>
        <time>2025-12-04T13:19:04Z</time>
      </trkpt>
      <trkpt lat="45.66068" lon="4.56144">
        <ele>734.4</ele>
        <time>2025-12-04T13:19:08Z</time>
      </trkpt>
      <trkpt lat="45.66068" lon="4.56151">
        <ele>734.5</ele>
        <time>2025-12-04T13:19:12Z</time>
      </trkpt>
      <trkpt lat="45.66071" lon="4.56157">
        <ele>734.5</ele>
        <time>2025-12-04T13:19:16Z</time>
      </trkpt>
      <trkpt lat="45.66075" lon="4.56177">
        <ele>734.7</ele>
        <time>2025-12-04T13:19:32Z</time>
      </trkpt>
      <trkpt lat="45.66081" lon="4.56196">
        <ele>734.9</ele>
        <time>2025-12-04T13:19:44Z</time>
      </trkpt>
      <trkpt lat="45.66086" lon="4.56209">
        <ele>735</ele>
        <time>2025-12-04T13:19:52Z</time>
      </trkpt>
      <trkpt lat="45.66087" lon="4.56218">
        <ele>735</ele>
        <time>2025-12-04T13:19:58Z</time>
      </trkpt>
      <trkpt lat="45.66091" lon="4.56231">
        <ele>734.8</ele>
        <time>2025-12-04T13:20:06Z</time>
      </trkpt>
      <trkpt lat="45.66095" lon="4.56237">
        <ele>734.7</ele>
        <time>2025-12-04T13:20:10Z</time>
      </trkpt>
      <trkpt lat="45.66093" lon="4.56244">
        <ele>734.5</ele>
        <time>2025-12-04T13:20:14Z</time>
      </trkpt>
      <trkpt lat="45.66092" lon="4.56258">
        <ele>734.2</ele>
        <time>2025-12-04T13:20:22Z</time>
      </trkpt>
      <trkpt lat="45.66093" lon="4.56271">
        <ele>734.1</ele>
        <time>2025-12-04T13:20:30Z</time>
      </trkpt>
      <trkpt lat="45.66097" lon="4.56305">
        <ele>733.5</ele>
        <time>2025-12-04T13:20:50Z</time>
      </trkpt>
      <trkpt lat="45.66101" lon="4.56328">
        <ele>732.6</ele>
        <time>2025-12-04T13:21:02Z</time>
      </trkpt>
      <trkpt lat="45.66104" lon="4.56329">
        <ele>732.5</ele>
        <time>2025-12-04T13:21:06Z</time>
      </trkpt>
      <trkpt lat="45.66109" lon="4.56328">
        <ele>732.5</ele>
        <time>2025-12-04T13:21:10Z</time>
      </trkpt>
      <trkpt lat="45.66114" lon="4.5632">
        <ele>732.9</ele>
        <time>2025-12-04T13:21:22Z</time>
      </trkpt>
      <trkpt lat="45.66119" lon="4.56322">
        <ele>732.7</ele>
        <time>2025-12-04T13:21:26Z</time>
      </trkpt>
      <trkpt lat="45.66131" lon="4.56322">
        <ele>732.4</ele>
        <time>2025-12-04T13:21:34Z</time>
      </trkpt>
      <trkpt lat="45.66146" lon="4.56314">
        <ele>732.7</ele>
        <time>2025-12-04T13:21:46Z</time>
      </trkpt>
      <trkpt lat="45.66151" lon="4.56313">
        <ele>732.6</ele>
        <time>2025-12-04T13:21:50Z</time>
      </trkpt>
      <trkpt lat="45.66149" lon="4.56317">
        <ele>732.2</ele>
        <time>2025-12-04T13:21:52Z</time>
      </trkpt>
      <trkpt lat="45.66158" lon="4.56321">
        <ele>731.3</ele>
        <time>2025-12-04T13:22:04Z</time>
      </trkpt>
      <trkpt lat="45.66166" lon="4.56317">
        <ele>731.4</ele>
        <time>2025-12-04T13:22:12Z</time>
      </trkpt>
      <trkpt lat="45.66195" lon="4.56305">
        <ele>733.1</ele>
        <time>2025-12-04T13:23:06Z</time>
      </trkpt>
      <trkpt lat="45.66224" lon="4.56299">
        <ele>735</ele>
        <time>2025-12-04T13:23:36Z</time>
      </trkpt>
      <trkpt lat="45.66235" lon="4.56299">
        <ele>735.5</ele>
        <time>2025-12-04T13:23:46Z</time>
      </trkpt>
      <trkpt lat="45.66262" lon="4.56282">
        <ele>736</ele>
        <time>2025-12-04T13:24:26Z</time>
      </trkpt>
      <trkpt lat="45.66281" lon="4.56287">
        <ele>736.1</ele>
        <time>2025-12-04T13:24:42Z</time>
      </trkpt>
      <trkpt lat="45.66292" lon="4.5629">
        <ele>736.5</ele>
        <time>2025-12-04T13:25:00Z</time>
      </trkpt>
      <trkpt lat="45.66296" lon="4.56304">
        <ele>736.6</ele>
        <time>2025-12-04T13:25:06Z</time>
      </trkpt>
      <trkpt lat="45.66296" lon="4.56324">
        <ele>735.3</ele>
        <time>2025-12-04T13:25:20Z</time>
      </trkpt>
      <trkpt lat="45.66297" lon="4.56338">
        <ele>734.3</ele>
        <time>2025-12-04T13:25:28Z</time>
      </trkpt>
      <trkpt lat="45.66306" lon="4.56356">
        <ele>733.5</ele>
        <time>2025-12-04T13:25:40Z</time>
      </trkpt>
      <trkpt lat="45.66316" lon="4.56381">
        <ele>732.8</ele>
        <time>2025-12-04T13:25:56Z</time>
      </trkpt>
      <trkpt lat="45.66318" lon="4.56387">
        <ele>732.9</ele>
        <time>2025-12-04T13:26:00Z</time>
      </trkpt>
      <trkpt lat="45.66322" lon="4.56402">
        <ele>732.5</ele>
        <time>2025-12-04T13:26:08Z</time>
      </trkpt>
      <trkpt lat="45.66325" lon="4.56407">
        <ele>732.8</ele>
        <time>2025-12-04T13:26:12Z</time>
      </trkpt>
      <trkpt lat="45.66336" lon="4.56445">
        <ele>732.6</ele>
        <time>2025-12-04T13:26:48Z</time>
      </trkpt>
      <trkpt lat="45.66352" lon="4.56502">
        <ele>731.8</ele>
        <time>2025-12-04T13:27:20Z</time>
      </trkpt>
      <trkpt lat="45.66371" lon="4.5656">
        <ele>730.7</ele>
        <time>2025-12-04T13:27:52Z</time>
      </trkpt>
      <trkpt lat="45.66384" lon="4.56583">
        <ele>731</ele>
        <time>2025-12-04T13:28:06Z</time>
      </trkpt>
      <trkpt lat="45.66392" lon="4.56605">
        <ele>730.2</ele>
        <time>2025-12-04T13:28:18Z</time>
      </trkpt>
      <trkpt lat="45.66403" lon="4.56636">
        <ele>730.2</ele>
        <time>2025-12-04T13:28:34Z</time>
      </trkpt>
      <trkpt lat="45.66413" lon="4.56691">
        <ele>730.1</ele>
        <time>2025-12-04T13:29:02Z</time>
      </trkpt>
      <trkpt lat="45.66409" lon="4.56731">
        <ele>730.3</ele>
        <time>2025-12-04T13:29:22Z</time>
      </trkpt>
      <trkpt lat="45.6641" lon="4.56738">
        <ele>730.9</ele>
        <time>2025-12-04T13:29:26Z</time>
      </trkpt>
      <trkpt lat="45.66411" lon="4.56753">
        <ele>732.1</ele>
        <time>2025-12-04T13:29:34Z</time>
      </trkpt>
      <trkpt lat="45.66419" lon="4.56811">
        <ele>734.4</ele>
        <time>2025-12-04T13:30:06Z</time>
      </trkpt>
      <trkpt lat="45.66423" lon="4.56855">
        <ele>735.3</ele>
        <time>2025-12-04T13:30:30Z</time>
      </trkpt>
      <trkpt lat="45.66432" lon="4.56914">
        <ele>737.3</ele>
        <time>2025-12-04T13:31:02Z</time>
      </trkpt>
      <trkpt lat="45.66441" lon="4.5694">
        <ele>737.8</ele>
        <time>2025-12-04T13:31:18Z</time>
      </trkpt>
      <trkpt lat="45.66459" lon="4.56975">
        <ele>735.2</ele>
        <time>2025-12-04T13:31:42Z</time>
      </trkpt>
      <trkpt lat="45.66476" lon="4.56989">
        <ele>734</ele>
        <time>2025-12-04T13:31:58Z</time>
      </trkpt>
      <trkpt lat="45.66487" lon="4.57014">
        <ele>733.8</ele>
        <time>2025-12-04T13:32:14Z</time>
      </trkpt>
      <trkpt lat="45.6649" lon="4.57028">
        <ele>734.3</ele>
        <time>2025-12-04T13:32:38Z</time>
      </trkpt>
      <trkpt lat="45.66495" lon="4.57032">
        <ele>735</ele>
        <time>2025-12-04T13:33:10Z</time>
      </trkpt>
      <trkpt lat="45.66498" lon="4.57052">
        <ele>734.8</ele>
        <time>2025-12-04T13:33:22Z</time>
      </trkpt>
      <trkpt lat="45.665" lon="4.57111">
        <ele>733.9</ele>
        <time>2025-12-04T13:33:54Z</time>
      </trkpt>
      <trkpt lat="45.66501" lon="4.57157">
        <ele>732.5</ele>
        <time>2025-12-04T13:34:18Z</time>
      </trkpt>
      <trkpt lat="45.66503" lon="4.57173">
        <ele>732.4</ele>
        <time>2025-12-04T13:34:26Z</time>
      </trkpt>
      <trkpt lat="45.66506" lon="4.57197">
        <ele>732.4</ele>
        <time>2025-12-04T13:34:38Z</time>
      </trkpt>
      <trkpt lat="45.66515" lon="4.57222">
        <ele>732.1</ele>
        <time>2025-12-04T13:34:54Z</time>
      </trkpt>
      <trkpt lat="45.66521" lon="4.57234">
        <ele>731.3</ele>
        <time>2025-12-04T13:35:02Z</time>
      </trkpt>
      <trkpt lat="45.66538" lon="4.57262">
        <ele>728.2</ele>
        <time>2025-12-04T13:35:26Z</time>
      </trkpt>
      <trkpt lat="45.66542" lon="4.57265">
        <ele>727.6</ele>
        <time>2025-12-04T13:35:30Z</time>
      </trkpt>
      <trkpt lat="45.66561" lon="4.57299">
        <ele>722</ele>
        <time>2025-12-04T13:35:58Z</time>
      </trkpt>
      <trkpt lat="45.66578" lon="4.57311">
        <ele>718.5</ele>
        <time>2025-12-04T13:36:32Z</time>
      </trkpt>
      <trkpt lat="45.66588" lon="4.57316">
        <ele>716.2</ele>
        <time>2025-12-04T13:36:44Z</time>
      </trkpt>
      <trkpt lat="45.66597" lon="4.5732">
        <ele>714.4</ele>
        <time>2025-12-04T13:36:54Z</time>
      </trkpt>
      <trkpt lat="45.66606" lon="4.57315">
        <ele>714.6</ele>
        <time>2025-12-04T13:37:14Z</time>
      </trkpt>
      <trkpt lat="45.66616" lon="4.57312">
        <ele>714.5</ele>
        <time>2025-12-04T13:37:34Z</time>
      </trkpt>
      <trkpt lat="45.66625" lon="4.57311">
        <ele>714.8</ele>
        <time>2025-12-04T13:37:56Z</time>
      </trkpt>
      <trkpt lat="45.66634" lon="4.57315">
        <ele>713.6</ele>
        <time>2025-12-04T13:38:06Z</time>
      </trkpt>
      <trkpt lat="45.66643" lon="4.57323">
        <ele>711.9</ele>
        <time>2025-12-04T13:38:16Z</time>
      </trkpt>
      <trkpt lat="45.66653" lon="4.57332">
        <ele>710</ele>
        <time>2025-12-04T13:38:26Z</time>
      </trkpt>
      <trkpt lat="45.66667" lon="4.57338">
        <ele>708.5</ele>
        <time>2025-12-04T13:38:38Z</time>
      </trkpt>
      <trkpt lat="45.66672" lon="4.57338">
        <ele>708.5</ele>
        <time>2025-12-04T13:38:42Z</time>
      </trkpt>
      <trkpt lat="45.6668" lon="4.57342">
        <ele>706.8</ele>
        <time>2025-12-04T13:38:50Z</time>
      </trkpt>
      <trkpt lat="45.66684" lon="4.57345">
        <ele>705.8</ele>
        <time>2025-12-04T13:38:54Z</time>
      </trkpt>
      <trkpt lat="45.66688" lon="4.57345">
        <ele>706</ele>
        <time>2025-12-04T13:39:00Z</time>
      </trkpt>
      <trkpt lat="45.66735" lon="4.57355">
        <ele>704.5</ele>
        <time>2025-12-04T13:39:36Z</time>
      </trkpt>
      <trkpt lat="45.66745" lon="4.5736">
        <ele>703.3</ele>
        <time>2025-12-04T13:39:44Z</time>
      </trkpt>
      <trkpt lat="45.66762" lon="4.57372">
        <ele>700.4</ele>
        <time>2025-12-04T13:40:00Z</time>
      </trkpt>
      <trkpt lat="45.6677" lon="4.57377">
        <ele>699.3</ele>
        <time>2025-12-04T13:40:08Z</time>
      </trkpt>
      <trkpt lat="45.66796" lon="4.57401">
        <ele>693.1</ele>
        <time>2025-12-04T13:40:32Z</time>
      </trkpt>
      <trkpt lat="45.66806" lon="4.574">
        <ele>693.8</ele>
        <time>2025-12-04T13:40:42Z</time>
      </trkpt>
      <trkpt lat="45.66811" lon="4.574">
        <ele>693.7</ele>
        <time>2025-12-04T13:40:46Z</time>
      </trkpt>
      <trkpt lat="45.66828" lon="4.57396">
        <ele>694.8</ele>
        <time>2025-12-04T13:41:02Z</time>
      </trkpt>
      <trkpt lat="45.66864" lon="4.57393">
        <ele>696.9</ele>
        <time>2025-12-04T13:41:34Z</time>
      </trkpt>
      <trkpt lat="45.66891" lon="4.57423">
        <ele>688.2</ele>
        <time>2025-12-04T13:42:06Z</time>
      </trkpt>
      <trkpt lat="45.66897" lon="4.57433">
        <ele>685.2</ele>
        <time>2025-12-04T13:42:18Z</time>
      </trkpt>
      <trkpt lat="45.66893" lon="4.57446">
        <ele>681.7</ele>
        <time>2025-12-04T13:42:30Z</time>
      </trkpt>
      <trkpt lat="45.66883" lon="4.57447">
        <ele>680.9</ele>
        <time>2025-12-04T13:42:40Z</time>
      </trkpt>
      <trkpt lat="45.66865" lon="4.57456">
        <ele>677.9</ele>
        <time>2025-12-04T13:43:04Z</time>
      </trkpt>
      <trkpt lat="45.66859" lon="4.57467">
        <ele>674.5</ele>
        <time>2025-12-04T13:43:16Z</time>
      </trkpt>
      <trkpt lat="45.66856" lon="4.57471">
        <ele>673.1</ele>
        <time>2025-12-04T13:43:42Z</time>
      </trkpt>
      <trkpt lat="45.66853" lon="4.57468">
        <ele>673.9</ele>
        <time>2025-12-04T13:44:04Z</time>
      </trkpt>
      <trkpt lat="45.66843" lon="4.57469">
        <ele>673.3</ele>
        <time>2025-12-04T13:44:16Z</time>
      </trkpt>
      <trkpt lat="45.66839" lon="4.5747">
        <ele>672.7</ele>
        <time>2025-12-04T13:44:20Z</time>
      </trkpt>
      <trkpt lat="45.66838" lon="4.57475">
        <ele>671.4</ele>
        <time>2025-12-04T13:44:24Z</time>
      </trkpt>
      <trkpt lat="45.66831" lon="4.57482">
        <ele>669.7</ele>
        <time>2025-12-04T13:44:34Z</time>
      </trkpt>
      <trkpt lat="45.66827" lon="4.57486">
        <ele>668.6</ele>
        <time>2025-12-04T13:44:38Z</time>
      </trkpt>
      <trkpt lat="45.66806" lon="4.57515">
        <ele>660.7</ele>
        <time>2025-12-04T13:45:08Z</time>
      </trkpt>
      <trkpt lat="45.66784" lon="4.57542">
        <ele>653.9</ele>
        <time>2025-12-04T13:45:42Z</time>
      </trkpt>
      <trkpt lat="45.66775" lon="4.5755">
        <ele>651.9</ele>
        <time>2025-12-04T13:45:52Z</time>
      </trkpt>
      <trkpt lat="45.66756" lon="4.5756">
        <ele>647.7</ele>
        <time>2025-12-04T13:46:10Z</time>
      </trkpt>
      <trkpt lat="45.66728" lon="4.5757">
        <ele>642.1</ele>
        <time>2025-12-04T13:46:34Z</time>
      </trkpt>
      <trkpt lat="45.66718" lon="4.57575">
        <ele>640.1</ele>
        <time>2025-12-04T13:46:42Z</time>
      </trkpt>
      <trkpt lat="45.6671" lon="4.57578">
        <ele>639.3</ele>
        <time>2025-12-04T13:46:48Z</time>
      </trkpt>
      <trkpt lat="45.66695" lon="4.57588">
        <ele>637.2</ele>
        <time>2025-12-04T13:47:00Z</time>
      </trkpt>
      <trkpt lat="45.6669" lon="4.5759">
        <ele>637.7</ele>
        <time>2025-12-04T13:47:04Z</time>
      </trkpt>
      <trkpt lat="45.66684" lon="4.57602">
        <ele>637.6</ele>
        <time>2025-12-04T13:47:12Z</time>
      </trkpt>
      <trkpt lat="45.6667" lon="4.57663">
        <ele>637.6</ele>
        <time>2025-12-04T13:47:44Z</time>
      </trkpt>
      <trkpt lat="45.66666" lon="4.57677">
        <ele>636.8</ele>
        <time>2025-12-04T13:47:52Z</time>
      </trkpt>
      <trkpt lat="45.66654" lon="4.5771">
        <ele>633.5</ele>
        <time>2025-12-04T13:48:12Z</time>
      </trkpt>
      <trkpt lat="45.6665" lon="4.57716">
        <ele>632.7</ele>
        <time>2025-12-04T13:48:16Z</time>
      </trkpt>
      <trkpt lat="45.66647" lon="4.57722">
        <ele>632.2</ele>
        <time>2025-12-04T13:48:20Z</time>
      </trkpt>
      <trkpt lat="45.66643" lon="4.57728">
        <ele>632.3</ele>
        <time>2025-12-04T13:48:24Z</time>
      </trkpt>
      <trkpt lat="45.66628" lon="4.57749">
        <ele>632.9</ele>
        <time>2025-12-04T13:48:40Z</time>
      </trkpt>
      <trkpt lat="45.66625" lon="4.57763">
        <ele>632.7</ele>
        <time>2025-12-04T13:49:26Z</time>
      </trkpt>
      <trkpt lat="45.6662" lon="4.57812">
        <ele>631.4</ele>
        <time>2025-12-04T13:49:54Z</time>
      </trkpt>
      <trkpt lat="45.6662" lon="4.57819">
        <ele>631.3</ele>
        <time>2025-12-04T13:49:58Z</time>
      </trkpt>
      <trkpt lat="45.66617" lon="4.57833">
        <ele>631.1</ele>
        <time>2025-12-04T13:50:06Z</time>
      </trkpt>
      <trkpt lat="45.66617" lon="4.57853">
        <ele>630.9</ele>
        <time>2025-12-04T13:50:18Z</time>
      </trkpt>
      <trkpt lat="45.66617" lon="4.57866">
        <ele>630.8</ele>
        <time>2025-12-04T13:50:26Z</time>
      </trkpt>
      <trkpt lat="45.66618" lon="4.57871">
        <ele>630.7</ele>
        <time>2025-12-04T13:50:30Z</time>
      </trkpt>
      <trkpt lat="45.66625" lon="4.57877">
        <ele>630.5</ele>
        <time>2025-12-04T13:50:50Z</time>
      </trkpt>
      <trkpt lat="45.66628" lon="4.5788">
        <ele>630.4</ele>
        <time>2025-12-04T13:50:54Z</time>
      </trkpt>
      <trkpt lat="45.6663" lon="4.57885">
        <ele>630.3</ele>
        <time>2025-12-04T13:50:58Z</time>
      </trkpt>
      <trkpt lat="45.66632" lon="4.57885">
        <ele>630.3</ele>
        <time>2025-12-04T13:51:16Z</time>
      </trkpt>
      <trkpt lat="45.66635" lon="4.57887">
        <ele>630.1</ele>
        <time>2025-12-04T13:51:36Z</time>
      </trkpt>
      <trkpt lat="45.66641" lon="4.57896">
        <ele>629.8</ele>
        <time>2025-12-04T13:51:44Z</time>
      </trkpt>
      <trkpt lat="45.66639" lon="4.57911">
        <ele>630</ele>
        <time>2025-12-04T13:51:52Z</time>
      </trkpt>
      <trkpt lat="45.66638" lon="4.57917">
        <ele>630</ele>
        <time>2025-12-04T13:51:56Z</time>
      </trkpt>
      <trkpt lat="45.66624" lon="4.57937">
        <ele>628.5</ele>
        <time>2025-12-04T13:52:12Z</time>
      </trkpt>
      <trkpt lat="45.6662" lon="4.57942">
        <ele>628.7</ele>
        <time>2025-12-04T13:52:16Z</time>
      </trkpt>
      <trkpt lat="45.66587" lon="4.57972">
        <ele>628.4</ele>
        <time>2025-12-04T13:52:48Z</time>
      </trkpt>
      <trkpt lat="45.66579" lon="4.57984">
        <ele>626.8</ele>
        <time>2025-12-04T13:53:00Z</time>
      </trkpt>
      <trkpt lat="45.66571" lon="4.58014">
        <ele>622.3</ele>
        <time>2025-12-04T13:53:20Z</time>
      </trkpt>
      <trkpt lat="45.66554" lon="4.5806">
        <ele>616.5</ele>
        <time>2025-12-04T13:53:52Z</time>
      </trkpt>
      <trkpt lat="45.66555" lon="4.58067">
        <ele>615.2</ele>
        <time>2025-12-04T13:53:56Z</time>
      </trkpt>
      <trkpt lat="45.66548" lon="4.58085">
        <ele>613.1</ele>
        <time>2025-12-04T13:54:08Z</time>
      </trkpt>
      <trkpt lat="45.66546" lon="4.5809">
        <ele>612.5</ele>
        <time>2025-12-04T13:54:12Z</time>
      </trkpt>
      <trkpt lat="45.66536" lon="4.5812">
        <ele>608.9</ele>
        <time>2025-12-04T13:54:32Z</time>
      </trkpt>
      <trkpt lat="45.66534" lon="4.58125">
        <ele>608.1</ele>
        <time>2025-12-04T13:54:36Z</time>
      </trkpt>
      <trkpt lat="45.66535" lon="4.58131">
        <ele>606.9</ele>
        <time>2025-12-04T13:54:40Z</time>
      </trkpt>
      <trkpt lat="45.66539" lon="4.58132">
        <ele>606.2</ele>
        <time>2025-12-04T13:54:44Z</time>
      </trkpt>
      <trkpt lat="45.66543" lon="4.58131">
        <ele>605.8</ele>
        <time>2025-12-04T13:54:48Z</time>
      </trkpt>
      <trkpt lat="45.66551" lon="4.58135">
        <ele>604.1</ele>
        <time>2025-12-04T13:54:56Z</time>
      </trkpt>
      <trkpt lat="45.66553" lon="4.58142">
        <ele>603.1</ele>
        <time>2025-12-04T13:55:00Z</time>
      </trkpt>
      <trkpt lat="45.66554" lon="4.58147">
        <ele>602.5</ele>
        <time>2025-12-04T13:55:04Z</time>
      </trkpt>
      <trkpt lat="45.66552" lon="4.58151">
        <ele>602.4</ele>
        <time>2025-12-04T13:55:10Z</time>
      </trkpt>
      <trkpt lat="45.66553" lon="4.58157">
        <ele>601.8</ele>
        <time>2025-12-04T13:55:14Z</time>
      </trkpt>
      <trkpt lat="45.66554" lon="4.58162">
        <ele>601.4</ele>
        <time>2025-12-04T13:55:18Z</time>
      </trkpt>
      <trkpt lat="45.66557" lon="4.58168">
        <ele>600.4</ele>
        <time>2025-12-04T13:55:24Z</time>
      </trkpt>
      <trkpt lat="45.66558" lon="4.58174">
        <ele>599.6</ele>
        <time>2025-12-04T13:55:28Z</time>
      </trkpt>
      <trkpt lat="45.66558" lon="4.5819">
        <ele>597.9</ele>
        <time>2025-12-04T13:55:40Z</time>
      </trkpt>
      <trkpt lat="45.66554" lon="4.582">
        <ele>597</ele>
        <time>2025-12-04T13:55:48Z</time>
      </trkpt>
      <trkpt lat="45.66551" lon="4.58206">
        <ele>596</ele>
        <time>2025-12-04T13:55:52Z</time>
      </trkpt>
      <trkpt lat="45.66547" lon="4.58209">
        <ele>595.2</ele>
        <time>2025-12-04T13:55:56Z</time>
      </trkpt>
      <trkpt lat="45.66543" lon="4.58212">
        <ele>594.2</ele>
        <time>2025-12-04T13:56:00Z</time>
      </trkpt>
      <trkpt lat="45.66542" lon="4.58207">
        <ele>595</ele>
        <time>2025-12-04T13:56:04Z</time>
      </trkpt>
      <trkpt lat="45.66535" lon="4.58208">
        <ele>594.2</ele>
        <time>2025-12-04T13:56:12Z</time>
      </trkpt>
      <trkpt lat="45.66525" lon="4.58204">
        <ele>594.1</ele>
        <time>2025-12-04T13:56:20Z</time>
      </trkpt>
      <trkpt lat="45.66521" lon="4.58202">
        <ele>594.4</ele>
        <time>2025-12-04T13:56:24Z</time>
      </trkpt>
      <trkpt lat="45.66507" lon="4.58199">
        <ele>594.1</ele>
        <time>2025-12-04T13:56:36Z</time>
      </trkpt>
      <trkpt lat="45.66503" lon="4.58201">
        <ele>593.5</ele>
        <time>2025-12-04T13:56:40Z</time>
      </trkpt>
      <trkpt lat="45.66499" lon="4.58202">
        <ele>593.3</ele>
        <time>2025-12-04T13:56:44Z</time>
      </trkpt>
      <trkpt lat="45.6649" lon="4.58208">
        <ele>593.5</ele>
        <time>2025-12-04T13:56:52Z</time>
      </trkpt>
      <trkpt lat="45.6646" lon="4.58252">
        <ele>588.5</ele>
        <time>2025-12-04T13:57:28Z</time>
      </trkpt>
      <trkpt lat="45.66452" lon="4.58262">
        <ele>587</ele>
        <time>2025-12-04T13:57:36Z</time>
      </trkpt>
      <trkpt lat="45.66427" lon="4.58278">
        <ele>585</ele>
        <time>2025-12-04T13:57:58Z</time>
      </trkpt>
      <trkpt lat="45.6641" lon="4.58312">
        <ele>578</ele>
        <time>2025-12-04T13:58:22Z</time>
      </trkpt>
      <trkpt lat="45.66404" lon="4.58369">
        <ele>568</ele>
        <time>2025-12-04T13:58:58Z</time>
      </trkpt>
      <trkpt lat="45.66402" lon="4.58383">
        <ele>565.9</ele>
        <time>2025-12-04T13:59:10Z</time>
      </trkpt>
      <trkpt lat="45.66398" lon="4.58411">
        <ele>560.9</ele>
        <time>2025-12-04T13:59:30Z</time>
      </trkpt>
      <trkpt lat="45.66389" lon="4.58439">
        <ele>558.4</ele>
        <time>2025-12-04T13:59:50Z</time>
      </trkpt>
      <trkpt lat="45.66381" lon="4.5848">
        <ele>554.6</ele>
        <time>2025-12-04T14:00:16Z</time>
      </trkpt>
      <trkpt lat="45.66386" lon="4.58521">
        <ele>545</ele>
        <time>2025-12-04T14:00:44Z</time>
      </trkpt>
      <trkpt lat="45.66385" lon="4.58536">
        <ele>542.3</ele>
        <time>2025-12-04T14:00:56Z</time>
      </trkpt>
      <trkpt lat="45.66377" lon="4.58576">
        <ele>536</ele>
        <time>2025-12-04T14:01:30Z</time>
      </trkpt>
      <trkpt lat="45.66374" lon="4.58589">
        <ele>533.9</ele>
        <time>2025-12-04T14:01:42Z</time>
      </trkpt>
      <trkpt lat="45.66374" lon="4.58603">
        <ele>530</ele>
        <time>2025-12-04T14:01:52Z</time>
      </trkpt>
      <trkpt lat="45.66375" lon="4.58618">
        <ele>525.8</ele>
        <time>2025-12-04T14:02:08Z</time>
      </trkpt>
      <trkpt lat="45.66373" lon="4.58632">
        <ele>523.3</ele>
        <time>2025-12-04T14:02:20Z</time>
      </trkpt>
      <trkpt lat="45.66372" lon="4.58645">
        <ele>520.4</ele>
        <time>2025-12-04T14:02:32Z</time>
      </trkpt>
      <trkpt lat="45.66372" lon="4.58673">
        <ele>514.8</ele>
        <time>2025-12-04T14:03:00Z</time>
      </trkpt>
      <trkpt lat="45.66377" lon="4.58685">
        <ele>512.5</ele>
        <time>2025-12-04T14:03:16Z</time>
      </trkpt>
      <trkpt lat="45.66378" lon="4.58698">
        <ele>510.8</ele>
        <time>2025-12-04T14:03:36Z</time>
      </trkpt>
      <trkpt lat="45.66373" lon="4.5871">
        <ele>510</ele>
        <time>2025-12-04T14:03:48Z</time>
      </trkpt>
      <trkpt lat="45.66372" lon="4.58724">
        <ele>508.5</ele>
        <time>2025-12-04T14:04:00Z</time>
      </trkpt>
      <trkpt lat="45.66365" lon="4.58733">
        <ele>507.7</ele>
        <time>2025-12-04T14:04:10Z</time>
      </trkpt>
      <trkpt lat="45.66355" lon="4.58737">
        <ele>507.4</ele>
        <time>2025-12-04T14:04:20Z</time>
      </trkpt>
      <trkpt lat="45.66346" lon="4.58739">
        <ele>507.2</ele>
        <time>2025-12-04T14:04:28Z</time>
      </trkpt>
      <trkpt lat="45.66339" lon="4.58731">
        <ele>508.1</ele>
        <time>2025-12-04T14:04:38Z</time>
      </trkpt>
      <trkpt lat="45.66331" lon="4.58723">
        <ele>508.9</ele>
        <time>2025-12-04T14:04:48Z</time>
      </trkpt>
      <trkpt lat="45.66308" lon="4.58694">
        <ele>514.2</ele>
        <time>2025-12-04T14:05:18Z</time>
      </trkpt>
      <trkpt lat="45.66296" lon="4.58691">
        <ele>514.7</ele>
        <time>2025-12-04T14:05:28Z</time>
      </trkpt>
      <trkpt lat="45.66277" lon="4.58679">
        <ele>516.8</ele>
        <time>2025-12-04T14:05:48Z</time>
      </trkpt>
      <trkpt lat="45.66268" lon="4.5867">
        <ele>518.3</ele>
        <time>2025-12-04T14:05:58Z</time>
      </trkpt>
      <trkpt lat="45.66261" lon="4.58662">
        <ele>519.6</ele>
        <time>2025-12-04T14:06:08Z</time>
      </trkpt>
      <trkpt lat="45.66254" lon="4.58652">
        <ele>521.3</ele>
        <time>2025-12-04T14:06:28Z</time>
      </trkpt>
      <trkpt lat="45.66221" lon="4.58621">
        <ele>524.7</ele>
        <time>2025-12-04T14:07:04Z</time>
      </trkpt>
      <trkpt lat="45.66192" lon="4.5861">
        <ele>526.1</ele>
        <time>2025-12-04T14:07:44Z</time>
      </trkpt>
      <trkpt lat="45.66171" lon="4.58611">
        <ele>525.3</ele>
        <time>2025-12-04T14:08:04Z</time>
      </trkpt>
      <trkpt lat="45.66142" lon="4.58607">
        <ele>526.8</ele>
        <time>2025-12-04T14:08:30Z</time>
      </trkpt>
      <trkpt lat="45.66133" lon="4.586">
        <ele>528.4</ele>
        <time>2025-12-04T14:08:40Z</time>
      </trkpt>
      <trkpt lat="45.66124" lon="4.58574">
        <ele>531.8</ele>
        <time>2025-12-04T14:08:56Z</time>
      </trkpt>
      <trkpt lat="45.66127" lon="4.58587">
        <ele>530.6</ele>
        <time>2025-12-04T14:09:38Z</time>
      </trkpt>
      <trkpt lat="45.66124" lon="4.58601">
        <ele>528.5</ele>
        <time>2025-12-04T14:10:04Z</time>
      </trkpt>
      <trkpt lat="45.66125" lon="4.58614">
        <ele>526.7</ele>
        <time>2025-12-04T14:10:16Z</time>
      </trkpt>
      <trkpt lat="45.66117" lon="4.58621">
        <ele>526.7</ele>
        <time>2025-12-04T14:10:46Z</time>
      </trkpt>
      <trkpt lat="45.6611" lon="4.58631">
        <ele>526.9</ele>
        <time>2025-12-04T14:11:20Z</time>
      </trkpt>
      <trkpt lat="45.66103" lon="4.58642">
        <ele>528.2</ele>
        <time>2025-12-04T14:11:34Z</time>
      </trkpt>
      <trkpt lat="45.66107" lon="4.58655">
        <ele>526.5</ele>
        <time>2025-12-04T14:12:06Z</time>
      </trkpt>
      <trkpt lat="45.66108" lon="4.58668">
        <ele>525.9</ele>
        <time>2025-12-04T14:12:18Z</time>
      </trkpt>
      <trkpt lat="45.66118" lon="4.58672">
        <ele>524.8</ele>
        <time>2025-12-04T14:12:30Z</time>
      </trkpt>
      <trkpt lat="45.66112" lon="4.58686">
        <ele>528.2</ele>
        <time>2025-12-04T14:12:56Z</time>
      </trkpt>
      <trkpt lat="45.66102" lon="4.58692">
        <ele>529.8</ele>
        <time>2025-12-04T14:13:06Z</time>
      </trkpt>
      <trkpt lat="45.66093" lon="4.58701">
        <ele>530.9</ele>
        <time>2025-12-04T14:13:20Z</time>
      </trkpt>
      <trkpt lat="45.66077" lon="4.58721">
        <ele>532.7</ele>
        <time>2025-12-04T14:13:42Z</time>
      </trkpt>
      <trkpt lat="45.66068" lon="4.58729">
        <ele>533.3</ele>
        <time>2025-12-04T14:13:54Z</time>
      </trkpt>
      <trkpt lat="45.6607" lon="4.58732">
        <ele>533.7</ele>
        <time>2025-12-04T14:14:16Z</time>
      </trkpt>
      <trkpt lat="45.6608" lon="4.58734">
        <ele>534.9</ele>
        <time>2025-12-04T14:14:26Z</time>
      </trkpt>
      <trkpt lat="45.66099" lon="4.58727">
        <ele>535.8</ele>
        <time>2025-12-04T14:14:48Z</time>
      </trkpt>
      <trkpt lat="45.66109" lon="4.58723">
        <ele>536.1</ele>
        <time>2025-12-04T14:15:02Z</time>
      </trkpt>
      <trkpt lat="45.66118" lon="4.58725">
        <ele>536.4</ele>
        <time>2025-12-04T14:15:12Z</time>
      </trkpt>
      <trkpt lat="45.66134" lon="4.58745">
        <ele>542.4</ele>
        <time>2025-12-04T14:15:36Z</time>
      </trkpt>
      <trkpt lat="45.66143" lon="4.58754">
        <ele>545.1</ele>
        <time>2025-12-04T14:15:52Z</time>
      </trkpt>
      <trkpt lat="45.66152" lon="4.58761">
        <ele>546.6</ele>
        <time>2025-12-04T14:16:04Z</time>
      </trkpt>
      <trkpt lat="45.66157" lon="4.58772">
        <ele>549.9</ele>
        <time>2025-12-04T14:16:16Z</time>
      </trkpt>
      <trkpt lat="45.66175" lon="4.58807">
        <ele>557.6</ele>
        <time>2025-12-04T14:16:56Z</time>
      </trkpt>
      <trkpt lat="45.66182" lon="4.58818">
        <ele>558.5</ele>
        <time>2025-12-04T14:17:10Z</time>
      </trkpt>
      <trkpt lat="45.66184" lon="4.58828">
        <ele>560.3</ele>
        <time>2025-12-04T14:17:32Z</time>
      </trkpt>
      <trkpt lat="45.66187" lon="4.58833">
        <ele>560.9</ele>
        <time>2025-12-04T14:17:46Z</time>
      </trkpt>
      <trkpt lat="45.66189" lon="4.5884">
        <ele>561.2</ele>
        <time>2025-12-04T14:17:50Z</time>
      </trkpt>
      <trkpt lat="45.66195" lon="4.58847">
        <ele>560.1</ele>
        <time>2025-12-04T14:17:58Z</time>
      </trkpt>
      <trkpt lat="45.66197" lon="4.58852">
        <ele>559.9</ele>
        <time>2025-12-04T14:18:02Z</time>
      </trkpt>
      <trkpt lat="45.66195" lon="4.58859">
        <ele>561.5</ele>
        <time>2025-12-04T14:18:06Z</time>
      </trkpt>
      <trkpt lat="45.66202" lon="4.58867">
        <ele>558.6</ele>
        <time>2025-12-04T14:18:16Z</time>
      </trkpt>
      <trkpt lat="45.66201" lon="4.58873">
        <ele>558.8</ele>
        <time>2025-12-04T14:18:20Z</time>
      </trkpt>
      <trkpt lat="45.66193" lon="4.58888">
        <ele>562.9</ele>
        <time>2025-12-04T14:18:32Z</time>
      </trkpt>
      <trkpt lat="45.66189" lon="4.589">
        <ele>563.7</ele>
        <time>2025-12-04T14:18:42Z</time>
      </trkpt>
      <trkpt lat="45.66186" lon="4.58913">
        <ele>564.1</ele>
        <time>2025-12-04T14:18:50Z</time>
      </trkpt>
      <trkpt lat="45.66175" lon="4.58938">
        <ele>566.4</ele>
        <time>2025-12-04T14:19:12Z</time>
      </trkpt>
      <trkpt lat="45.66167" lon="4.58979">
        <ele>562.7</ele>
        <time>2025-12-04T14:19:40Z</time>
      </trkpt>
      <trkpt lat="45.66165" lon="4.58992">
        <ele>561.2</ele>
        <time>2025-12-04T14:19:48Z</time>
      </trkpt>
      <trkpt lat="45.66163" lon="4.59007">
        <ele>560.4</ele>
        <time>2025-12-04T14:19:58Z</time>
      </trkpt>
      <trkpt lat="45.66158" lon="4.59018">
        <ele>561.3</ele>
        <time>2025-12-04T14:20:06Z</time>
      </trkpt>
      <trkpt lat="45.66147" lon="4.59043">
        <ele>564.1</ele>
        <time>2025-12-04T14:20:28Z</time>
      </trkpt>
      <trkpt lat="45.66141" lon="4.59047">
        <ele>566.3</ele>
        <time>2025-12-04T14:20:40Z</time>
      </trkpt>
      <trkpt lat="45.66141" lon="4.59052">
        <ele>565.8</ele>
        <time>2025-12-04T14:20:52Z</time>
      </trkpt>
      <trkpt lat="45.66143" lon="4.59067">
        <ele>565.4</ele>
        <time>2025-12-04T14:21:02Z</time>
      </trkpt>
      <trkpt lat="45.66144" lon="4.59075">
        <ele>565.7</ele>
        <time>2025-12-04T14:21:06Z</time>
      </trkpt>
      <trkpt lat="45.66151" lon="4.59085">
        <ele>565.6</ele>
        <time>2025-12-04T14:21:14Z</time>
      </trkpt>
      <trkpt lat="45.66159" lon="4.59087">
        <ele>565.1</ele>
        <time>2025-12-04T14:21:22Z</time>
      </trkpt>
      <trkpt lat="45.66163" lon="4.59084">
        <ele>563.9</ele>
        <time>2025-12-04T14:21:28Z</time>
      </trkpt>
      <trkpt lat="45.66201" lon="4.59093">
        <ele>565.2</ele>
        <time>2025-12-04T14:22:00Z</time>
      </trkpt>
      <trkpt lat="45.6621" lon="4.59096">
        <ele>565.6</ele>
        <time>2025-12-04T14:22:08Z</time>
      </trkpt>
      <trkpt lat="45.66219" lon="4.59101">
        <ele>566.2</ele>
        <time>2025-12-04T14:22:18Z</time>
      </trkpt>
      <trkpt lat="45.66238" lon="4.59105">
        <ele>566.8</ele>
        <time>2025-12-04T14:22:34Z</time>
      </trkpt>
      <trkpt lat="45.66264" lon="4.59117">
        <ele>569.3</ele>
        <time>2025-12-04T14:22:56Z</time>
      </trkpt>
      <trkpt lat="45.66274" lon="4.59122">
        <ele>570.1</ele>
        <time>2025-12-04T14:23:06Z</time>
      </trkpt>
      <trkpt lat="45.66283" lon="4.59129">
        <ele>571</ele>
        <time>2025-12-04T14:23:18Z</time>
      </trkpt>
      <trkpt lat="45.66284" lon="4.59142">
        <ele>572.2</ele>
        <time>2025-12-04T14:23:28Z</time>
      </trkpt>
      <trkpt lat="45.66287" lon="4.59148">
        <ele>572.3</ele>
        <time>2025-12-04T14:23:32Z</time>
      </trkpt>
      <trkpt lat="45.66285" lon="4.59155">
        <ele>572.7</ele>
        <time>2025-12-04T14:23:36Z</time>
      </trkpt>
      <trkpt lat="45.66282" lon="4.59161">
        <ele>573.2</ele>
        <time>2025-12-04T14:23:40Z</time>
      </trkpt>
      <trkpt lat="45.6628" lon="4.59165">
        <ele>573.6</ele>
        <time>2025-12-04T14:23:44Z</time>
      </trkpt>
      <trkpt lat="45.66275" lon="4.59176">
        <ele>574.7</ele>
        <time>2025-12-04T14:23:54Z</time>
      </trkpt>
      <trkpt lat="45.66275" lon="4.59184">
        <ele>575</ele>
        <time>2025-12-04T14:24:04Z</time>
      </trkpt>
      <trkpt lat="45.66267" lon="4.59215">
        <ele>578</ele>
        <time>2025-12-04T14:24:24Z</time>
      </trkpt>
      <trkpt lat="45.66267" lon="4.59222">
        <ele>578.3</ele>
        <time>2025-12-04T14:24:28Z</time>
      </trkpt>
      <trkpt lat="45.66268" lon="4.59229">
        <ele>578.9</ele>
        <time>2025-12-04T14:24:34Z</time>
      </trkpt>
      <trkpt lat="45.66262" lon="4.59242">
        <ele>581.5</ele>
        <time>2025-12-04T14:24:44Z</time>
      </trkpt>
      <trkpt lat="45.66259" lon="4.59255">
        <ele>583.9</ele>
        <time>2025-12-04T14:24:56Z</time>
      </trkpt>
      <trkpt lat="45.66269" lon="4.59255">
        <ele>581.7</ele>
        <time>2025-12-04T14:25:08Z</time>
      </trkpt>
      <trkpt lat="45.66278" lon="4.59255">
        <ele>579.7</ele>
        <time>2025-12-04T14:25:20Z</time>
      </trkpt>
      <trkpt lat="45.66287" lon="4.59259">
        <ele>579</ele>
        <time>2025-12-04T14:26:00Z</time>
      </trkpt>
      <trkpt lat="45.66295" lon="4.59263">
        <ele>578.5</ele>
        <time>2025-12-04T14:26:10Z</time>
      </trkpt>
      <trkpt lat="45.66315" lon="4.59269">
        <ele>575.4</ele>
        <time>2025-12-04T14:26:30Z</time>
      </trkpt>
      <trkpt lat="45.66335" lon="4.59284">
        <ele>572.9</ele>
        <time>2025-12-04T14:26:50Z</time>
      </trkpt>
      <trkpt lat="45.66342" lon="4.59293">
        <ele>572.1</ele>
        <time>2025-12-04T14:26:58Z</time>
      </trkpt>
      <trkpt lat="45.66349" lon="4.59302">
        <ele>571.7</ele>
        <time>2025-12-04T14:27:06Z</time>
      </trkpt>
      <trkpt lat="45.66359" lon="4.59308">
        <ele>568.9</ele>
        <time>2025-12-04T14:27:16Z</time>
      </trkpt>
      <trkpt lat="45.6638" lon="4.59341">
        <ele>568.8</ele>
        <time>2025-12-04T14:27:46Z</time>
      </trkpt>
      <trkpt lat="45.66393" lon="4.59361">
        <ele>568.8</ele>
        <time>2025-12-04T14:28:04Z</time>
      </trkpt>
      <trkpt lat="45.66404" lon="4.59367">
        <ele>567.3</ele>
        <time>2025-12-04T14:28:14Z</time>
      </trkpt>
      <trkpt lat="45.66413" lon="4.59374">
        <ele>565.9</ele>
        <time>2025-12-04T14:28:24Z</time>
      </trkpt>
      <trkpt lat="45.66421" lon="4.59382">
        <ele>565</ele>
        <time>2025-12-04T14:28:36Z</time>
      </trkpt>
      <trkpt lat="45.66426" lon="4.59394">
        <ele>565.2</ele>
        <time>2025-12-04T14:29:14Z</time>
      </trkpt>
      <trkpt lat="45.66434" lon="4.59402">
        <ele>564.4</ele>
        <time>2025-12-04T14:29:22Z</time>
      </trkpt>
      <trkpt lat="45.66464" lon="4.59406">
        <ele>557</ele>
        <time>2025-12-04T14:29:50Z</time>
      </trkpt>
      <trkpt lat="45.66473" lon="4.59406">
        <ele>554.5</ele>
        <time>2025-12-04T14:30:00Z</time>
      </trkpt>
      <trkpt lat="45.66492" lon="4.59408">
        <ele>549.5</ele>
        <time>2025-12-04T14:30:20Z</time>
      </trkpt>
      <trkpt lat="45.66499" lon="4.59417">
        <ele>548.3</ele>
        <time>2025-12-04T14:30:38Z</time>
      </trkpt>
      <trkpt lat="45.66517" lon="4.59427">
        <ele>545.1</ele>
        <time>2025-12-04T14:31:00Z</time>
      </trkpt>
      <trkpt lat="45.66529" lon="4.5945">
        <ele>544.3</ele>
        <time>2025-12-04T14:31:18Z</time>
      </trkpt>
      <trkpt lat="45.66539" lon="4.59473">
        <ele>544.7</ele>
        <time>2025-12-04T14:31:34Z</time>
      </trkpt>
      <trkpt lat="45.66558" lon="4.59485">
        <ele>543.3</ele>
        <time>2025-12-04T14:31:52Z</time>
      </trkpt>
      <trkpt lat="45.66568" lon="4.59488">
        <ele>542.2</ele>
        <time>2025-12-04T14:32:02Z</time>
      </trkpt>
      <trkpt lat="45.66584" lon="4.59505">
        <ele>544.4</ele>
        <time>2025-12-04T14:32:20Z</time>
      </trkpt>
      <trkpt lat="45.66593" lon="4.59513">
        <ele>544.5</ele>
        <time>2025-12-04T14:32:28Z</time>
      </trkpt>
      <trkpt lat="45.66619" lon="4.59538">
        <ele>544.7</ele>
        <time>2025-12-04T14:32:52Z</time>
      </trkpt>
      <trkpt lat="45.66634" lon="4.59572">
        <ele>549.2</ele>
        <time>2025-12-04T14:33:16Z</time>
      </trkpt>
      <trkpt lat="45.66658" lon="4.59594">
        <ele>548.2</ele>
        <time>2025-12-04T14:33:42Z</time>
      </trkpt>
      <trkpt lat="45.66665" lon="4.59603">
        <ele>548.9</ele>
        <time>2025-12-04T14:33:50Z</time>
      </trkpt>
      <trkpt lat="45.66674" lon="4.59611">
        <ele>548.6</ele>
        <time>2025-12-04T14:34:00Z</time>
      </trkpt>
      <trkpt lat="45.66679" lon="4.59623">
        <ele>549.2</ele>
        <time>2025-12-04T14:34:16Z</time>
      </trkpt>
      <trkpt lat="45.66689" lon="4.59624">
        <ele>546.3</ele>
        <time>2025-12-04T14:34:28Z</time>
      </trkpt>
      <trkpt lat="45.66704" lon="4.5964">
        <ele>544</ele>
        <time>2025-12-04T14:34:48Z</time>
      </trkpt>
      <trkpt lat="45.6672" lon="4.59658">
        <ele>540.9</ele>
        <time>2025-12-04T14:35:08Z</time>
      </trkpt>
      <trkpt lat="45.66728" lon="4.59667">
        <ele>539.2</ele>
        <time>2025-12-04T14:35:18Z</time>
      </trkpt>
      <trkpt lat="45.66738" lon="4.59671">
        <ele>536</ele>
        <time>2025-12-04T14:35:28Z</time>
      </trkpt>
      <trkpt lat="45.66746" lon="4.5968">
        <ele>533.7</ele>
        <time>2025-12-04T14:35:38Z</time>
      </trkpt>
      <trkpt lat="45.66741" lon="4.59696">
        <ele>535.6</ele>
        <time>2025-12-04T14:35:52Z</time>
      </trkpt>
      <trkpt lat="45.6674" lon="4.59702">
        <ele>535.3</ele>
        <time>2025-12-04T14:35:56Z</time>
      </trkpt>
      <trkpt lat="45.6674" lon="4.59705">
        <ele>535.1</ele>
        <time>2025-12-04T14:36:06Z</time>
      </trkpt>
      <trkpt lat="45.66738" lon="4.5971">
        <ele>535.2</ele>
        <time>2025-12-04T14:36:24Z</time>
      </trkpt>
      <trkpt lat="45.66736" lon="4.59715">
        <ele>535.5</ele>
        <time>2025-12-04T14:36:28Z</time>
      </trkpt>
      <trkpt lat="45.66733" lon="4.59719">
        <ele>536.3</ele>
        <time>2025-12-04T14:36:34Z</time>
      </trkpt>
      <trkpt lat="45.66731" lon="4.59724">
        <ele>536.3</ele>
        <time>2025-12-04T14:36:38Z</time>
      </trkpt>
      <trkpt lat="45.6673" lon="4.59729">
        <ele>535.6</ele>
        <time>2025-12-04T14:36:42Z</time>
      </trkpt>
      <trkpt lat="45.66722" lon="4.59737">
        <ele>537.1</ele>
        <time>2025-12-04T14:37:20Z</time>
      </trkpt>
      <trkpt lat="45.66716" lon="4.59754">
        <ele>536.5</ele>
        <time>2025-12-04T14:37:32Z</time>
      </trkpt>
      <trkpt lat="45.6671" lon="4.59765">
        <ele>536.7</ele>
        <time>2025-12-04T14:37:40Z</time>
      </trkpt>
      <trkpt lat="45.66706" lon="4.5977">
        <ele>537</ele>
        <time>2025-12-04T14:37:44Z</time>
      </trkpt>
      <trkpt lat="45.66685" lon="4.59802">
        <ele>539.4</ele>
        <time>2025-12-04T14:38:12Z</time>
      </trkpt>
      <trkpt lat="45.66677" lon="4.59811">
        <ele>540</ele>
        <time>2025-12-04T14:38:20Z</time>
      </trkpt>
      <trkpt lat="45.66664" lon="4.59817">
        <ele>542.8</ele>
        <time>2025-12-04T14:38:32Z</time>
      </trkpt>
      <trkpt lat="45.66659" lon="4.59818">
        <ele>544.4</ele>
        <time>2025-12-04T14:38:36Z</time>
      </trkpt>
      <trkpt lat="45.66654" lon="4.5982">
        <ele>545.8</ele>
        <time>2025-12-04T14:38:40Z</time>
      </trkpt>
      <trkpt lat="45.66644" lon="4.59825">
        <ele>548.1</ele>
        <time>2025-12-04T14:38:48Z</time>
      </trkpt>
      <trkpt lat="45.66628" lon="4.59842">
        <ele>550.8</ele>
        <time>2025-12-04T14:39:04Z</time>
      </trkpt>
      <trkpt lat="45.66624" lon="4.59854">
        <ele>550.5</ele>
        <time>2025-12-04T14:39:12Z</time>
      </trkpt>
      <trkpt lat="45.66628" lon="4.59884">
        <ele>545.5</ele>
        <time>2025-12-04T14:39:26Z</time>
      </trkpt>
      <trkpt lat="45.66629" lon="4.59898">
        <ele>544.3</ele>
        <time>2025-12-04T14:39:34Z</time>
      </trkpt>
      <trkpt lat="45.66622" lon="4.59923">
        <ele>546.2</ele>
        <time>2025-12-04T14:39:50Z</time>
      </trkpt>
      <trkpt lat="45.66616" lon="4.59934">
        <ele>548</ele>
        <time>2025-12-04T14:39:58Z</time>
      </trkpt>
      <trkpt lat="45.66612" lon="4.59948">
        <ele>548.8</ele>
        <time>2025-12-04T14:40:06Z</time>
      </trkpt>
      <trkpt lat="45.66613" lon="4.59962">
        <ele>549.2</ele>
        <time>2025-12-04T14:40:14Z</time>
      </trkpt>
      <trkpt lat="45.6662" lon="4.59974">
        <ele>547.9</ele>
        <time>2025-12-04T14:40:22Z</time>
      </trkpt>
      <trkpt lat="45.66657" lon="4.59997">
        <ele>541.2</ele>
        <time>2025-12-04T14:40:54Z</time>
      </trkpt>
      <trkpt lat="45.66676" lon="4.60029">
        <ele>541</ele>
        <time>2025-12-04T14:41:18Z</time>
      </trkpt>
      <trkpt lat="45.66681" lon="4.6004">
        <ele>541.4</ele>
        <time>2025-12-04T14:41:26Z</time>
      </trkpt>
      <trkpt lat="45.66687" lon="4.60061">
        <ele>542.7</ele>
        <time>2025-12-04T14:41:44Z</time>
      </trkpt>
      <trkpt lat="45.66682" lon="4.6006">
        <ele>543.5</ele>
        <time>2025-12-04T14:41:48Z</time>
      </trkpt>
      <trkpt lat="45.66678" lon="4.60056">
        <ele>544</ele>
        <time>2025-12-04T14:42:36Z</time>
      </trkpt>
      <trkpt lat="45.66669" lon="4.60056">
        <ele>545.6</ele>
        <time>2025-12-04T14:42:44Z</time>
      </trkpt>
      <trkpt lat="45.66666" lon="4.60052">
        <ele>545.7</ele>
        <time>2025-12-04T14:42:48Z</time>
      </trkpt>
      <trkpt lat="45.66659" lon="4.60049">
        <ele>546.8</ele>
        <time>2025-12-04T14:42:58Z</time>
      </trkpt>
      <trkpt lat="45.66655" lon="4.60048">
        <ele>547.4</ele>
        <time>2025-12-04T14:43:04Z</time>
      </trkpt>
      <trkpt lat="45.66642" lon="4.60044">
        <ele>549.5</ele>
        <time>2025-12-04T14:43:20Z</time>
      </trkpt>
      <trkpt lat="45.66633" lon="4.60043">
        <ele>551.2</ele>
        <time>2025-12-04T14:43:28Z</time>
      </trkpt>
      <trkpt lat="45.66626" lon="4.60045">
        <ele>552.4</ele>
        <time>2025-12-04T14:43:40Z</time>
      </trkpt>
      <trkpt lat="45.66604" lon="4.60064">
        <ele>555.5</ele>
        <time>2025-12-04T14:44:06Z</time>
      </trkpt>
      <trkpt lat="45.6658" lon="4.60075">
        <ele>558.1</ele>
        <time>2025-12-04T14:44:30Z</time>
      </trkpt>
      <trkpt lat="45.66576" lon="4.60073">
        <ele>558.9</ele>
        <time>2025-12-04T14:44:34Z</time>
      </trkpt>
      <trkpt lat="45.66571" lon="4.60072">
        <ele>559.6</ele>
        <time>2025-12-04T14:44:40Z</time>
      </trkpt>
      <trkpt lat="45.6657" lon="4.60065">
        <ele>560.2</ele>
        <time>2025-12-04T14:44:46Z</time>
      </trkpt>
      <trkpt lat="45.66569" lon="4.60055">
        <ele>561.1</ele>
        <time>2025-12-04T14:44:54Z</time>
      </trkpt>
      <trkpt lat="45.66567" lon="4.6005">
        <ele>561.7</ele>
        <time>2025-12-04T14:44:58Z</time>
      </trkpt>
      <trkpt lat="45.66563" lon="4.60037">
        <ele>563</ele>
        <time>2025-12-04T14:45:08Z</time>
      </trkpt>
      <trkpt lat="45.66553" lon="4.60006">
        <ele>566.5</ele>
        <time>2025-12-04T14:45:32Z</time>
      </trkpt>
      <trkpt lat="45.66549" lon="4.59993">
        <ele>568.4</ele>
        <time>2025-12-04T14:45:42Z</time>
      </trkpt>
      <trkpt lat="45.66546" lon="4.5998">
        <ele>570.2</ele>
        <time>2025-12-04T14:45:52Z</time>
      </trkpt>
      <trkpt lat="45.66546" lon="4.59965">
        <ele>571.6</ele>
        <time>2025-12-04T14:46:02Z</time>
      </trkpt>
      <trkpt lat="45.66544" lon="4.59951">
        <ele>573.2</ele>
        <time>2025-12-04T14:46:12Z</time>
      </trkpt>
      <trkpt lat="45.66543" lon="4.59937">
        <ele>575.3</ele>
        <time>2025-12-04T14:46:24Z</time>
      </trkpt>
      <trkpt lat="45.66542" lon="4.59924">
        <ele>577.6</ele>
        <time>2025-12-04T14:46:36Z</time>
      </trkpt>
      <trkpt lat="45.6654" lon="4.59897">
        <ele>580.4</ele>
        <time>2025-12-04T14:47:02Z</time>
      </trkpt>
      <trkpt lat="45.66538" lon="4.59869">
        <ele>582.7</ele>
        <time>2025-12-04T14:47:26Z</time>
      </trkpt>
      <trkpt lat="45.66539" lon="4.59856">
        <ele>583.2</ele>
        <time>2025-12-04T14:47:40Z</time>
      </trkpt>
      <trkpt lat="45.6654" lon="4.59843">
        <ele>584</ele>
        <time>2025-12-04T14:47:50Z</time>
      </trkpt>
      <trkpt lat="45.66543" lon="4.59829">
        <ele>584.4</ele>
        <time>2025-12-04T14:48:02Z</time>
      </trkpt>
      <trkpt lat="45.66542" lon="4.59815">
        <ele>586.4</ele>
        <time>2025-12-04T14:48:12Z</time>
      </trkpt>
      <trkpt lat="45.66543" lon="4.59802">
        <ele>587.4</ele>
        <time>2025-12-04T14:48:24Z</time>
      </trkpt>
      <trkpt lat="45.6654" lon="4.5979">
        <ele>589.5</ele>
        <time>2025-12-04T14:48:34Z</time>
      </trkpt>
      <trkpt lat="45.66537" lon="4.59777">
        <ele>591.5</ele>
        <time>2025-12-04T14:49:06Z</time>
      </trkpt>
      <trkpt lat="45.6654" lon="4.59762">
        <ele>590.9</ele>
        <time>2025-12-04T14:49:14Z</time>
      </trkpt>
      <trkpt lat="45.66531" lon="4.59707">
        <ele>589.8</ele>
        <time>2025-12-04T14:50:00Z</time>
      </trkpt>
      <trkpt lat="45.66526" lon="4.59694">
        <ele>589.4</ele>
        <time>2025-12-04T14:50:10Z</time>
      </trkpt>
      <trkpt lat="45.6652" lon="4.59681">
        <ele>589.7</ele>
        <time>2025-12-04T14:50:20Z</time>
      </trkpt>
      <trkpt lat="45.66512" lon="4.59662">
        <ele>589</ele>
        <time>2025-12-04T14:50:44Z</time>
      </trkpt>
      <trkpt lat="45.66509" lon="4.59659">
        <ele>589</ele>
        <time>2025-12-04T14:50:48Z</time>
      </trkpt>
      <trkpt lat="45.66507" lon="4.59656">
        <ele>588.9</ele>
        <time>2025-12-04T14:50:52Z</time>
      </trkpt>
      <trkpt lat="45.66489" lon="4.59643">
        <ele>589.4</ele>
        <time>2025-12-04T14:51:16Z</time>
      </trkpt>
      <trkpt lat="45.66471" lon="4.59636">
        <ele>590.4</ele>
        <time>2025-12-04T14:51:32Z</time>
      </trkpt>
      <trkpt lat="45.66443" lon="4.59605">
        <ele>590.4</ele>
        <time>2025-12-04T14:52:02Z</time>
      </trkpt>
      <trkpt lat="45.66415" lon="4.59567">
        <ele>592.6</ele>
        <time>2025-12-04T14:52:34Z</time>
      </trkpt>
      <trkpt lat="45.664" lon="4.59548">
        <ele>593.6</ele>
        <time>2025-12-04T14:52:52Z</time>
      </trkpt>
      <trkpt lat="45.66391" lon="4.59541">
        <ele>594.2</ele>
        <time>2025-12-04T14:53:02Z</time>
      </trkpt>
      <trkpt lat="45.66361" lon="4.59529">
        <ele>595.4</ele>
        <time>2025-12-04T14:53:26Z</time>
      </trkpt>
      <trkpt lat="45.66356" lon="4.59516">
        <ele>595.4</ele>
        <time>2025-12-04T14:53:34Z</time>
      </trkpt>
      <trkpt lat="45.66356" lon="4.59501">
        <ele>594.1</ele>
        <time>2025-12-04T14:53:42Z</time>
      </trkpt>
      <trkpt lat="45.66357" lon="4.59488">
        <ele>593.4</ele>
        <time>2025-12-04T14:53:50Z</time>
      </trkpt>
      <trkpt lat="45.66351" lon="4.59476">
        <ele>595.2</ele>
        <time>2025-12-04T14:54:00Z</time>
      </trkpt>
      <trkpt lat="45.66344" lon="4.59468">
        <ele>597.5</ele>
        <time>2025-12-04T14:54:26Z</time>
      </trkpt>
      <trkpt lat="45.66338" lon="4.59458">
        <ele>598.6</ele>
        <time>2025-12-04T14:54:38Z</time>
      </trkpt>
      <trkpt lat="45.66341" lon="4.59451">
        <ele>596.8</ele>
        <time>2025-12-04T14:55:16Z</time>
      </trkpt>
      <trkpt lat="45.66324" lon="4.59437">
        <ele>601.4</ele>
        <time>2025-12-04T14:55:38Z</time>
      </trkpt>
      <trkpt lat="45.66303" lon="4.59408">
        <ele>605</ele>
        <time>2025-12-04T14:56:10Z</time>
      </trkpt>
      <trkpt lat="45.66297" lon="4.59397">
        <ele>605.7</ele>
        <time>2025-12-04T14:56:22Z</time>
      </trkpt>
      <trkpt lat="45.66291" lon="4.59384">
        <ele>606.1</ele>
        <time>2025-12-04T14:56:32Z</time>
      </trkpt>
      <trkpt lat="45.66284" lon="4.59373">
        <ele>606.9</ele>
        <time>2025-12-04T14:56:44Z</time>
      </trkpt>
      <trkpt lat="45.66274" lon="4.59376">
        <ele>609.8</ele>
        <time>2025-12-04T14:56:56Z</time>
      </trkpt>
      <trkpt lat="45.66244" lon="4.59373">
        <ele>615.3</ele>
        <time>2025-12-04T14:57:28Z</time>
      </trkpt>
      <trkpt lat="45.66235" lon="4.59371">
        <ele>616.9</ele>
        <time>2025-12-04T14:57:36Z</time>
      </trkpt>
      <trkpt lat="45.66225" lon="4.59367">
        <ele>618.1</ele>
        <time>2025-12-04T14:57:46Z</time>
      </trkpt>
      <trkpt lat="45.66217" lon="4.59358">
        <ele>617.7</ele>
        <time>2025-12-04T14:58:02Z</time>
      </trkpt>
      <trkpt lat="45.66216" lon="4.59343">
        <ele>614.6</ele>
        <time>2025-12-04T14:59:40Z</time>
      </trkpt>
      <trkpt lat="45.66209" lon="4.59332">
        <ele>614.4</ele>
        <time>2025-12-04T14:59:52Z</time>
      </trkpt>
      <trkpt lat="45.66201" lon="4.59325">
        <ele>616.3</ele>
        <time>2025-12-04T15:00:04Z</time>
      </trkpt>
      <trkpt lat="45.66194" lon="4.59317">
        <ele>617.2</ele>
        <time>2025-12-04T15:00:14Z</time>
      </trkpt>
      <trkpt lat="45.66167" lon="4.59294">
        <ele>620.1</ele>
        <time>2025-12-04T15:00:44Z</time>
      </trkpt>
      <trkpt lat="45.66156" lon="4.59288">
        <ele>621</ele>
        <time>2025-12-04T15:00:54Z</time>
      </trkpt>
      <trkpt lat="45.66148" lon="4.59282">
        <ele>621.2</ele>
        <time>2025-12-04T15:01:02Z</time>
      </trkpt>
      <trkpt lat="45.66122" lon="4.59266">
        <ele>620.7</ele>
        <time>2025-12-04T15:01:26Z</time>
      </trkpt>
      <trkpt lat="45.66083" lon="4.59249">
        <ele>619.7</ele>
        <time>2025-12-04T15:01:58Z</time>
      </trkpt>
      <trkpt lat="45.66047" lon="4.59229">
        <ele>616.5</ele>
        <time>2025-12-04T15:02:30Z</time>
      </trkpt>
      <trkpt lat="45.66043" lon="4.59227">
        <ele>616</ele>
        <time>2025-12-04T15:02:34Z</time>
      </trkpt>
      <trkpt lat="45.66026" lon="4.59213">
        <ele>613.8</ele>
        <time>2025-12-04T15:02:50Z</time>
      </trkpt>
      <trkpt lat="45.66024" lon="4.59208">
        <ele>612.8</ele>
        <time>2025-12-04T15:02:54Z</time>
      </trkpt>
      <trkpt lat="45.66022" lon="4.59203">
        <ele>611.7</ele>
        <time>2025-12-04T15:02:58Z</time>
      </trkpt>
      <trkpt lat="45.66018" lon="4.59203">
        <ele>611.9</ele>
        <time>2025-12-04T15:03:02Z</time>
      </trkpt>
      <trkpt lat="45.66014" lon="4.59201">
        <ele>611.9</ele>
        <time>2025-12-04T15:03:06Z</time>
      </trkpt>
      <trkpt lat="45.66009" lon="4.59202">
        <ele>612.5</ele>
        <time>2025-12-04T15:03:10Z</time>
      </trkpt>
      <trkpt lat="45.66005" lon="4.59203">
        <ele>613.1</ele>
        <time>2025-12-04T15:03:14Z</time>
      </trkpt>
      <trkpt lat="45.65995" lon="4.59197">
        <ele>612.6</ele>
        <time>2025-12-04T15:03:22Z</time>
      </trkpt>
      <trkpt lat="45.65991" lon="4.59194">
        <ele>612.2</ele>
        <time>2025-12-04T15:03:26Z</time>
      </trkpt>
      <trkpt lat="45.65985" lon="4.59206">
        <ele>614.3</ele>
        <time>2025-12-04T15:04:54Z</time>
      </trkpt>
      <trkpt lat="45.6598" lon="4.59217">
        <ele>616.2</ele>
        <time>2025-12-04T15:05:06Z</time>
      </trkpt>
      <trkpt lat="45.65962" lon="4.59251">
        <ele>621.5</ele>
        <time>2025-12-04T15:05:38Z</time>
      </trkpt>
      <trkpt lat="45.6595" lon="4.59274">
        <ele>624.7</ele>
        <time>2025-12-04T15:05:58Z</time>
      </trkpt>
      <trkpt lat="45.65944" lon="4.59285">
        <ele>626.3</ele>
        <time>2025-12-04T15:06:06Z</time>
      </trkpt>
      <trkpt lat="45.65939" lon="4.59297">
        <ele>627.4</ele>
        <time>2025-12-04T15:06:16Z</time>
      </trkpt>
      <trkpt lat="45.65924" lon="4.59319">
        <ele>629</ele>
        <time>2025-12-04T15:06:34Z</time>
      </trkpt>
      <trkpt lat="45.65918" lon="4.59328">
        <ele>630</ele>
        <time>2025-12-04T15:06:42Z</time>
      </trkpt>
      <trkpt lat="45.65888" lon="4.59364">
        <ele>632.5</ele>
        <time>2025-12-04T15:07:16Z</time>
      </trkpt>
      <trkpt lat="45.65868" lon="4.59395">
        <ele>635.3</ele>
        <time>2025-12-04T15:07:42Z</time>
      </trkpt>
      <trkpt lat="45.65866" lon="4.59394">
        <ele>634.8</ele>
        <time>2025-12-04T15:07:50Z</time>
      </trkpt>
      <trkpt lat="45.65866" lon="4.594">
        <ele>635.8</ele>
        <time>2025-12-04T15:07:54Z</time>
      </trkpt>
      <trkpt lat="45.65864" lon="4.59407">
        <ele>636.7</ele>
        <time>2025-12-04T15:08:06Z</time>
      </trkpt>
      <trkpt lat="45.65847" lon="4.59427">
        <ele>638.3</ele>
        <time>2025-12-04T15:08:26Z</time>
      </trkpt>
      <trkpt lat="45.65844" lon="4.59433">
        <ele>638.9</ele>
        <time>2025-12-04T15:08:30Z</time>
      </trkpt>
      <trkpt lat="45.65832" lon="4.59446">
        <ele>640.3</ele>
        <time>2025-12-04T15:08:44Z</time>
      </trkpt>
      <trkpt lat="45.65828" lon="4.59446">
        <ele>640.1</ele>
        <time>2025-12-04T15:08:52Z</time>
      </trkpt>
      <trkpt lat="45.65824" lon="4.59448">
        <ele>640.4</ele>
        <time>2025-12-04T15:08:56Z</time>
      </trkpt>
      <trkpt lat="45.65821" lon="4.59453">
        <ele>641.3</ele>
        <time>2025-12-04T15:09:02Z</time>
      </trkpt>
      <trkpt lat="45.65811" lon="4.59459">
        <ele>642</ele>
        <time>2025-12-04T15:09:14Z</time>
      </trkpt>
      <trkpt lat="45.65809" lon="4.59465">
        <ele>642.9</ele>
        <time>2025-12-04T15:09:20Z</time>
      </trkpt>
      <trkpt lat="45.6581" lon="4.59471">
        <ele>644.1</ele>
        <time>2025-12-04T15:09:26Z</time>
      </trkpt>
      <trkpt lat="45.65807" lon="4.59475">
        <ele>644.8</ele>
        <time>2025-12-04T15:09:30Z</time>
      </trkpt>
      <trkpt lat="45.65793" lon="4.59489">
        <ele>646.9</ele>
        <time>2025-12-04T15:09:48Z</time>
      </trkpt>
      <trkpt lat="45.6576" lon="4.59516">
        <ele>650.8</ele>
        <time>2025-12-04T15:10:26Z</time>
      </trkpt>
      <trkpt lat="45.65741" lon="4.59529">
        <ele>652.8</ele>
        <time>2025-12-04T15:10:46Z</time>
      </trkpt>
      <trkpt lat="45.65733" lon="4.59538">
        <ele>653.8</ele>
        <time>2025-12-04T15:10:56Z</time>
      </trkpt>
      <trkpt lat="45.65722" lon="4.59557">
        <ele>656.1</ele>
        <time>2025-12-04T15:11:12Z</time>
      </trkpt>
      <trkpt lat="45.65722" lon="4.59562">
        <ele>656.7</ele>
        <time>2025-12-04T15:11:22Z</time>
      </trkpt>
      <trkpt lat="45.65719" lon="4.59574">
        <ele>658.2</ele>
        <time>2025-12-04T15:11:32Z</time>
      </trkpt>
      <trkpt lat="45.65718" lon="4.5958">
        <ele>658.8</ele>
        <time>2025-12-04T15:11:36Z</time>
      </trkpt>
      <trkpt lat="45.65716" lon="4.59585">
        <ele>659.2</ele>
        <time>2025-12-04T15:11:40Z</time>
      </trkpt>
      <trkpt lat="45.65714" lon="4.5959">
        <ele>659.4</ele>
        <time>2025-12-04T15:11:44Z</time>
      </trkpt>
      <trkpt lat="45.65706" lon="4.59605">
        <ele>659.5</ele>
        <time>2025-12-04T15:11:56Z</time>
      </trkpt>
      <trkpt lat="45.65699" lon="4.59619">
        <ele>658.9</ele>
        <time>2025-12-04T15:12:08Z</time>
      </trkpt>
      <trkpt lat="45.657" lon="4.59636">
        <ele>658.3</ele>
        <time>2025-12-04T15:12:20Z</time>
      </trkpt>
      <trkpt lat="45.65699" lon="4.59642">
        <ele>658</ele>
        <time>2025-12-04T15:12:24Z</time>
      </trkpt>
      <trkpt lat="45.65699" lon="4.59648">
        <ele>657.6</ele>
        <time>2025-12-04T15:12:28Z</time>
      </trkpt>
      <trkpt lat="45.657" lon="4.59653">
        <ele>657.2</ele>
        <time>2025-12-04T15:12:32Z</time>
      </trkpt>
      <trkpt lat="45.65701" lon="4.59653">
        <ele>657.2</ele>
        <time>2025-12-04T15:13:54Z</time>
      </trkpt>
      <trkpt lat="45.65701" lon="4.59659">
        <ele>656.8</ele>
        <time>2025-12-04T15:14:00Z</time>
      </trkpt>
      <trkpt lat="45.65703" lon="4.59674">
        <ele>655.9</ele>
        <time>2025-12-04T15:14:34Z</time>
      </trkpt>
      <trkpt lat="45.65709" lon="4.59686">
        <ele>655.5</ele>
        <time>2025-12-04T15:15:04Z</time>
      </trkpt>
      <trkpt lat="45.65711" lon="4.59701">
        <ele>654.6</ele>
        <time>2025-12-04T15:15:14Z</time>
      </trkpt>
      <trkpt lat="45.65714" lon="4.59715">
        <ele>653.7</ele>
        <time>2025-12-04T15:15:22Z</time>
      </trkpt>
      <trkpt lat="45.65715" lon="4.5973">
        <ele>652.1</ele>
        <time>2025-12-04T15:15:32Z</time>
      </trkpt>
      <trkpt lat="45.65725" lon="4.59783">
        <ele>645.7</ele>
        <time>2025-12-04T15:16:06Z</time>
      </trkpt>
      <trkpt lat="45.65728" lon="4.59796">
        <ele>643.8</ele>
        <time>2025-12-04T15:16:14Z</time>
      </trkpt>
      <trkpt lat="45.65752" lon="4.59925">
        <ele>637.1</ele>
        <time>2025-12-04T15:17:39Z</time>
      </trkpt>
      <trkpt lat="45.65757" lon="4.59926">
        <ele>638.7</ele>
        <time>2025-12-04T15:17:43Z</time>
      </trkpt>
      <trkpt lat="45.65755" lon="4.5994">
        <ele>637.1</ele>
        <time>2025-12-04T15:17:51Z</time>
      </trkpt>
      <trkpt lat="45.65757" lon="4.59947">
        <ele>636.9</ele>
        <time>2025-12-04T15:17:57Z</time>
      </trkpt>
      <trkpt lat="45.65768" lon="4.59985">
        <ele>634.2</ele>
        <time>2025-12-04T15:18:19Z</time>
      </trkpt>
      <trkpt lat="45.65782" lon="4.60017">
        <ele>633</ele>
        <time>2025-12-04T15:18:37Z</time>
      </trkpt>
      <trkpt lat="45.65797" lon="4.60069">
        <ele>632.3</ele>
        <time>2025-12-04T15:19:09Z</time>
      </trkpt>
      <trkpt lat="45.65813" lon="4.60116">
        <ele>633.3</ele>
        <time>2025-12-04T15:19:41Z</time>
      </trkpt>
      <trkpt lat="45.65816" lon="4.60122">
        <ele>633.6</ele>
        <time>2025-12-04T15:19:45Z</time>
      </trkpt>
      <trkpt lat="45.65817" lon="4.60128">
        <ele>633.7</ele>
        <time>2025-12-04T15:19:49Z</time>
      </trkpt>
      <trkpt lat="45.6582" lon="4.60134">
        <ele>633.9</ele>
        <time>2025-12-04T15:19:53Z</time>
      </trkpt>
      <trkpt lat="45.65826" lon="4.60162">
        <ele>633.9</ele>
        <time>2025-12-04T15:20:09Z</time>
      </trkpt>
      <trkpt lat="45.65833" lon="4.60217">
        <ele>632.2</ele>
        <time>2025-12-04T15:20:41Z</time>
      </trkpt>
      <trkpt lat="45.65832" lon="4.60242">
        <ele>631.9</ele>
        <time>2025-12-04T15:20:53Z</time>
      </trkpt>
    </trkseg>
  </trk>
</gpx>